<?xml version="1.0" encoding="UTF-8" standalone="no" ?>
<gpx xmlns="http://www.topografix.com/GPX/1/1" xmlns:xsi="http://www.w3.org/2001/XMLSchema-instance" xsi:schemaLocation="http://www.topografix.com/GPX/1/1 http://www.topografix.com/GPX/1/1/gpx.xsd" version="1.1" creator="VisuGPX - https://www.visugpx.com">
  <metadata>
    <name>rando santé autour du lac de st andré</name>
    <desc><![CDATA[comment ...]]></desc>
  </metadata>
  <trk>
    <name><![CDATA[12 oct. 2019]]></name>
    <cmt><![CDATA[14:42:40]]></cmt>
    <desc><![CDATA[comment ...]]></desc>
    <trkseg>
      <trkpt lat="44.93925" lon="4.2041">
        <ele>1370</ele>
        <time>2019-10-12T12:42:40Z</time>
      </trkpt>
      <trkpt lat="44.93924" lon="4.2041">
        <ele>1370</ele>
        <time>2019-10-12T12:42:41Z</time>
      </trkpt>
      <trkpt lat="44.93928" lon="4.20416">
        <ele>1365</ele>
        <time>2019-10-12T12:42:58Z</time>
      </trkpt>
      <trkpt lat="44.93944" lon="4.20427">
        <ele>1340</ele>
        <time>2019-10-12T12:45:08Z</time>
      </trkpt>
      <trkpt lat="44.93958" lon="4.20435">
        <ele>1339</ele>
        <time>2019-10-12T12:45:20Z</time>
      </trkpt>
      <trkpt lat="44.93989" lon="4.20443">
        <ele>1335</ele>
        <time>2019-10-12T12:45:50Z</time>
      </trkpt>
      <trkpt lat="44.93995" lon="4.20448">
        <ele>1335</ele>
        <time>2019-10-12T12:45:57Z</time>
      </trkpt>
      <trkpt lat="44.94017" lon="4.20481">
        <ele>1332</ele>
        <time>2019-10-12T12:46:28Z</time>
      </trkpt>
      <trkpt lat="44.94039" lon="4.20525">
        <ele>1329</ele>
        <time>2019-10-12T12:47:06Z</time>
      </trkpt>
      <trkpt lat="44.94054" lon="4.20563">
        <ele>1328</ele>
        <time>2019-10-12T12:47:39Z</time>
      </trkpt>
      <trkpt lat="44.9406" lon="4.20595">
        <ele>1327</ele>
        <time>2019-10-12T12:48:03Z</time>
      </trkpt>
      <trkpt lat="44.94077" lon="4.20632">
        <ele>1327</ele>
        <time>2019-10-12T12:48:34Z</time>
      </trkpt>
      <trkpt lat="44.9409" lon="4.20689">
        <ele>1327</ele>
        <time>2019-10-12T12:49:13Z</time>
      </trkpt>
      <trkpt lat="44.94108" lon="4.2073">
        <ele>1328</ele>
        <time>2019-10-12T12:49:44Z</time>
      </trkpt>
      <trkpt lat="44.94114" lon="4.20745">
        <ele>1328</ele>
        <time>2019-10-12T12:49:55Z</time>
      </trkpt>
      <trkpt lat="44.9414" lon="4.20774">
        <ele>1328</ele>
        <time>2019-10-12T12:50:26Z</time>
      </trkpt>
      <trkpt lat="44.94168" lon="4.20812">
        <ele>1329</ele>
        <time>2019-10-12T12:50:59Z</time>
      </trkpt>
      <trkpt lat="44.94196" lon="4.2085">
        <ele>1330</ele>
        <time>2019-10-12T12:51:33Z</time>
      </trkpt>
      <trkpt lat="44.94201" lon="4.2086">
        <ele>1331</ele>
        <time>2019-10-12T12:51:41Z</time>
      </trkpt>
      <trkpt lat="44.94206" lon="4.20869">
        <ele>1331</ele>
        <time>2019-10-12T12:51:49Z</time>
      </trkpt>
      <trkpt lat="44.94231" lon="4.20896">
        <ele>1334</ele>
        <time>2019-10-12T12:52:19Z</time>
      </trkpt>
      <trkpt lat="44.94237" lon="4.20902">
        <ele>1334</ele>
        <time>2019-10-12T12:52:26Z</time>
      </trkpt>
      <trkpt lat="44.94256" lon="4.20936">
        <ele>1336</ele>
        <time>2019-10-12T12:52:54Z</time>
      </trkpt>
      <trkpt lat="44.94262" lon="4.20943">
        <ele>1337</ele>
        <time>2019-10-12T12:53:02Z</time>
      </trkpt>
      <trkpt lat="44.9429" lon="4.20981">
        <ele>1340</ele>
        <time>2019-10-12T12:53:32Z</time>
      </trkpt>
      <trkpt lat="44.94306" lon="4.20997">
        <ele>1341</ele>
        <time>2019-10-12T12:53:46Z</time>
      </trkpt>
      <trkpt lat="44.94319" lon="4.21009">
        <ele>1342</ele>
        <time>2019-10-12T12:53:58Z</time>
      </trkpt>
      <trkpt lat="44.94352" lon="4.21039">
        <ele>1344</ele>
        <time>2019-10-12T12:54:28Z</time>
      </trkpt>
      <trkpt lat="44.94385" lon="4.21074">
        <ele>1347</ele>
        <time>2019-10-12T12:55:03Z</time>
      </trkpt>
      <trkpt lat="44.94395" lon="4.21079">
        <ele>1355</ele>
        <time>2019-10-12T12:59:16Z</time>
      </trkpt>
      <trkpt lat="44.94436" lon="4.21115">
        <ele>1355</ele>
        <time>2019-10-12T12:59:50Z</time>
      </trkpt>
      <trkpt lat="44.94477" lon="4.21149">
        <ele>1355</ele>
        <time>2019-10-12T13:00:24Z</time>
      </trkpt>
      <trkpt lat="44.94514" lon="4.21191">
        <ele>1355</ele>
        <time>2019-10-12T13:00:55Z</time>
      </trkpt>
      <trkpt lat="44.94529" lon="4.21203">
        <ele>1355</ele>
        <time>2019-10-12T13:01:06Z</time>
      </trkpt>
      <trkpt lat="44.94547" lon="4.2121">
        <ele>1355</ele>
        <time>2019-10-12T13:01:18Z</time>
      </trkpt>
      <trkpt lat="44.94598" lon="4.21212">
        <ele>1356</ele>
        <time>2019-10-12T13:01:51Z</time>
      </trkpt>
      <trkpt lat="44.94646" lon="4.21208">
        <ele>1356</ele>
        <time>2019-10-12T13:02:25Z</time>
      </trkpt>
      <trkpt lat="44.94687" lon="4.21209">
        <ele>1356</ele>
        <time>2019-10-12T13:02:53Z</time>
      </trkpt>
      <trkpt lat="44.94731" lon="4.21228">
        <ele>1357</ele>
        <time>2019-10-12T13:03:29Z</time>
      </trkpt>
      <trkpt lat="44.94773" lon="4.21238">
        <ele>1357</ele>
        <time>2019-10-12T13:04:01Z</time>
      </trkpt>
      <trkpt lat="44.9478" lon="4.2124">
        <ele>1358</ele>
        <time>2019-10-12T13:04:07Z</time>
      </trkpt>
      <trkpt lat="44.94787" lon="4.21238">
        <ele>1358</ele>
        <time>2019-10-12T13:04:13Z</time>
      </trkpt>
      <trkpt lat="44.94799" lon="4.21224">
        <ele>1358</ele>
        <time>2019-10-12T13:04:23Z</time>
      </trkpt>
      <trkpt lat="44.94806" lon="4.2122">
        <ele>1358</ele>
        <time>2019-10-12T13:04:30Z</time>
      </trkpt>
      <trkpt lat="44.94845" lon="4.21257">
        <ele>1358</ele>
        <time>2019-10-12T13:05:03Z</time>
      </trkpt>
      <trkpt lat="44.94873" lon="4.21281">
        <ele>1358</ele>
        <time>2019-10-12T13:05:27Z</time>
      </trkpt>
      <trkpt lat="44.94889" lon="4.2128">
        <ele>1358</ele>
        <time>2019-10-12T13:05:41Z</time>
      </trkpt>
      <trkpt lat="44.9492" lon="4.2127">
        <ele>1359</ele>
        <time>2019-10-12T13:06:12Z</time>
      </trkpt>
      <trkpt lat="44.94929" lon="4.21268">
        <ele>1359</ele>
        <time>2019-10-12T13:06:20Z</time>
      </trkpt>
      <trkpt lat="44.94966" lon="4.21241">
        <ele>1358</ele>
        <time>2019-10-12T13:07:04Z</time>
      </trkpt>
      <trkpt lat="44.94988" lon="4.21234">
        <ele>1357</ele>
        <time>2019-10-12T13:07:26Z</time>
      </trkpt>
      <trkpt lat="44.95017" lon="4.21212">
        <ele>1357</ele>
        <time>2019-10-12T13:08:02Z</time>
      </trkpt>
      <trkpt lat="44.95027" lon="4.21203">
        <ele>1357</ele>
        <time>2019-10-12T13:08:17Z</time>
      </trkpt>
      <trkpt lat="44.95033" lon="4.2119">
        <ele>1357</ele>
        <time>2019-10-12T13:08:27Z</time>
      </trkpt>
      <trkpt lat="44.95045" lon="4.21165">
        <ele>1357</ele>
        <time>2019-10-12T13:08:57Z</time>
      </trkpt>
      <trkpt lat="44.95052" lon="4.21162">
        <ele>1360</ele>
        <time>2019-10-12T13:09:46Z</time>
      </trkpt>
      <trkpt lat="44.95059" lon="4.21161">
        <ele>1374</ele>
        <time>2019-10-12T13:12:24Z</time>
      </trkpt>
      <trkpt lat="44.95078" lon="4.21127">
        <ele>1376</ele>
        <time>2019-10-12T13:12:57Z</time>
      </trkpt>
      <trkpt lat="44.95086" lon="4.21096">
        <ele>1377</ele>
        <time>2019-10-12T13:13:28Z</time>
      </trkpt>
      <trkpt lat="44.95089" lon="4.21081">
        <ele>1377</ele>
        <time>2019-10-12T13:13:39Z</time>
      </trkpt>
      <trkpt lat="44.95097" lon="4.21052">
        <ele>1378</ele>
        <time>2019-10-12T13:14:01Z</time>
      </trkpt>
      <trkpt lat="44.95114" lon="4.21009">
        <ele>1380</ele>
        <time>2019-10-12T13:14:38Z</time>
      </trkpt>
      <trkpt lat="44.95136" lon="4.20974">
        <ele>1382</ele>
        <time>2019-10-12T13:15:16Z</time>
      </trkpt>
      <trkpt lat="44.95156" lon="4.20957">
        <ele>1384</ele>
        <time>2019-10-12T13:15:38Z</time>
      </trkpt>
      <trkpt lat="44.95185" lon="4.20931">
        <ele>1387</ele>
        <time>2019-10-12T13:16:14Z</time>
      </trkpt>
      <trkpt lat="44.95191" lon="4.20922">
        <ele>1400</ele>
        <time>2019-10-12T13:19:21Z</time>
      </trkpt>
      <trkpt lat="44.95198" lon="4.20922">
        <ele>1403</ele>
        <time>2019-10-12T13:23:17Z</time>
      </trkpt>
      <trkpt lat="44.95206" lon="4.20918">
        <ele>1405</ele>
        <time>2019-10-12T13:25:18Z</time>
      </trkpt>
      <trkpt lat="44.95221" lon="4.20905">
        <ele>1405</ele>
        <time>2019-10-12T13:25:43Z</time>
      </trkpt>
      <trkpt lat="44.95232" lon="4.20901">
        <ele>1405</ele>
        <time>2019-10-12T13:25:59Z</time>
      </trkpt>
      <trkpt lat="44.95244" lon="4.209">
        <ele>1406</ele>
        <time>2019-10-12T13:26:20Z</time>
      </trkpt>
      <trkpt lat="44.95254" lon="4.20899">
        <ele>1407</ele>
        <time>2019-10-12T13:26:41Z</time>
      </trkpt>
      <trkpt lat="44.95263" lon="4.20905">
        <ele>1408</ele>
        <time>2019-10-12T13:27:09Z</time>
      </trkpt>
      <trkpt lat="44.95271" lon="4.2091">
        <ele>1410</ele>
        <time>2019-10-12T13:27:50Z</time>
      </trkpt>
      <trkpt lat="44.95286" lon="4.20913">
        <ele>1411</ele>
        <time>2019-10-12T13:28:18Z</time>
      </trkpt>
      <trkpt lat="44.95299" lon="4.20933">
        <ele>1414</ele>
        <time>2019-10-12T13:28:52Z</time>
      </trkpt>
      <trkpt lat="44.95308" lon="4.20942">
        <ele>1415</ele>
        <time>2019-10-12T13:29:10Z</time>
      </trkpt>
      <trkpt lat="44.95312" lon="4.20958">
        <ele>1417</ele>
        <time>2019-10-12T13:29:40Z</time>
      </trkpt>
      <trkpt lat="44.9531" lon="4.20974">
        <ele>1419</ele>
        <time>2019-10-12T13:29:59Z</time>
      </trkpt>
      <trkpt lat="44.9531" lon="4.20987">
        <ele>1426</ele>
        <time>2019-10-12T13:31:32Z</time>
      </trkpt>
      <trkpt lat="44.9531" lon="4.20998">
        <ele>1432</ele>
        <time>2019-10-12T13:33:14Z</time>
      </trkpt>
      <trkpt lat="44.95312" lon="4.21008">
        <ele>1440</ele>
        <time>2019-10-12T13:36:40Z</time>
      </trkpt>
      <trkpt lat="44.95317" lon="4.21012">
        <ele>1447</ele>
        <time>2019-10-12T13:43:49Z</time>
      </trkpt>
      <trkpt lat="44.95318" lon="4.21019">
        <ele>1446</ele>
        <time>2019-10-12T13:46:27Z</time>
      </trkpt>
      <trkpt lat="44.95314" lon="4.21037">
        <ele>1446</ele>
        <time>2019-10-12T13:47:19Z</time>
      </trkpt>
      <trkpt lat="44.95312" lon="4.21045">
        <ele>1446</ele>
        <time>2019-10-12T13:47:24Z</time>
      </trkpt>
      <trkpt lat="44.95311" lon="4.21053">
        <ele>1446</ele>
        <time>2019-10-12T13:47:32Z</time>
      </trkpt>
      <trkpt lat="44.95317" lon="4.21067">
        <ele>1446</ele>
        <time>2019-10-12T13:47:49Z</time>
      </trkpt>
      <trkpt lat="44.95328" lon="4.21075">
        <ele>1446</ele>
        <time>2019-10-12T13:48:16Z</time>
      </trkpt>
      <trkpt lat="44.95344" lon="4.21083">
        <ele>1446</ele>
        <time>2019-10-12T13:48:38Z</time>
      </trkpt>
      <trkpt lat="44.9535" lon="4.21087">
        <ele>1446</ele>
        <time>2019-10-12T13:48:47Z</time>
      </trkpt>
      <trkpt lat="44.95353" lon="4.21093">
        <ele>1447</ele>
        <time>2019-10-12T13:49:03Z</time>
      </trkpt>
      <trkpt lat="44.95357" lon="4.21089">
        <ele>1448</ele>
        <time>2019-10-12T13:50:44Z</time>
      </trkpt>
      <trkpt lat="44.9536" lon="4.21084">
        <ele>1448</ele>
        <time>2019-10-12T13:51:05Z</time>
      </trkpt>
      <trkpt lat="44.95363" lon="4.21076">
        <ele>1447</ele>
        <time>2019-10-12T13:51:58Z</time>
      </trkpt>
      <trkpt lat="44.95368" lon="4.21053">
        <ele>1447</ele>
        <time>2019-10-12T13:52:15Z</time>
      </trkpt>
      <trkpt lat="44.95378" lon="4.21022">
        <ele>1446</ele>
        <time>2019-10-12T13:52:40Z</time>
      </trkpt>
      <trkpt lat="44.95381" lon="4.21018">
        <ele>1446</ele>
        <time>2019-10-12T13:52:46Z</time>
      </trkpt>
      <trkpt lat="44.95395" lon="4.21006">
        <ele>1446</ele>
        <time>2019-10-12T13:53:11Z</time>
      </trkpt>
      <trkpt lat="44.95399" lon="4.21">
        <ele>1446</ele>
        <time>2019-10-12T13:53:17Z</time>
      </trkpt>
      <trkpt lat="44.954" lon="4.20992">
        <ele>1445</ele>
        <time>2019-10-12T13:53:25Z</time>
      </trkpt>
      <trkpt lat="44.95401" lon="4.20984">
        <ele>1445</ele>
        <time>2019-10-12T13:53:37Z</time>
      </trkpt>
      <trkpt lat="44.95404" lon="4.20977">
        <ele>1444</ele>
        <time>2019-10-12T13:53:47Z</time>
      </trkpt>
      <trkpt lat="44.95404" lon="4.2097">
        <ele>1444</ele>
        <time>2019-10-12T13:53:54Z</time>
      </trkpt>
      <trkpt lat="44.95411" lon="4.20964">
        <ele>1441</ele>
        <time>2019-10-12T13:54:41Z</time>
      </trkpt>
      <trkpt lat="44.95429" lon="4.20944">
        <ele>1438</ele>
        <time>2019-10-12T13:55:09Z</time>
      </trkpt>
      <trkpt lat="44.95437" lon="4.20945">
        <ele>1436</ele>
        <time>2019-10-12T13:55:28Z</time>
      </trkpt>
      <trkpt lat="44.95445" lon="4.20942">
        <ele>1435</ele>
        <time>2019-10-12T13:55:40Z</time>
      </trkpt>
      <trkpt lat="44.95453" lon="4.20941">
        <ele>1433</ele>
        <time>2019-10-12T13:55:52Z</time>
      </trkpt>
      <trkpt lat="44.9546" lon="4.20937">
        <ele>1432</ele>
        <time>2019-10-12T13:56:04Z</time>
      </trkpt>
      <trkpt lat="44.95467" lon="4.20933">
        <ele>1429</ele>
        <time>2019-10-12T13:56:25Z</time>
      </trkpt>
      <trkpt lat="44.95474" lon="4.2093">
        <ele>1425</ele>
        <time>2019-10-12T13:56:47Z</time>
      </trkpt>
      <trkpt lat="44.95482" lon="4.20932">
        <ele>1423</ele>
        <time>2019-10-12T13:57:03Z</time>
      </trkpt>
      <trkpt lat="44.95489" lon="4.20929">
        <ele>1420</ele>
        <time>2019-10-12T13:57:23Z</time>
      </trkpt>
      <trkpt lat="44.95503" lon="4.20921">
        <ele>1416</ele>
        <time>2019-10-12T13:57:49Z</time>
      </trkpt>
      <trkpt lat="44.9551" lon="4.20917">
        <ele>1414</ele>
        <time>2019-10-12T13:58:02Z</time>
      </trkpt>
      <trkpt lat="44.95517" lon="4.20918">
        <ele>1413</ele>
        <time>2019-10-12T13:58:08Z</time>
      </trkpt>
      <trkpt lat="44.95531" lon="4.20917">
        <ele>1407</ele>
        <time>2019-10-12T13:58:44Z</time>
      </trkpt>
      <trkpt lat="44.95543" lon="4.20912">
        <ele>1405</ele>
        <time>2019-10-12T13:58:54Z</time>
      </trkpt>
      <trkpt lat="44.95545" lon="4.20904">
        <ele>1402</ele>
        <time>2019-10-12T13:59:11Z</time>
      </trkpt>
      <trkpt lat="44.95549" lon="4.20902">
        <ele>1399</ele>
        <time>2019-10-12T13:59:28Z</time>
      </trkpt>
      <trkpt lat="44.95548" lon="4.20897">
        <ele>1391</ele>
        <time>2019-10-12T14:00:46Z</time>
      </trkpt>
      <trkpt lat="44.95551" lon="4.20898">
        <ele>1384</ele>
        <time>2019-10-12T14:03:01Z</time>
      </trkpt>
      <trkpt lat="44.95548" lon="4.20892">
        <ele>1383</ele>
        <time>2019-10-12T14:04:38Z</time>
      </trkpt>
      <trkpt lat="44.95543" lon="4.20888">
        <ele>1383</ele>
        <time>2019-10-12T14:04:45Z</time>
      </trkpt>
      <trkpt lat="44.95538" lon="4.20884">
        <ele>1383</ele>
        <time>2019-10-12T14:04:52Z</time>
      </trkpt>
      <trkpt lat="44.95535" lon="4.20878">
        <ele>1382</ele>
        <time>2019-10-12T14:04:59Z</time>
      </trkpt>
      <trkpt lat="44.95516" lon="4.20848">
        <ele>1381</ele>
        <time>2019-10-12T14:05:33Z</time>
      </trkpt>
      <trkpt lat="44.95512" lon="4.20839">
        <ele>1381</ele>
        <time>2019-10-12T14:05:40Z</time>
      </trkpt>
      <trkpt lat="44.95502" lon="4.20815">
        <ele>1380</ele>
        <time>2019-10-12T14:05:58Z</time>
      </trkpt>
      <trkpt lat="44.955" lon="4.20807">
        <ele>1380</ele>
        <time>2019-10-12T14:06:05Z</time>
      </trkpt>
      <trkpt lat="44.95484" lon="4.20784">
        <ele>1378</ele>
        <time>2019-10-12T14:06:35Z</time>
      </trkpt>
      <trkpt lat="44.95481" lon="4.20774">
        <ele>1377</ele>
        <time>2019-10-12T14:06:45Z</time>
      </trkpt>
      <trkpt lat="44.95473" lon="4.20755">
        <ele>1376</ele>
        <time>2019-10-12T14:07:00Z</time>
      </trkpt>
      <trkpt lat="44.95462" lon="4.20739">
        <ele>1375</ele>
        <time>2019-10-12T14:07:13Z</time>
      </trkpt>
      <trkpt lat="44.95457" lon="4.20731">
        <ele>1374</ele>
        <time>2019-10-12T14:07:20Z</time>
      </trkpt>
      <trkpt lat="44.95451" lon="4.20723">
        <ele>1373</ele>
        <time>2019-10-12T14:07:28Z</time>
      </trkpt>
      <trkpt lat="44.95446" lon="4.20715">
        <ele>1372</ele>
        <time>2019-10-12T14:07:36Z</time>
      </trkpt>
      <trkpt lat="44.95435" lon="4.20699">
        <ele>1371</ele>
        <time>2019-10-12T14:07:51Z</time>
      </trkpt>
      <trkpt lat="44.95429" lon="4.20692">
        <ele>1370</ele>
        <time>2019-10-12T14:07:57Z</time>
      </trkpt>
      <trkpt lat="44.95423" lon="4.20685">
        <ele>1369</ele>
        <time>2019-10-12T14:08:05Z</time>
      </trkpt>
      <trkpt lat="44.95411" lon="4.20674">
        <ele>1368</ele>
        <time>2019-10-12T14:08:18Z</time>
      </trkpt>
      <trkpt lat="44.9539" lon="4.20658">
        <ele>1365</ele>
        <time>2019-10-12T14:08:41Z</time>
      </trkpt>
      <trkpt lat="44.95384" lon="4.20651">
        <ele>1365</ele>
        <time>2019-10-12T14:08:47Z</time>
      </trkpt>
      <trkpt lat="44.9537" lon="4.20634">
        <ele>1364</ele>
        <time>2019-10-12T14:09:01Z</time>
      </trkpt>
      <trkpt lat="44.95365" lon="4.20628">
        <ele>1363</ele>
        <time>2019-10-12T14:09:06Z</time>
      </trkpt>
      <trkpt lat="44.95361" lon="4.20622">
        <ele>1363</ele>
        <time>2019-10-12T14:09:11Z</time>
      </trkpt>
      <trkpt lat="44.95356" lon="4.20617">
        <ele>1362</ele>
        <time>2019-10-12T14:09:16Z</time>
      </trkpt>
      <trkpt lat="44.95351" lon="4.20611">
        <ele>1362</ele>
        <time>2019-10-12T14:09:21Z</time>
      </trkpt>
      <trkpt lat="44.95346" lon="4.20607">
        <ele>1362</ele>
        <time>2019-10-12T14:09:26Z</time>
      </trkpt>
      <trkpt lat="44.95341" lon="4.20602">
        <ele>1361</ele>
        <time>2019-10-12T14:09:30Z</time>
      </trkpt>
      <trkpt lat="44.95336" lon="4.206">
        <ele>1361</ele>
        <time>2019-10-12T14:09:35Z</time>
      </trkpt>
      <trkpt lat="44.95324" lon="4.20594">
        <ele>1360</ele>
        <time>2019-10-12T14:09:47Z</time>
      </trkpt>
      <trkpt lat="44.95318" lon="4.2059">
        <ele>1360</ele>
        <time>2019-10-12T14:09:52Z</time>
      </trkpt>
      <trkpt lat="44.95291" lon="4.20558">
        <ele>1358</ele>
        <time>2019-10-12T14:10:22Z</time>
      </trkpt>
      <trkpt lat="44.95285" lon="4.20554">
        <ele>1357</ele>
        <time>2019-10-12T14:10:28Z</time>
      </trkpt>
      <trkpt lat="44.95272" lon="4.20543">
        <ele>1356</ele>
        <time>2019-10-12T14:10:45Z</time>
      </trkpt>
      <trkpt lat="44.95266" lon="4.20535">
        <ele>1356</ele>
        <time>2019-10-12T14:10:51Z</time>
      </trkpt>
      <trkpt lat="44.95263" lon="4.20531">
        <ele>1355</ele>
        <time>2019-10-12T14:10:55Z</time>
      </trkpt>
      <trkpt lat="44.95237" lon="4.20497">
        <ele>1353</ele>
        <time>2019-10-12T14:11:28Z</time>
      </trkpt>
      <trkpt lat="44.95232" lon="4.2049">
        <ele>1352</ele>
        <time>2019-10-12T14:11:34Z</time>
      </trkpt>
      <trkpt lat="44.95201" lon="4.20463">
        <ele>1350</ele>
        <time>2019-10-12T14:12:08Z</time>
      </trkpt>
      <trkpt lat="44.95174" lon="4.20437">
        <ele>1347</ele>
        <time>2019-10-12T14:12:39Z</time>
      </trkpt>
      <trkpt lat="44.95168" lon="4.20426">
        <ele>1347</ele>
        <time>2019-10-12T14:12:49Z</time>
      </trkpt>
      <trkpt lat="44.95164" lon="4.20411">
        <ele>1346</ele>
        <time>2019-10-12T14:12:59Z</time>
      </trkpt>
      <trkpt lat="44.95159" lon="4.20379">
        <ele>1344</ele>
        <time>2019-10-12T14:13:21Z</time>
      </trkpt>
      <trkpt lat="44.95154" lon="4.20348">
        <ele>1340</ele>
        <time>2019-10-12T14:13:53Z</time>
      </trkpt>
      <trkpt lat="44.9515" lon="4.20321">
        <ele>1337</ele>
        <time>2019-10-12T14:14:24Z</time>
      </trkpt>
      <trkpt lat="44.95146" lon="4.20304">
        <ele>1336</ele>
        <time>2019-10-12T14:14:36Z</time>
      </trkpt>
      <trkpt lat="44.95142" lon="4.20292">
        <ele>1335</ele>
        <time>2019-10-12T14:14:44Z</time>
      </trkpt>
      <trkpt lat="44.95139" lon="4.20288">
        <ele>1335</ele>
        <time>2019-10-12T14:14:48Z</time>
      </trkpt>
      <trkpt lat="44.95135" lon="4.20286">
        <ele>1334</ele>
        <time>2019-10-12T14:14:52Z</time>
      </trkpt>
      <trkpt lat="44.95123" lon="4.2029">
        <ele>1333</ele>
        <time>2019-10-12T14:15:01Z</time>
      </trkpt>
      <trkpt lat="44.95117" lon="4.20295">
        <ele>1333</ele>
        <time>2019-10-12T14:15:07Z</time>
      </trkpt>
      <trkpt lat="44.95112" lon="4.203">
        <ele>1332</ele>
        <time>2019-10-12T14:15:12Z</time>
      </trkpt>
      <trkpt lat="44.95108" lon="4.20301">
        <ele>1331</ele>
        <time>2019-10-12T14:15:20Z</time>
      </trkpt>
      <trkpt lat="44.95105" lon="4.20312">
        <ele>1328</ele>
        <time>2019-10-12T14:15:44Z</time>
      </trkpt>
      <trkpt lat="44.95104" lon="4.20317">
        <ele>1328</ele>
        <time>2019-10-12T14:15:48Z</time>
      </trkpt>
      <trkpt lat="44.95088" lon="4.20358">
        <ele>1325</ele>
        <time>2019-10-12T14:16:15Z</time>
      </trkpt>
      <trkpt lat="44.95064" lon="4.20404">
        <ele>1321</ele>
        <time>2019-10-12T14:16:45Z</time>
      </trkpt>
      <trkpt lat="44.95041" lon="4.20439">
        <ele>1318</ele>
        <time>2019-10-12T14:17:19Z</time>
      </trkpt>
      <trkpt lat="44.95028" lon="4.20458">
        <ele>1316</ele>
        <time>2019-10-12T14:17:35Z</time>
      </trkpt>
      <trkpt lat="44.95017" lon="4.20466">
        <ele>1315</ele>
        <time>2019-10-12T14:17:48Z</time>
      </trkpt>
      <trkpt lat="44.95011" lon="4.20467">
        <ele>1314</ele>
        <time>2019-10-12T14:17:54Z</time>
      </trkpt>
      <trkpt lat="44.95" lon="4.20464">
        <ele>1313</ele>
        <time>2019-10-12T14:18:03Z</time>
      </trkpt>
      <trkpt lat="44.94995" lon="4.2046">
        <ele>1312</ele>
        <time>2019-10-12T14:18:09Z</time>
      </trkpt>
      <trkpt lat="44.9499" lon="4.20457">
        <ele>1312</ele>
        <time>2019-10-12T14:18:14Z</time>
      </trkpt>
      <trkpt lat="44.94982" lon="4.20445">
        <ele>1311</ele>
        <time>2019-10-12T14:18:24Z</time>
      </trkpt>
      <trkpt lat="44.94975" lon="4.20433">
        <ele>1309</ele>
        <time>2019-10-12T14:18:34Z</time>
      </trkpt>
      <trkpt lat="44.94968" lon="4.20421">
        <ele>1308</ele>
        <time>2019-10-12T14:18:44Z</time>
      </trkpt>
      <trkpt lat="44.94965" lon="4.20408">
        <ele>1306</ele>
        <time>2019-10-12T14:19:01Z</time>
      </trkpt>
      <trkpt lat="44.94965" lon="4.20409">
        <ele>1292</ele>
        <time>2019-10-12T14:23:00Z</time>
      </trkpt>
      <trkpt lat="44.94966" lon="4.2041">
        <ele>1292</ele>
        <time>2019-10-12T14:23:25Z</time>
      </trkpt>
      <trkpt lat="44.94966" lon="4.20404">
        <ele>1292</ele>
        <time>2019-10-12T14:23:29Z</time>
      </trkpt>
      <trkpt lat="44.94967" lon="4.20399">
        <ele>1291</ele>
        <time>2019-10-12T14:23:48Z</time>
      </trkpt>
      <trkpt lat="44.94966" lon="4.20396">
        <ele>1291</ele>
        <time>2019-10-12T14:24:09Z</time>
      </trkpt>
      <trkpt lat="44.94964" lon="4.20397">
        <ele>1290</ele>
        <time>2019-10-12T14:24:57Z</time>
      </trkpt>
      <trkpt lat="44.9496" lon="4.20394">
        <ele>1290</ele>
        <time>2019-10-12T14:25:09Z</time>
      </trkpt>
      <trkpt lat="44.94956" lon="4.20394">
        <ele>1290</ele>
        <time>2019-10-12T14:25:15Z</time>
      </trkpt>
      <trkpt lat="44.94932" lon="4.2041">
        <ele>1290</ele>
        <time>2019-10-12T14:25:38Z</time>
      </trkpt>
      <trkpt lat="44.94917" lon="4.20419">
        <ele>1290</ele>
        <time>2019-10-12T14:25:52Z</time>
      </trkpt>
      <trkpt lat="44.94909" lon="4.20431">
        <ele>1289</ele>
        <time>2019-10-12T14:26:04Z</time>
      </trkpt>
      <trkpt lat="44.94906" lon="4.20435">
        <ele>1289</ele>
        <time>2019-10-12T14:26:10Z</time>
      </trkpt>
      <trkpt lat="44.94888" lon="4.20433">
        <ele>1289</ele>
        <time>2019-10-12T14:26:27Z</time>
      </trkpt>
      <trkpt lat="44.94883" lon="4.20429">
        <ele>1289</ele>
        <time>2019-10-12T14:26:36Z</time>
      </trkpt>
      <trkpt lat="44.9487" lon="4.20431">
        <ele>1288</ele>
        <time>2019-10-12T14:26:49Z</time>
      </trkpt>
      <trkpt lat="44.94859" lon="4.20438">
        <ele>1288</ele>
        <time>2019-10-12T14:27:00Z</time>
      </trkpt>
      <trkpt lat="44.94854" lon="4.20434">
        <ele>1287</ele>
        <time>2019-10-12T14:27:09Z</time>
      </trkpt>
      <trkpt lat="44.94852" lon="4.20426">
        <ele>1287</ele>
        <time>2019-10-12T14:27:14Z</time>
      </trkpt>
      <trkpt lat="44.94851" lon="4.20409">
        <ele>1286</ele>
        <time>2019-10-12T14:27:23Z</time>
      </trkpt>
      <trkpt lat="44.9485" lon="4.20401">
        <ele>1286</ele>
        <time>2019-10-12T14:27:28Z</time>
      </trkpt>
      <trkpt lat="44.94828" lon="4.20374">
        <ele>1284</ele>
        <time>2019-10-12T14:27:56Z</time>
      </trkpt>
      <trkpt lat="44.94816" lon="4.20368">
        <ele>1283</ele>
        <time>2019-10-12T14:28:06Z</time>
      </trkpt>
      <trkpt lat="44.94794" lon="4.20354">
        <ele>1281</ele>
        <time>2019-10-12T14:28:29Z</time>
      </trkpt>
      <trkpt lat="44.94778" lon="4.20342">
        <ele>1280</ele>
        <time>2019-10-12T14:28:42Z</time>
      </trkpt>
      <trkpt lat="44.94761" lon="4.20332">
        <ele>1279</ele>
        <time>2019-10-12T14:28:56Z</time>
      </trkpt>
      <trkpt lat="44.94737" lon="4.20316">
        <ele>1278</ele>
        <time>2019-10-12T14:29:17Z</time>
      </trkpt>
      <trkpt lat="44.94726" lon="4.20312">
        <ele>1278</ele>
        <time>2019-10-12T14:29:27Z</time>
      </trkpt>
      <trkpt lat="44.94693" lon="4.20289">
        <ele>1276</ele>
        <time>2019-10-12T14:29:54Z</time>
      </trkpt>
      <trkpt lat="44.94683" lon="4.20287">
        <ele>1275</ele>
        <time>2019-10-12T14:30:02Z</time>
      </trkpt>
      <trkpt lat="44.94673" lon="4.20288">
        <ele>1275</ele>
        <time>2019-10-12T14:30:13Z</time>
      </trkpt>
      <trkpt lat="44.94644" lon="4.20303">
        <ele>1273</ele>
        <time>2019-10-12T14:30:38Z</time>
      </trkpt>
      <trkpt lat="44.94613" lon="4.20309">
        <ele>1272</ele>
        <time>2019-10-12T14:31:02Z</time>
      </trkpt>
      <trkpt lat="44.94605" lon="4.20311">
        <ele>1272</ele>
        <time>2019-10-12T14:31:10Z</time>
      </trkpt>
      <trkpt lat="44.94601" lon="4.20315">
        <ele>1272</ele>
        <time>2019-10-12T14:31:15Z</time>
      </trkpt>
      <trkpt lat="44.94597" lon="4.20317">
        <ele>1272</ele>
        <time>2019-10-12T14:31:19Z</time>
      </trkpt>
      <trkpt lat="44.94588" lon="4.20317">
        <ele>1271</ele>
        <time>2019-10-12T14:31:27Z</time>
      </trkpt>
      <trkpt lat="44.9456" lon="4.2033">
        <ele>1271</ele>
        <time>2019-10-12T14:31:51Z</time>
      </trkpt>
      <trkpt lat="44.94528" lon="4.20324">
        <ele>1270</ele>
        <time>2019-10-12T14:32:18Z</time>
      </trkpt>
      <trkpt lat="44.94488" lon="4.20301">
        <ele>1270</ele>
        <time>2019-10-12T14:32:51Z</time>
      </trkpt>
      <trkpt lat="44.94476" lon="4.20293">
        <ele>1269</ele>
        <time>2019-10-12T14:33:01Z</time>
      </trkpt>
      <trkpt lat="44.94443" lon="4.20263">
        <ele>1268</ele>
        <time>2019-10-12T14:33:32Z</time>
      </trkpt>
      <trkpt lat="44.94408" lon="4.20224">
        <ele>1267</ele>
        <time>2019-10-12T14:34:05Z</time>
      </trkpt>
      <trkpt lat="44.9437" lon="4.20185">
        <ele>1266</ele>
        <time>2019-10-12T14:34:37Z</time>
      </trkpt>
      <trkpt lat="44.94348" lon="4.20167">
        <ele>1265</ele>
        <time>2019-10-12T14:34:56Z</time>
      </trkpt>
      <trkpt lat="44.9431" lon="4.20147">
        <ele>1264</ele>
        <time>2019-10-12T14:35:26Z</time>
      </trkpt>
      <trkpt lat="44.94271" lon="4.2012">
        <ele>1262</ele>
        <time>2019-10-12T14:35:58Z</time>
      </trkpt>
      <trkpt lat="44.94236" lon="4.20088">
        <ele>1261</ele>
        <time>2019-10-12T14:36:29Z</time>
      </trkpt>
      <trkpt lat="44.94207" lon="4.2007">
        <ele>1260</ele>
        <time>2019-10-12T14:36:52Z</time>
      </trkpt>
      <trkpt lat="44.94175" lon="4.20058">
        <ele>1259</ele>
        <time>2019-10-12T14:37:16Z</time>
      </trkpt>
      <trkpt lat="44.94172" lon="4.20055">
        <ele>1259</ele>
        <time>2019-10-12T14:37:20Z</time>
      </trkpt>
      <trkpt lat="44.94169" lon="4.20051">
        <ele>1259</ele>
        <time>2019-10-12T14:37:23Z</time>
      </trkpt>
      <trkpt lat="44.94161" lon="4.20036">
        <ele>1259</ele>
        <time>2019-10-12T14:37:34Z</time>
      </trkpt>
      <trkpt lat="44.94157" lon="4.20032">
        <ele>1258</ele>
        <time>2019-10-12T14:37:38Z</time>
      </trkpt>
      <trkpt lat="44.94122" lon="4.20037">
        <ele>1258</ele>
        <time>2019-10-12T14:38:10Z</time>
      </trkpt>
      <trkpt lat="44.94115" lon="4.20039">
        <ele>1256</ele>
        <time>2019-10-12T14:45:07Z</time>
      </trkpt>
      <trkpt lat="44.94109" lon="4.20035">
        <ele>1256</ele>
        <time>2019-10-12T14:46:09Z</time>
      </trkpt>
      <trkpt lat="44.94104" lon="4.20043">
        <ele>1256</ele>
        <time>2019-10-12T14:46:13Z</time>
      </trkpt>
      <trkpt lat="44.94098" lon="4.2005">
        <ele>1257</ele>
        <time>2019-10-12T14:46:18Z</time>
      </trkpt>
      <trkpt lat="44.94075" lon="4.20055">
        <ele>1257</ele>
        <time>2019-10-12T14:46:43Z</time>
      </trkpt>
      <trkpt lat="44.94049" lon="4.20081">
        <ele>1258</ele>
        <time>2019-10-12T14:47:10Z</time>
      </trkpt>
      <trkpt lat="44.9403" lon="4.20096">
        <ele>1259</ele>
        <time>2019-10-12T14:47:30Z</time>
      </trkpt>
      <trkpt lat="44.94026" lon="4.20101">
        <ele>1259</ele>
        <time>2019-10-12T14:47:41Z</time>
      </trkpt>
      <trkpt lat="44.9402" lon="4.20104">
        <ele>1261</ele>
        <time>2019-10-12T14:48:00Z</time>
      </trkpt>
      <trkpt lat="44.94012" lon="4.20103">
        <ele>1261</ele>
        <time>2019-10-12T14:48:22Z</time>
      </trkpt>
      <trkpt lat="44.93989" lon="4.20105">
        <ele>1262</ele>
        <time>2019-10-12T14:48:40Z</time>
      </trkpt>
      <trkpt lat="44.93982" lon="4.2011">
        <ele>1263</ele>
        <time>2019-10-12T14:48:51Z</time>
      </trkpt>
      <trkpt lat="44.93979" lon="4.2012">
        <ele>1263</ele>
        <time>2019-10-12T14:49:01Z</time>
      </trkpt>
      <trkpt lat="44.93978" lon="4.20129">
        <ele>1264</ele>
        <time>2019-10-12T14:49:13Z</time>
      </trkpt>
      <trkpt lat="44.93972" lon="4.20133">
        <ele>1264</ele>
        <time>2019-10-12T14:49:20Z</time>
      </trkpt>
      <trkpt lat="44.93966" lon="4.20136">
        <ele>1264</ele>
        <time>2019-10-12T14:49:26Z</time>
      </trkpt>
      <trkpt lat="44.93951" lon="4.2014">
        <ele>1265</ele>
        <time>2019-10-12T14:49:44Z</time>
      </trkpt>
      <trkpt lat="44.93943" lon="4.20142">
        <ele>1265</ele>
        <time>2019-10-12T14:49:52Z</time>
      </trkpt>
      <trkpt lat="44.93936" lon="4.20146">
        <ele>1265</ele>
        <time>2019-10-12T14:50:01Z</time>
      </trkpt>
      <trkpt lat="44.93931" lon="4.20154">
        <ele>1266</ele>
        <time>2019-10-12T14:50:09Z</time>
      </trkpt>
      <trkpt lat="44.93923" lon="4.20171">
        <ele>1267</ele>
        <time>2019-10-12T14:50:21Z</time>
      </trkpt>
      <trkpt lat="44.93911" lon="4.20177">
        <ele>1268</ele>
        <time>2019-10-12T14:50:47Z</time>
      </trkpt>
      <trkpt lat="44.93905" lon="4.20176">
        <ele>1268</ele>
        <time>2019-10-12T14:50:53Z</time>
      </trkpt>
      <trkpt lat="44.93903" lon="4.20168">
        <ele>1268</ele>
        <time>2019-10-12T14:51:02Z</time>
      </trkpt>
      <trkpt lat="44.93897" lon="4.20162">
        <ele>1269</ele>
        <time>2019-10-12T14:51:13Z</time>
      </trkpt>
      <trkpt lat="44.93891" lon="4.20149">
        <ele>1270</ele>
        <time>2019-10-12T14:51:28Z</time>
      </trkpt>
      <trkpt lat="44.93888" lon="4.20141">
        <ele>1271</ele>
        <time>2019-10-12T14:51:36Z</time>
      </trkpt>
      <trkpt lat="44.93881" lon="4.20138">
        <ele>1271</ele>
        <time>2019-10-12T14:51:48Z</time>
      </trkpt>
      <trkpt lat="44.93874" lon="4.20136">
        <ele>1272</ele>
        <time>2019-10-12T14:51:55Z</time>
      </trkpt>
      <trkpt lat="44.93867" lon="4.2013">
        <ele>1273</ele>
        <time>2019-10-12T14:52:03Z</time>
      </trkpt>
      <trkpt lat="44.93847" lon="4.20122">
        <ele>1275</ele>
        <time>2019-10-12T14:52:25Z</time>
      </trkpt>
      <trkpt lat="44.9384" lon="4.20119">
        <ele>1276</ele>
        <time>2019-10-12T14:52:34Z</time>
      </trkpt>
      <trkpt lat="44.93834" lon="4.20115">
        <ele>1277</ele>
        <time>2019-10-12T14:52:49Z</time>
      </trkpt>
      <trkpt lat="44.93827" lon="4.20111">
        <ele>1278</ele>
        <time>2019-10-12T14:53:01Z</time>
      </trkpt>
      <trkpt lat="44.93821" lon="4.20104">
        <ele>1279</ele>
        <time>2019-10-12T14:53:09Z</time>
      </trkpt>
      <trkpt lat="44.93813" lon="4.20098">
        <ele>1279</ele>
        <time>2019-10-12T14:53:18Z</time>
      </trkpt>
      <trkpt lat="44.93795" lon="4.20094">
        <ele>1290</ele>
        <time>2019-10-12T14:58:45Z</time>
      </trkpt>
      <trkpt lat="44.93784" lon="4.20092">
        <ele>1292</ele>
        <time>2019-10-12T15:02:26Z</time>
      </trkpt>
      <trkpt lat="44.93778" lon="4.20082">
        <ele>1288</ele>
        <time>2019-10-12T15:11:21Z</time>
      </trkpt>
      <trkpt lat="44.93775" lon="4.20075">
        <ele>1290</ele>
        <time>2019-10-12T15:11:53Z</time>
      </trkpt>
      <trkpt lat="44.93773" lon="4.20072">
        <ele>1291</ele>
        <time>2019-10-12T15:12:03Z</time>
      </trkpt>
      <trkpt lat="44.9377" lon="4.20072">
        <ele>1292</ele>
        <time>2019-10-12T15:12:13Z</time>
      </trkpt>
      <trkpt lat="44.93771" lon="4.20066">
        <ele>1293</ele>
        <time>2019-10-12T15:12:31Z</time>
      </trkpt>
      <trkpt lat="44.93769" lon="4.2006">
        <ele>1294</ele>
        <time>2019-10-12T15:12:38Z</time>
      </trkpt>
      <trkpt lat="44.93772" lon="4.20053">
        <ele>1295</ele>
        <time>2019-10-12T15:12:50Z</time>
      </trkpt>
      <trkpt lat="44.93772" lon="4.20048">
        <ele>1297</ele>
        <time>2019-10-12T15:13:10Z</time>
      </trkpt>
      <trkpt lat="44.93782" lon="4.20041">
        <ele>1300</ele>
        <time>2019-10-12T15:13:41Z</time>
      </trkpt>
      <trkpt lat="44.93788" lon="4.20039">
        <ele>1301</ele>
        <time>2019-10-12T15:13:48Z</time>
      </trkpt>
      <trkpt lat="44.93792" lon="4.20034">
        <ele>1302</ele>
        <time>2019-10-12T15:13:58Z</time>
      </trkpt>
      <trkpt lat="44.93798" lon="4.20035">
        <ele>1303</ele>
        <time>2019-10-12T15:14:07Z</time>
      </trkpt>
      <trkpt lat="44.93809" lon="4.20035">
        <ele>1305</ele>
        <time>2019-10-12T15:14:21Z</time>
      </trkpt>
      <trkpt lat="44.93814" lon="4.20034">
        <ele>1306</ele>
        <time>2019-10-12T15:14:29Z</time>
      </trkpt>
      <trkpt lat="44.93814" lon="4.2003">
        <ele>1309</ele>
        <time>2019-10-12T15:14:49Z</time>
      </trkpt>
      <trkpt lat="44.93811" lon="4.20028">
        <ele>1309</ele>
        <time>2019-10-12T15:14:55Z</time>
      </trkpt>
      <trkpt lat="44.93808" lon="4.20024">
        <ele>1310</ele>
        <time>2019-10-12T15:15:02Z</time>
      </trkpt>
      <trkpt lat="44.93805" lon="4.20022">
        <ele>1311</ele>
        <time>2019-10-12T15:15:08Z</time>
      </trkpt>
      <trkpt lat="44.93796" lon="4.20014">
        <ele>1312</ele>
        <time>2019-10-12T15:15:21Z</time>
      </trkpt>
      <trkpt lat="44.93788" lon="4.20013">
        <ele>1313</ele>
        <time>2019-10-12T15:15:31Z</time>
      </trkpt>
      <trkpt lat="44.93786" lon="4.20013">
        <ele>1314</ele>
        <time>2019-10-12T15:15:37Z</time>
      </trkpt>
      <trkpt lat="44.93783" lon="4.20015">
        <ele>1315</ele>
        <time>2019-10-12T15:15:42Z</time>
      </trkpt>
      <trkpt lat="44.9378" lon="4.20019">
        <ele>1315</ele>
        <time>2019-10-12T15:15:48Z</time>
      </trkpt>
      <trkpt lat="44.93777" lon="4.20023">
        <ele>1316</ele>
        <time>2019-10-12T15:15:53Z</time>
      </trkpt>
      <trkpt lat="44.93775" lon="4.20028">
        <ele>1317</ele>
        <time>2019-10-12T15:16:02Z</time>
      </trkpt>
      <trkpt lat="44.93772" lon="4.20031">
        <ele>1318</ele>
        <time>2019-10-12T15:16:07Z</time>
      </trkpt>
      <trkpt lat="44.93766" lon="4.20038">
        <ele>1318</ele>
        <time>2019-10-12T15:16:15Z</time>
      </trkpt>
      <trkpt lat="44.9376" lon="4.20046">
        <ele>1319</ele>
        <time>2019-10-12T15:16:23Z</time>
      </trkpt>
      <trkpt lat="44.93758" lon="4.20048">
        <ele>1320</ele>
        <time>2019-10-12T15:16:28Z</time>
      </trkpt>
      <trkpt lat="44.93755" lon="4.2005">
        <ele>1323</ele>
        <time>2019-10-12T15:17:00Z</time>
      </trkpt>
      <trkpt lat="44.93751" lon="4.20051">
        <ele>1326</ele>
        <time>2019-10-12T15:17:51Z</time>
      </trkpt>
      <trkpt lat="44.9374" lon="4.20057">
        <ele>1326</ele>
        <time>2019-10-12T15:18:02Z</time>
      </trkpt>
      <trkpt lat="44.93733" lon="4.20066">
        <ele>1327</ele>
        <time>2019-10-12T15:18:10Z</time>
      </trkpt>
      <trkpt lat="44.93726" lon="4.20073">
        <ele>1327</ele>
        <time>2019-10-12T15:18:18Z</time>
      </trkpt>
      <trkpt lat="44.93723" lon="4.20076">
        <ele>1327</ele>
        <time>2019-10-12T15:18:23Z</time>
      </trkpt>
      <trkpt lat="44.93722" lon="4.2008">
        <ele>1328</ele>
        <time>2019-10-12T15:18:28Z</time>
      </trkpt>
      <trkpt lat="44.93722" lon="4.20084">
        <ele>1328</ele>
        <time>2019-10-12T15:18:34Z</time>
      </trkpt>
      <trkpt lat="44.93722" lon="4.20089">
        <ele>1328</ele>
        <time>2019-10-12T15:18:46Z</time>
      </trkpt>
      <trkpt lat="44.9372" lon="4.20092">
        <ele>1328</ele>
        <time>2019-10-12T15:18:54Z</time>
      </trkpt>
      <trkpt lat="44.93723" lon="4.20097">
        <ele>1329</ele>
        <time>2019-10-12T15:19:07Z</time>
      </trkpt>
      <trkpt lat="44.93726" lon="4.20098">
        <ele>1329</ele>
        <time>2019-10-12T15:19:11Z</time>
      </trkpt>
      <trkpt lat="44.93729" lon="4.20102">
        <ele>1329</ele>
        <time>2019-10-12T15:19:23Z</time>
      </trkpt>
      <trkpt lat="44.93742" lon="4.20118">
        <ele>1330</ele>
        <time>2019-10-12T15:19:41Z</time>
      </trkpt>
      <trkpt lat="44.93742" lon="4.20123">
        <ele>1330</ele>
        <time>2019-10-12T15:19:45Z</time>
      </trkpt>
      <trkpt lat="44.93746" lon="4.2014">
        <ele>1330</ele>
        <time>2019-10-12T15:19:56Z</time>
      </trkpt>
      <trkpt lat="44.93749" lon="4.20147">
        <ele>1330</ele>
        <time>2019-10-12T15:20:01Z</time>
      </trkpt>
      <trkpt lat="44.93755" lon="4.2017">
        <ele>1331</ele>
        <time>2019-10-12T15:20:15Z</time>
      </trkpt>
      <trkpt lat="44.93756" lon="4.20175">
        <ele>1331</ele>
        <time>2019-10-12T15:20:19Z</time>
      </trkpt>
      <trkpt lat="44.93777" lon="4.20211">
        <ele>1332</ele>
        <time>2019-10-12T15:20:52Z</time>
      </trkpt>
      <trkpt lat="44.938" lon="4.20254">
        <ele>1332</ele>
        <time>2019-10-12T15:21:25Z</time>
      </trkpt>
      <trkpt lat="44.93806" lon="4.20264">
        <ele>1331</ele>
        <time>2019-10-12T15:21:33Z</time>
      </trkpt>
      <trkpt lat="44.93816" lon="4.20276">
        <ele>1331</ele>
        <time>2019-10-12T15:21:47Z</time>
      </trkpt>
      <trkpt lat="44.9383" lon="4.20285">
        <ele>1330</ele>
        <time>2019-10-12T15:22:01Z</time>
      </trkpt>
      <trkpt lat="44.93839" lon="4.20287">
        <ele>1330</ele>
        <time>2019-10-12T15:22:11Z</time>
      </trkpt>
      <trkpt lat="44.93867" lon="4.20309">
        <ele>1328</ele>
        <time>2019-10-12T15:22:41Z</time>
      </trkpt>
      <trkpt lat="44.93884" lon="4.20358">
        <ele>1326</ele>
        <time>2019-10-12T15:23:13Z</time>
      </trkpt>
      <trkpt lat="44.93893" lon="4.20378">
        <ele>1325</ele>
        <time>2019-10-12T15:23:28Z</time>
      </trkpt>
      <trkpt lat="44.93899" lon="4.20387">
        <ele>1325</ele>
        <time>2019-10-12T15:23:36Z</time>
      </trkpt>
      <trkpt lat="44.93904" lon="4.20397">
        <ele>1324</ele>
        <time>2019-10-12T15:23:45Z</time>
      </trkpt>
      <trkpt lat="44.93907" lon="4.20398">
        <ele>1324</ele>
        <time>2019-10-12T15:23:49Z</time>
      </trkpt>
      <trkpt lat="44.93909" lon="4.20403">
        <ele>1323</ele>
        <time>2019-10-12T15:24:13Z</time>
      </trkpt>
      <trkpt lat="44.9391" lon="4.20406">
        <ele>1323</ele>
        <time>2019-10-12T15:24:18Z</time>
      </trkpt>
      <trkpt lat="44.93912" lon="4.2041">
        <ele>1323</ele>
        <time>2019-10-12T15:24:23Z</time>
      </trkpt>
    </trkseg>
  </trk>
  <trk>
    <name><![CDATA[13 oct. 2019]]></name>
    <cmt><![CDATA[09:35:08]]></cmt>
    <desc><![CDATA[comment ...]]></desc>
    <trkseg>
      <trkpt lat="44.89928" lon="4.18539">
        <ele>1514</ele>
        <time>2019-10-13T07:35:08Z</time>
      </trkpt>
      <trkpt lat="44.89926" lon="4.18539">
        <ele>1514</ele>
        <time>2019-10-13T07:35:09Z</time>
      </trkpt>
      <trkpt lat="44.8992" lon="4.18533">
        <ele>1514</ele>
        <time>2019-10-13T07:35:19Z</time>
      </trkpt>
      <trkpt lat="44.89921" lon="4.18525">
        <ele>1514</ele>
        <time>2019-10-13T07:35:26Z</time>
      </trkpt>
      <trkpt lat="44.89924" lon="4.18523">
        <ele>1515</ele>
        <time>2019-10-13T07:35:43Z</time>
      </trkpt>
      <trkpt lat="44.89921" lon="4.18515">
        <ele>1515</ele>
        <time>2019-10-13T07:36:39Z</time>
      </trkpt>
      <trkpt lat="44.89921" lon="4.18499">
        <ele>1515</ele>
        <time>2019-10-13T07:36:55Z</time>
      </trkpt>
      <trkpt lat="44.8991" lon="4.18493">
        <ele>1514</ele>
        <time>2019-10-13T07:37:13Z</time>
      </trkpt>
      <trkpt lat="44.89902" lon="4.18483">
        <ele>1514</ele>
        <time>2019-10-13T07:37:23Z</time>
      </trkpt>
      <trkpt lat="44.89887" lon="4.18478">
        <ele>1514</ele>
        <time>2019-10-13T07:37:55Z</time>
      </trkpt>
      <trkpt lat="44.89842" lon="4.18464">
        <ele>1513</ele>
        <time>2019-10-13T07:38:31Z</time>
      </trkpt>
      <trkpt lat="44.89826" lon="4.18456">
        <ele>1514</ele>
        <time>2019-10-13T07:39:19Z</time>
      </trkpt>
      <trkpt lat="44.89819" lon="4.18451">
        <ele>1514</ele>
        <time>2019-10-13T07:39:26Z</time>
      </trkpt>
      <trkpt lat="44.89787" lon="4.18449">
        <ele>1515</ele>
        <time>2019-10-13T07:39:51Z</time>
      </trkpt>
      <trkpt lat="44.8978" lon="4.18448">
        <ele>1516</ele>
        <time>2019-10-13T07:39:56Z</time>
      </trkpt>
      <trkpt lat="44.89734" lon="4.18426">
        <ele>1518</ele>
        <time>2019-10-13T07:40:34Z</time>
      </trkpt>
      <trkpt lat="44.89719" lon="4.18426">
        <ele>1519</ele>
        <time>2019-10-13T07:40:56Z</time>
      </trkpt>
      <trkpt lat="44.89679" lon="4.18415">
        <ele>1522</ele>
        <time>2019-10-13T07:41:33Z</time>
      </trkpt>
      <trkpt lat="44.89657" lon="4.18413">
        <ele>1524</ele>
        <time>2019-10-13T07:42:04Z</time>
      </trkpt>
      <trkpt lat="44.89641" lon="4.18412">
        <ele>1527</ele>
        <time>2019-10-13T07:42:39Z</time>
      </trkpt>
      <trkpt lat="44.89634" lon="4.18413">
        <ele>1527</ele>
        <time>2019-10-13T07:42:42Z</time>
      </trkpt>
      <trkpt lat="44.89609" lon="4.18408">
        <ele>1528</ele>
        <time>2019-10-13T07:43:05Z</time>
      </trkpt>
      <trkpt lat="44.89586" lon="4.18408">
        <ele>1530</ele>
        <time>2019-10-13T07:43:26Z</time>
      </trkpt>
      <trkpt lat="44.89562" lon="4.18381">
        <ele>1531</ele>
        <time>2019-10-13T07:43:55Z</time>
      </trkpt>
      <trkpt lat="44.89556" lon="4.18379">
        <ele>1532</ele>
        <time>2019-10-13T07:44:02Z</time>
      </trkpt>
      <trkpt lat="44.89545" lon="4.1838">
        <ele>1534</ele>
        <time>2019-10-13T07:44:22Z</time>
      </trkpt>
      <trkpt lat="44.89541" lon="4.18374">
        <ele>1541</ele>
        <time>2019-10-13T07:46:29Z</time>
      </trkpt>
      <trkpt lat="44.89537" lon="4.18368">
        <ele>1542</ele>
        <time>2019-10-13T07:46:48Z</time>
      </trkpt>
      <trkpt lat="44.89532" lon="4.18369">
        <ele>1542</ele>
        <time>2019-10-13T07:46:53Z</time>
      </trkpt>
      <trkpt lat="44.89526" lon="4.18371">
        <ele>1542</ele>
        <time>2019-10-13T07:46:57Z</time>
      </trkpt>
      <trkpt lat="44.89502" lon="4.18368">
        <ele>1543</ele>
        <time>2019-10-13T07:47:15Z</time>
      </trkpt>
      <trkpt lat="44.89468" lon="4.18376">
        <ele>1544</ele>
        <time>2019-10-13T07:47:50Z</time>
      </trkpt>
      <trkpt lat="44.89446" lon="4.18379">
        <ele>1546</ele>
        <time>2019-10-13T07:48:16Z</time>
      </trkpt>
      <trkpt lat="44.89442" lon="4.18382">
        <ele>1546</ele>
        <time>2019-10-13T07:48:21Z</time>
      </trkpt>
      <trkpt lat="44.89436" lon="4.18391">
        <ele>1547</ele>
        <time>2019-10-13T07:48:29Z</time>
      </trkpt>
      <trkpt lat="44.89435" lon="4.18403">
        <ele>1548</ele>
        <time>2019-10-13T07:48:44Z</time>
      </trkpt>
      <trkpt lat="44.8943" lon="4.18401">
        <ele>1561</ele>
        <time>2019-10-13T07:54:46Z</time>
      </trkpt>
      <trkpt lat="44.89431" lon="4.18393">
        <ele>1562</ele>
        <time>2019-10-13T07:56:00Z</time>
      </trkpt>
      <trkpt lat="44.89433" lon="4.18389">
        <ele>1562</ele>
        <time>2019-10-13T07:56:03Z</time>
      </trkpt>
      <trkpt lat="44.89431" lon="4.18384">
        <ele>1562</ele>
        <time>2019-10-13T07:56:25Z</time>
      </trkpt>
      <trkpt lat="44.89427" lon="4.18379">
        <ele>1561</ele>
        <time>2019-10-13T07:56:35Z</time>
      </trkpt>
      <trkpt lat="44.89423" lon="4.18372">
        <ele>1561</ele>
        <time>2019-10-13T07:56:45Z</time>
      </trkpt>
      <trkpt lat="44.89412" lon="4.18369">
        <ele>1561</ele>
        <time>2019-10-13T07:56:57Z</time>
      </trkpt>
      <trkpt lat="44.89407" lon="4.18371">
        <ele>1561</ele>
        <time>2019-10-13T07:57:02Z</time>
      </trkpt>
      <trkpt lat="44.89401" lon="4.18371">
        <ele>1561</ele>
        <time>2019-10-13T07:57:07Z</time>
      </trkpt>
      <trkpt lat="44.89396" lon="4.18376">
        <ele>1561</ele>
        <time>2019-10-13T07:57:13Z</time>
      </trkpt>
      <trkpt lat="44.89381" lon="4.18391">
        <ele>1561</ele>
        <time>2019-10-13T07:57:36Z</time>
      </trkpt>
      <trkpt lat="44.89374" lon="4.18401">
        <ele>1561</ele>
        <time>2019-10-13T07:58:11Z</time>
      </trkpt>
      <trkpt lat="44.89371" lon="4.18404">
        <ele>1561</ele>
        <time>2019-10-13T07:58:20Z</time>
      </trkpt>
      <trkpt lat="44.89368" lon="4.18411">
        <ele>1561</ele>
        <time>2019-10-13T07:58:28Z</time>
      </trkpt>
      <trkpt lat="44.89364" lon="4.18418">
        <ele>1561</ele>
        <time>2019-10-13T07:58:36Z</time>
      </trkpt>
      <trkpt lat="44.89345" lon="4.18435">
        <ele>1560</ele>
        <time>2019-10-13T07:59:10Z</time>
      </trkpt>
      <trkpt lat="44.89342" lon="4.18441">
        <ele>1559</ele>
        <time>2019-10-13T07:59:19Z</time>
      </trkpt>
      <trkpt lat="44.89337" lon="4.18445">
        <ele>1559</ele>
        <time>2019-10-13T07:59:27Z</time>
      </trkpt>
      <trkpt lat="44.89326" lon="4.18453">
        <ele>1558</ele>
        <time>2019-10-13T07:59:43Z</time>
      </trkpt>
      <trkpt lat="44.89321" lon="4.18454">
        <ele>1558</ele>
        <time>2019-10-13T07:59:56Z</time>
      </trkpt>
      <trkpt lat="44.89316" lon="4.18461">
        <ele>1557</ele>
        <time>2019-10-13T08:00:04Z</time>
      </trkpt>
      <trkpt lat="44.89311" lon="4.18465">
        <ele>1557</ele>
        <time>2019-10-13T08:00:14Z</time>
      </trkpt>
      <trkpt lat="44.89306" lon="4.18464">
        <ele>1557</ele>
        <time>2019-10-13T08:00:21Z</time>
      </trkpt>
      <trkpt lat="44.89301" lon="4.18461">
        <ele>1556</ele>
        <time>2019-10-13T08:00:29Z</time>
      </trkpt>
      <trkpt lat="44.8929" lon="4.18455">
        <ele>1556</ele>
        <time>2019-10-13T08:00:48Z</time>
      </trkpt>
      <trkpt lat="44.89286" lon="4.18451">
        <ele>1555</ele>
        <time>2019-10-13T08:01:20Z</time>
      </trkpt>
      <trkpt lat="44.89276" lon="4.1846">
        <ele>1555</ele>
        <time>2019-10-13T08:01:32Z</time>
      </trkpt>
      <trkpt lat="44.8927" lon="4.18464">
        <ele>1554</ele>
        <time>2019-10-13T08:01:40Z</time>
      </trkpt>
      <trkpt lat="44.89265" lon="4.18466">
        <ele>1554</ele>
        <time>2019-10-13T08:01:50Z</time>
      </trkpt>
      <trkpt lat="44.89258" lon="4.18468">
        <ele>1554</ele>
        <time>2019-10-13T08:02:01Z</time>
      </trkpt>
      <trkpt lat="44.8925" lon="4.18465">
        <ele>1554</ele>
        <time>2019-10-13T08:02:08Z</time>
      </trkpt>
      <trkpt lat="44.89244" lon="4.18466">
        <ele>1554</ele>
        <time>2019-10-13T08:02:11Z</time>
      </trkpt>
      <trkpt lat="44.89239" lon="4.18465">
        <ele>1554</ele>
        <time>2019-10-13T08:02:15Z</time>
      </trkpt>
      <trkpt lat="44.89227" lon="4.18462">
        <ele>1554</ele>
        <time>2019-10-13T08:02:31Z</time>
      </trkpt>
      <trkpt lat="44.89218" lon="4.18468">
        <ele>1554</ele>
        <time>2019-10-13T08:02:47Z</time>
      </trkpt>
      <trkpt lat="44.89216" lon="4.18472">
        <ele>1553</ele>
        <time>2019-10-13T08:02:58Z</time>
      </trkpt>
      <trkpt lat="44.89213" lon="4.18476">
        <ele>1553</ele>
        <time>2019-10-13T08:03:06Z</time>
      </trkpt>
      <trkpt lat="44.89209" lon="4.18476">
        <ele>1553</ele>
        <time>2019-10-13T08:03:31Z</time>
      </trkpt>
      <trkpt lat="44.89206" lon="4.18474">
        <ele>1553</ele>
        <time>2019-10-13T08:03:36Z</time>
      </trkpt>
      <trkpt lat="44.89202" lon="4.18472">
        <ele>1553</ele>
        <time>2019-10-13T08:03:41Z</time>
      </trkpt>
      <trkpt lat="44.89192" lon="4.18482">
        <ele>1552</ele>
        <time>2019-10-13T08:05:35Z</time>
      </trkpt>
      <trkpt lat="44.89193" lon="4.18491">
        <ele>1553</ele>
        <time>2019-10-13T08:10:52Z</time>
      </trkpt>
      <trkpt lat="44.89188" lon="4.18506">
        <ele>1552</ele>
        <time>2019-10-13T08:11:29Z</time>
      </trkpt>
      <trkpt lat="44.89179" lon="4.18516">
        <ele>1551</ele>
        <time>2019-10-13T08:11:42Z</time>
      </trkpt>
      <trkpt lat="44.89175" lon="4.18531">
        <ele>1550</ele>
        <time>2019-10-13T08:11:54Z</time>
      </trkpt>
      <trkpt lat="44.89176" lon="4.1854">
        <ele>1550</ele>
        <time>2019-10-13T08:12:01Z</time>
      </trkpt>
      <trkpt lat="44.89174" lon="4.18548">
        <ele>1549</ele>
        <time>2019-10-13T08:12:08Z</time>
      </trkpt>
      <trkpt lat="44.89165" lon="4.18557">
        <ele>1549</ele>
        <time>2019-10-13T08:12:26Z</time>
      </trkpt>
      <trkpt lat="44.89161" lon="4.18562">
        <ele>1548</ele>
        <time>2019-10-13T08:12:53Z</time>
      </trkpt>
      <trkpt lat="44.89155" lon="4.18567">
        <ele>1548</ele>
        <time>2019-10-13T08:13:08Z</time>
      </trkpt>
      <trkpt lat="44.8915" lon="4.18569">
        <ele>1548</ele>
        <time>2019-10-13T08:13:14Z</time>
      </trkpt>
      <trkpt lat="44.89132" lon="4.18577">
        <ele>1547</ele>
        <time>2019-10-13T08:13:59Z</time>
      </trkpt>
      <trkpt lat="44.89125" lon="4.1858">
        <ele>1547</ele>
        <time>2019-10-13T08:14:38Z</time>
      </trkpt>
      <trkpt lat="44.89118" lon="4.18582">
        <ele>1546</ele>
        <time>2019-10-13T08:14:48Z</time>
      </trkpt>
      <trkpt lat="44.89111" lon="4.18579">
        <ele>1546</ele>
        <time>2019-10-13T08:14:58Z</time>
      </trkpt>
      <trkpt lat="44.89106" lon="4.18588">
        <ele>1546</ele>
        <time>2019-10-13T08:15:05Z</time>
      </trkpt>
      <trkpt lat="44.89101" lon="4.18595">
        <ele>1545</ele>
        <time>2019-10-13T08:15:13Z</time>
      </trkpt>
      <trkpt lat="44.89095" lon="4.18602">
        <ele>1545</ele>
        <time>2019-10-13T08:15:23Z</time>
      </trkpt>
      <trkpt lat="44.89091" lon="4.18612">
        <ele>1543</ele>
        <time>2019-10-13T08:15:45Z</time>
      </trkpt>
      <trkpt lat="44.89085" lon="4.1862">
        <ele>1543</ele>
        <time>2019-10-13T08:15:53Z</time>
      </trkpt>
      <trkpt lat="44.89081" lon="4.18628">
        <ele>1542</ele>
        <time>2019-10-13T08:15:58Z</time>
      </trkpt>
      <trkpt lat="44.89075" lon="4.18636">
        <ele>1541</ele>
        <time>2019-10-13T08:16:08Z</time>
      </trkpt>
      <trkpt lat="44.89073" lon="4.18643">
        <ele>1540</ele>
        <time>2019-10-13T08:16:20Z</time>
      </trkpt>
      <trkpt lat="44.89068" lon="4.18647">
        <ele>1540</ele>
        <time>2019-10-13T08:16:31Z</time>
      </trkpt>
      <trkpt lat="44.89064" lon="4.18649">
        <ele>1538</ele>
        <time>2019-10-13T08:16:48Z</time>
      </trkpt>
      <trkpt lat="44.89061" lon="4.18656">
        <ele>1538</ele>
        <time>2019-10-13T08:16:56Z</time>
      </trkpt>
      <trkpt lat="44.89052" lon="4.18665">
        <ele>1537</ele>
        <time>2019-10-13T08:17:16Z</time>
      </trkpt>
      <trkpt lat="44.89047" lon="4.18669">
        <ele>1536</ele>
        <time>2019-10-13T08:17:28Z</time>
      </trkpt>
      <trkpt lat="44.89042" lon="4.18675">
        <ele>1535</ele>
        <time>2019-10-13T08:17:33Z</time>
      </trkpt>
      <trkpt lat="44.89038" lon="4.18681">
        <ele>1535</ele>
        <time>2019-10-13T08:17:38Z</time>
      </trkpt>
      <trkpt lat="44.89027" lon="4.18701">
        <ele>1533</ele>
        <time>2019-10-13T08:17:54Z</time>
      </trkpt>
      <trkpt lat="44.89027" lon="4.18705">
        <ele>1532</ele>
        <time>2019-10-13T08:18:10Z</time>
      </trkpt>
      <trkpt lat="44.89024" lon="4.18712">
        <ele>1530</ele>
        <time>2019-10-13T08:18:32Z</time>
      </trkpt>
      <trkpt lat="44.8902" lon="4.18716">
        <ele>1529</ele>
        <time>2019-10-13T08:18:41Z</time>
      </trkpt>
      <trkpt lat="44.89016" lon="4.18717">
        <ele>1527</ele>
        <time>2019-10-13T08:19:13Z</time>
      </trkpt>
      <trkpt lat="44.89014" lon="4.18724">
        <ele>1526</ele>
        <time>2019-10-13T08:19:25Z</time>
      </trkpt>
      <trkpt lat="44.8901" lon="4.18734">
        <ele>1524</ele>
        <time>2019-10-13T08:19:51Z</time>
      </trkpt>
      <trkpt lat="44.89007" lon="4.18742">
        <ele>1521</ele>
        <time>2019-10-13T08:20:25Z</time>
      </trkpt>
      <trkpt lat="44.89006" lon="4.18758">
        <ele>1519</ele>
        <time>2019-10-13T08:20:47Z</time>
      </trkpt>
      <trkpt lat="44.89004" lon="4.18782">
        <ele>1517</ele>
        <time>2019-10-13T08:21:08Z</time>
      </trkpt>
      <trkpt lat="44.88993" lon="4.18817">
        <ele>1514</ele>
        <time>2019-10-13T08:21:45Z</time>
      </trkpt>
      <trkpt lat="44.88992" lon="4.18825">
        <ele>1514</ele>
        <time>2019-10-13T08:21:51Z</time>
      </trkpt>
      <trkpt lat="44.88991" lon="4.18833">
        <ele>1513</ele>
        <time>2019-10-13T08:21:57Z</time>
      </trkpt>
      <trkpt lat="44.88989" lon="4.18841">
        <ele>1512</ele>
        <time>2019-10-13T08:22:04Z</time>
      </trkpt>
      <trkpt lat="44.88989" lon="4.18849">
        <ele>1512</ele>
        <time>2019-10-13T08:22:10Z</time>
      </trkpt>
      <trkpt lat="44.88989" lon="4.18857">
        <ele>1511</ele>
        <time>2019-10-13T08:22:16Z</time>
      </trkpt>
      <trkpt lat="44.88986" lon="4.18864">
        <ele>1511</ele>
        <time>2019-10-13T08:22:22Z</time>
      </trkpt>
      <trkpt lat="44.8898" lon="4.18879">
        <ele>1510</ele>
        <time>2019-10-13T08:22:35Z</time>
      </trkpt>
      <trkpt lat="44.8898" lon="4.18887">
        <ele>1509</ele>
        <time>2019-10-13T08:22:44Z</time>
      </trkpt>
      <trkpt lat="44.88981" lon="4.18895">
        <ele>1508</ele>
        <time>2019-10-13T08:22:53Z</time>
      </trkpt>
      <trkpt lat="44.88979" lon="4.189">
        <ele>1507</ele>
        <time>2019-10-13T08:23:08Z</time>
      </trkpt>
      <trkpt lat="44.88982" lon="4.18907">
        <ele>1507</ele>
        <time>2019-10-13T08:23:19Z</time>
      </trkpt>
      <trkpt lat="44.88987" lon="4.18914">
        <ele>1506</ele>
        <time>2019-10-13T08:23:25Z</time>
      </trkpt>
      <trkpt lat="44.88991" lon="4.18919">
        <ele>1505</ele>
        <time>2019-10-13T08:23:37Z</time>
      </trkpt>
      <trkpt lat="44.88994" lon="4.18922">
        <ele>1504</ele>
        <time>2019-10-13T08:23:45Z</time>
      </trkpt>
      <trkpt lat="44.88991" lon="4.18928">
        <ele>1503</ele>
        <time>2019-10-13T08:23:56Z</time>
      </trkpt>
      <trkpt lat="44.88986" lon="4.18932">
        <ele>1502</ele>
        <time>2019-10-13T08:24:11Z</time>
      </trkpt>
      <trkpt lat="44.88984" lon="4.18939">
        <ele>1502</ele>
        <time>2019-10-13T08:24:19Z</time>
      </trkpt>
      <trkpt lat="44.88981" lon="4.18947">
        <ele>1501</ele>
        <time>2019-10-13T08:24:38Z</time>
      </trkpt>
      <trkpt lat="44.88976" lon="4.1895">
        <ele>1500</ele>
        <time>2019-10-13T08:25:00Z</time>
      </trkpt>
      <trkpt lat="44.88972" lon="4.18951">
        <ele>1501</ele>
        <time>2019-10-13T08:25:21Z</time>
      </trkpt>
      <trkpt lat="44.88968" lon="4.18954">
        <ele>1502</ele>
        <time>2019-10-13T08:25:45Z</time>
      </trkpt>
      <trkpt lat="44.88965" lon="4.18954">
        <ele>1502</ele>
        <time>2019-10-13T08:26:03Z</time>
      </trkpt>
      <trkpt lat="44.88962" lon="4.18957">
        <ele>1503</ele>
        <time>2019-10-13T08:26:19Z</time>
      </trkpt>
      <trkpt lat="44.8896" lon="4.18962">
        <ele>1504</ele>
        <time>2019-10-13T08:26:29Z</time>
      </trkpt>
      <trkpt lat="44.88954" lon="4.18962">
        <ele>1505</ele>
        <time>2019-10-13T08:26:52Z</time>
      </trkpt>
      <trkpt lat="44.88954" lon="4.18966">
        <ele>1506</ele>
        <time>2019-10-13T08:27:04Z</time>
      </trkpt>
      <trkpt lat="44.8895" lon="4.18969">
        <ele>1509</ele>
        <time>2019-10-13T08:27:36Z</time>
      </trkpt>
      <trkpt lat="44.88947" lon="4.18971">
        <ele>1509</ele>
        <time>2019-10-13T08:27:42Z</time>
      </trkpt>
      <trkpt lat="44.88942" lon="4.18976">
        <ele>1511</ele>
        <time>2019-10-13T08:27:55Z</time>
      </trkpt>
      <trkpt lat="44.88942" lon="4.18981">
        <ele>1513</ele>
        <time>2019-10-13T08:28:11Z</time>
      </trkpt>
      <trkpt lat="44.88943" lon="4.18986">
        <ele>1516</ele>
        <time>2019-10-13T08:28:39Z</time>
      </trkpt>
      <trkpt lat="44.88945" lon="4.18991">
        <ele>1519</ele>
        <time>2019-10-13T08:29:10Z</time>
      </trkpt>
      <trkpt lat="44.88953" lon="4.1899">
        <ele>1521</ele>
        <time>2019-10-13T08:29:35Z</time>
      </trkpt>
      <trkpt lat="44.88949" lon="4.18989">
        <ele>1528</ele>
        <time>2019-10-13T08:31:38Z</time>
      </trkpt>
      <trkpt lat="44.8895" lon="4.18988">
        <ele>1540</ele>
        <time>2019-10-13T08:42:17Z</time>
      </trkpt>
      <trkpt lat="44.8895" lon="4.18996">
        <ele>1536</ele>
        <time>2019-10-13T08:44:20Z</time>
      </trkpt>
      <trkpt lat="44.88949" lon="4.19005">
        <ele>1536</ele>
        <time>2019-10-13T08:44:29Z</time>
      </trkpt>
      <trkpt lat="44.88947" lon="4.19013">
        <ele>1535</ele>
        <time>2019-10-13T08:44:36Z</time>
      </trkpt>
      <trkpt lat="44.88948" lon="4.19022">
        <ele>1535</ele>
        <time>2019-10-13T08:44:42Z</time>
      </trkpt>
      <trkpt lat="44.88947" lon="4.19027">
        <ele>1535</ele>
        <time>2019-10-13T08:44:45Z</time>
      </trkpt>
      <trkpt lat="44.88945" lon="4.19032">
        <ele>1535</ele>
        <time>2019-10-13T08:44:50Z</time>
      </trkpt>
      <trkpt lat="44.88943" lon="4.19037">
        <ele>1535</ele>
        <time>2019-10-13T08:44:55Z</time>
      </trkpt>
      <trkpt lat="44.88943" lon="4.19042">
        <ele>1535</ele>
        <time>2019-10-13T08:45:02Z</time>
      </trkpt>
      <trkpt lat="44.88945" lon="4.19047">
        <ele>1535</ele>
        <time>2019-10-13T08:45:13Z</time>
      </trkpt>
      <trkpt lat="44.88947" lon="4.19052">
        <ele>1535</ele>
        <time>2019-10-13T08:45:21Z</time>
      </trkpt>
      <trkpt lat="44.88947" lon="4.19057">
        <ele>1535</ele>
        <time>2019-10-13T08:45:27Z</time>
      </trkpt>
      <trkpt lat="44.88942" lon="4.19065">
        <ele>1535</ele>
        <time>2019-10-13T08:45:51Z</time>
      </trkpt>
      <trkpt lat="44.88943" lon="4.1907">
        <ele>1536</ele>
        <time>2019-10-13T08:46:07Z</time>
      </trkpt>
      <trkpt lat="44.88943" lon="4.19075">
        <ele>1537</ele>
        <time>2019-10-13T08:46:29Z</time>
      </trkpt>
      <trkpt lat="44.88945" lon="4.1908">
        <ele>1537</ele>
        <time>2019-10-13T08:46:42Z</time>
      </trkpt>
      <trkpt lat="44.88949" lon="4.19082">
        <ele>1537</ele>
        <time>2019-10-13T08:46:52Z</time>
      </trkpt>
      <trkpt lat="44.88952" lon="4.19083">
        <ele>1538</ele>
        <time>2019-10-13T08:47:05Z</time>
      </trkpt>
      <trkpt lat="44.88958" lon="4.19076">
        <ele>1538</ele>
        <time>2019-10-13T08:47:25Z</time>
      </trkpt>
      <trkpt lat="44.88962" lon="4.19075">
        <ele>1539</ele>
        <time>2019-10-13T08:47:32Z</time>
      </trkpt>
      <trkpt lat="44.88965" lon="4.19072">
        <ele>1540</ele>
        <time>2019-10-13T08:47:47Z</time>
      </trkpt>
      <trkpt lat="44.88966" lon="4.19074">
        <ele>1552</ele>
        <time>2019-10-13T08:51:04Z</time>
      </trkpt>
      <trkpt lat="44.88965" lon="4.1908">
        <ele>1552</ele>
        <time>2019-10-13T08:51:10Z</time>
      </trkpt>
      <trkpt lat="44.88961" lon="4.19082">
        <ele>1552</ele>
        <time>2019-10-13T08:51:39Z</time>
      </trkpt>
      <trkpt lat="44.88958" lon="4.19085">
        <ele>1552</ele>
        <time>2019-10-13T08:51:44Z</time>
      </trkpt>
      <trkpt lat="44.88955" lon="4.19089">
        <ele>1552</ele>
        <time>2019-10-13T08:51:48Z</time>
      </trkpt>
      <trkpt lat="44.88952" lon="4.19093">
        <ele>1552</ele>
        <time>2019-10-13T08:51:57Z</time>
      </trkpt>
      <trkpt lat="44.8895" lon="4.19097">
        <ele>1552</ele>
        <time>2019-10-13T08:52:01Z</time>
      </trkpt>
      <trkpt lat="44.88948" lon="4.19102">
        <ele>1552</ele>
        <time>2019-10-13T08:52:06Z</time>
      </trkpt>
      <trkpt lat="44.88941" lon="4.19105">
        <ele>1551</ele>
        <time>2019-10-13T08:52:18Z</time>
      </trkpt>
      <trkpt lat="44.8893" lon="4.1912">
        <ele>1550</ele>
        <time>2019-10-13T08:52:51Z</time>
      </trkpt>
      <trkpt lat="44.88922" lon="4.19134">
        <ele>1549</ele>
        <time>2019-10-13T08:53:04Z</time>
      </trkpt>
      <trkpt lat="44.88915" lon="4.19155">
        <ele>1547</ele>
        <time>2019-10-13T08:53:23Z</time>
      </trkpt>
      <trkpt lat="44.88913" lon="4.1916">
        <ele>1546</ele>
        <time>2019-10-13T08:53:28Z</time>
      </trkpt>
      <trkpt lat="44.8891" lon="4.19164">
        <ele>1546</ele>
        <time>2019-10-13T08:53:34Z</time>
      </trkpt>
      <trkpt lat="44.88907" lon="4.19168">
        <ele>1545</ele>
        <time>2019-10-13T08:53:40Z</time>
      </trkpt>
      <trkpt lat="44.88901" lon="4.1917">
        <ele>1544</ele>
        <time>2019-10-13T08:54:01Z</time>
      </trkpt>
      <trkpt lat="44.88898" lon="4.19172">
        <ele>1544</ele>
        <time>2019-10-13T08:54:10Z</time>
      </trkpt>
      <trkpt lat="44.88895" lon="4.19175">
        <ele>1544</ele>
        <time>2019-10-13T08:54:18Z</time>
      </trkpt>
      <trkpt lat="44.88889" lon="4.19179">
        <ele>1543</ele>
        <time>2019-10-13T08:54:32Z</time>
      </trkpt>
      <trkpt lat="44.88886" lon="4.19185">
        <ele>1543</ele>
        <time>2019-10-13T08:54:38Z</time>
      </trkpt>
      <trkpt lat="44.88875" lon="4.19198">
        <ele>1543</ele>
        <time>2019-10-13T08:54:56Z</time>
      </trkpt>
      <trkpt lat="44.88872" lon="4.19201">
        <ele>1543</ele>
        <time>2019-10-13T08:55:02Z</time>
      </trkpt>
      <trkpt lat="44.88871" lon="4.19206">
        <ele>1544</ele>
        <time>2019-10-13T08:55:19Z</time>
      </trkpt>
      <trkpt lat="44.88867" lon="4.19213">
        <ele>1544</ele>
        <time>2019-10-13T08:55:25Z</time>
      </trkpt>
      <trkpt lat="44.88864" lon="4.19217">
        <ele>1544</ele>
        <time>2019-10-13T08:55:29Z</time>
      </trkpt>
      <trkpt lat="44.88861" lon="4.19225">
        <ele>1546</ele>
        <time>2019-10-13T08:56:04Z</time>
      </trkpt>
      <trkpt lat="44.88858" lon="4.19219">
        <ele>1552</ele>
        <time>2019-10-13T08:58:50Z</time>
      </trkpt>
      <trkpt lat="44.88853" lon="4.19217">
        <ele>1552</ele>
        <time>2019-10-13T08:58:53Z</time>
      </trkpt>
      <trkpt lat="44.8883" lon="4.19221">
        <ele>1552</ele>
        <time>2019-10-13T08:59:13Z</time>
      </trkpt>
      <trkpt lat="44.8882" lon="4.1923">
        <ele>1552</ele>
        <time>2019-10-13T08:59:21Z</time>
      </trkpt>
      <trkpt lat="44.88816" lon="4.19233">
        <ele>1553</ele>
        <time>2019-10-13T08:59:24Z</time>
      </trkpt>
      <trkpt lat="44.88808" lon="4.19236">
        <ele>1553</ele>
        <time>2019-10-13T08:59:31Z</time>
      </trkpt>
      <trkpt lat="44.88805" lon="4.19239">
        <ele>1553</ele>
        <time>2019-10-13T08:59:35Z</time>
      </trkpt>
      <trkpt lat="44.88802" lon="4.19243">
        <ele>1553</ele>
        <time>2019-10-13T08:59:40Z</time>
      </trkpt>
      <trkpt lat="44.88799" lon="4.19244">
        <ele>1554</ele>
        <time>2019-10-13T09:00:21Z</time>
      </trkpt>
      <trkpt lat="44.88796" lon="4.19241">
        <ele>1554</ele>
        <time>2019-10-13T09:00:41Z</time>
      </trkpt>
      <trkpt lat="44.88793" lon="4.19238">
        <ele>1554</ele>
        <time>2019-10-13T09:00:46Z</time>
      </trkpt>
      <trkpt lat="44.88766" lon="4.19248">
        <ele>1554</ele>
        <time>2019-10-13T09:01:19Z</time>
      </trkpt>
      <trkpt lat="44.8875" lon="4.19255">
        <ele>1554</ele>
        <time>2019-10-13T09:01:34Z</time>
      </trkpt>
      <trkpt lat="44.88741" lon="4.19265">
        <ele>1555</ele>
        <time>2019-10-13T09:01:43Z</time>
      </trkpt>
      <trkpt lat="44.88713" lon="4.19287">
        <ele>1555</ele>
        <time>2019-10-13T09:02:11Z</time>
      </trkpt>
      <trkpt lat="44.88704" lon="4.1929">
        <ele>1555</ele>
        <time>2019-10-13T09:02:20Z</time>
      </trkpt>
      <trkpt lat="44.887" lon="4.19291">
        <ele>1555</ele>
        <time>2019-10-13T09:02:23Z</time>
      </trkpt>
      <trkpt lat="44.88675" lon="4.19293">
        <ele>1555</ele>
        <time>2019-10-13T09:02:43Z</time>
      </trkpt>
      <trkpt lat="44.88679" lon="4.19294">
        <ele>1557</ele>
        <time>2019-10-13T09:03:42Z</time>
      </trkpt>
      <trkpt lat="44.88678" lon="4.1929">
        <ele>1558</ele>
        <time>2019-10-13T09:04:09Z</time>
      </trkpt>
      <trkpt lat="44.8867" lon="4.19288">
        <ele>1558</ele>
        <time>2019-10-13T09:04:17Z</time>
      </trkpt>
      <trkpt lat="44.88667" lon="4.19283">
        <ele>1558</ele>
        <time>2019-10-13T09:04:28Z</time>
      </trkpt>
      <trkpt lat="44.88666" lon="4.19278">
        <ele>1558</ele>
        <time>2019-10-13T09:04:41Z</time>
      </trkpt>
      <trkpt lat="44.88662" lon="4.19276">
        <ele>1558</ele>
        <time>2019-10-13T09:04:52Z</time>
      </trkpt>
      <trkpt lat="44.88658" lon="4.19276">
        <ele>1558</ele>
        <time>2019-10-13T09:05:00Z</time>
      </trkpt>
      <trkpt lat="44.88655" lon="4.19274">
        <ele>1557</ele>
        <time>2019-10-13T09:05:09Z</time>
      </trkpt>
      <trkpt lat="44.88651" lon="4.19273">
        <ele>1557</ele>
        <time>2019-10-13T09:05:15Z</time>
      </trkpt>
      <trkpt lat="44.88647" lon="4.19276">
        <ele>1557</ele>
        <time>2019-10-13T09:05:21Z</time>
      </trkpt>
      <trkpt lat="44.88639" lon="4.19277">
        <ele>1555</ele>
        <time>2019-10-13T09:05:42Z</time>
      </trkpt>
      <trkpt lat="44.88636" lon="4.19277">
        <ele>1554</ele>
        <time>2019-10-13T09:05:48Z</time>
      </trkpt>
      <trkpt lat="44.88632" lon="4.19277">
        <ele>1553</ele>
        <time>2019-10-13T09:05:58Z</time>
      </trkpt>
      <trkpt lat="44.88628" lon="4.19276">
        <ele>1553</ele>
        <time>2019-10-13T09:06:03Z</time>
      </trkpt>
      <trkpt lat="44.88625" lon="4.19273">
        <ele>1552</ele>
        <time>2019-10-13T09:06:10Z</time>
      </trkpt>
      <trkpt lat="44.88622" lon="4.19274">
        <ele>1550</ele>
        <time>2019-10-13T09:06:21Z</time>
      </trkpt>
      <trkpt lat="44.88617" lon="4.19275">
        <ele>1550</ele>
        <time>2019-10-13T09:06:26Z</time>
      </trkpt>
      <trkpt lat="44.88614" lon="4.19273">
        <ele>1549</ele>
        <time>2019-10-13T09:06:32Z</time>
      </trkpt>
      <trkpt lat="44.8861" lon="4.19271">
        <ele>1548</ele>
        <time>2019-10-13T09:06:38Z</time>
      </trkpt>
      <trkpt lat="44.88606" lon="4.1927">
        <ele>1547</ele>
        <time>2019-10-13T09:06:43Z</time>
      </trkpt>
      <trkpt lat="44.88603" lon="4.19268">
        <ele>1546</ele>
        <time>2019-10-13T09:06:48Z</time>
      </trkpt>
      <trkpt lat="44.88592" lon="4.1926">
        <ele>1544</ele>
        <time>2019-10-13T09:07:02Z</time>
      </trkpt>
      <trkpt lat="44.88582" lon="4.19252">
        <ele>1542</ele>
        <time>2019-10-13T09:07:12Z</time>
      </trkpt>
      <trkpt lat="44.8858" lon="4.19247">
        <ele>1542</ele>
        <time>2019-10-13T09:07:15Z</time>
      </trkpt>
      <trkpt lat="44.88582" lon="4.1923">
        <ele>1540</ele>
        <time>2019-10-13T09:07:24Z</time>
      </trkpt>
      <trkpt lat="44.88589" lon="4.19209">
        <ele>1538</ele>
        <time>2019-10-13T09:07:38Z</time>
      </trkpt>
      <trkpt lat="44.88587" lon="4.19202">
        <ele>1537</ele>
        <time>2019-10-13T09:07:43Z</time>
      </trkpt>
      <trkpt lat="44.88583" lon="4.19201">
        <ele>1536</ele>
        <time>2019-10-13T09:07:46Z</time>
      </trkpt>
      <trkpt lat="44.88579" lon="4.19199">
        <ele>1536</ele>
        <time>2019-10-13T09:07:49Z</time>
      </trkpt>
      <trkpt lat="44.88577" lon="4.19194">
        <ele>1535</ele>
        <time>2019-10-13T09:07:53Z</time>
      </trkpt>
      <trkpt lat="44.88575" lon="4.19189">
        <ele>1530</ele>
        <time>2019-10-13T09:08:59Z</time>
      </trkpt>
      <trkpt lat="44.88574" lon="4.19186">
        <ele>1530</ele>
        <time>2019-10-13T09:09:03Z</time>
      </trkpt>
      <trkpt lat="44.88572" lon="4.1918">
        <ele>1529</ele>
        <time>2019-10-13T09:09:09Z</time>
      </trkpt>
      <trkpt lat="44.88571" lon="4.19176">
        <ele>1529</ele>
        <time>2019-10-13T09:09:13Z</time>
      </trkpt>
      <trkpt lat="44.88567" lon="4.19161">
        <ele>1529</ele>
        <time>2019-10-13T09:09:26Z</time>
      </trkpt>
      <trkpt lat="44.88566" lon="4.19151">
        <ele>1528</ele>
        <time>2019-10-13T09:09:34Z</time>
      </trkpt>
      <trkpt lat="44.88567" lon="4.19145">
        <ele>1528</ele>
        <time>2019-10-13T09:09:38Z</time>
      </trkpt>
      <trkpt lat="44.8858" lon="4.19107">
        <ele>1528</ele>
        <time>2019-10-13T09:10:11Z</time>
      </trkpt>
      <trkpt lat="44.8859" lon="4.19073">
        <ele>1527</ele>
        <time>2019-10-13T09:10:34Z</time>
      </trkpt>
      <trkpt lat="44.88598" lon="4.19047">
        <ele>1527</ele>
        <time>2019-10-13T09:10:57Z</time>
      </trkpt>
      <trkpt lat="44.88617" lon="4.19007">
        <ele>1526</ele>
        <time>2019-10-13T09:11:29Z</time>
      </trkpt>
      <trkpt lat="44.8864" lon="4.18971">
        <ele>1524</ele>
        <time>2019-10-13T09:12:02Z</time>
      </trkpt>
      <trkpt lat="44.88644" lon="4.18964">
        <ele>1524</ele>
        <time>2019-10-13T09:12:09Z</time>
      </trkpt>
      <trkpt lat="44.88673" lon="4.18933">
        <ele>1522</ele>
        <time>2019-10-13T09:12:42Z</time>
      </trkpt>
      <trkpt lat="44.88695" lon="4.18903">
        <ele>1520</ele>
        <time>2019-10-13T09:13:14Z</time>
      </trkpt>
      <trkpt lat="44.88696" lon="4.189">
        <ele>1518</ele>
        <time>2019-10-13T09:13:46Z</time>
      </trkpt>
      <trkpt lat="44.88701" lon="4.18896">
        <ele>1513</ele>
        <time>2019-10-13T09:16:10Z</time>
      </trkpt>
      <trkpt lat="44.88706" lon="4.18892">
        <ele>1513</ele>
        <time>2019-10-13T09:16:16Z</time>
      </trkpt>
      <trkpt lat="44.88719" lon="4.18875">
        <ele>1513</ele>
        <time>2019-10-13T09:16:37Z</time>
      </trkpt>
      <trkpt lat="44.88714" lon="4.18869">
        <ele>1512</ele>
        <time>2019-10-13T09:16:42Z</time>
      </trkpt>
      <trkpt lat="44.88714" lon="4.18861">
        <ele>1512</ele>
        <time>2019-10-13T09:16:52Z</time>
      </trkpt>
      <trkpt lat="44.88735" lon="4.18847">
        <ele>1511</ele>
        <time>2019-10-13T09:17:11Z</time>
      </trkpt>
      <trkpt lat="44.8876" lon="4.18838">
        <ele>1511</ele>
        <time>2019-10-13T09:17:31Z</time>
      </trkpt>
      <trkpt lat="44.88785" lon="4.18825">
        <ele>1511</ele>
        <time>2019-10-13T09:17:52Z</time>
      </trkpt>
      <trkpt lat="44.88797" lon="4.18815">
        <ele>1510</ele>
        <time>2019-10-13T09:18:05Z</time>
      </trkpt>
      <trkpt lat="44.88801" lon="4.18809">
        <ele>1510</ele>
        <time>2019-10-13T09:18:10Z</time>
      </trkpt>
      <trkpt lat="44.8881" lon="4.18794">
        <ele>1510</ele>
        <time>2019-10-13T09:18:25Z</time>
      </trkpt>
      <trkpt lat="44.88827" lon="4.18747">
        <ele>1509</ele>
        <time>2019-10-13T09:18:57Z</time>
      </trkpt>
      <trkpt lat="44.88833" lon="4.18738">
        <ele>1509</ele>
        <time>2019-10-13T09:19:05Z</time>
      </trkpt>
      <trkpt lat="44.88843" lon="4.18705">
        <ele>1508</ele>
        <time>2019-10-13T09:19:31Z</time>
      </trkpt>
      <trkpt lat="44.88844" lon="4.18695">
        <ele>1508</ele>
        <time>2019-10-13T09:19:38Z</time>
      </trkpt>
      <trkpt lat="44.88848" lon="4.18679">
        <ele>1507</ele>
        <time>2019-10-13T09:20:02Z</time>
      </trkpt>
      <trkpt lat="44.8885" lon="4.18661">
        <ele>1507</ele>
        <time>2019-10-13T09:20:13Z</time>
      </trkpt>
      <trkpt lat="44.88851" lon="4.18653">
        <ele>1507</ele>
        <time>2019-10-13T09:20:19Z</time>
      </trkpt>
      <trkpt lat="44.88846" lon="4.18637">
        <ele>1506</ele>
        <time>2019-10-13T09:20:31Z</time>
      </trkpt>
      <trkpt lat="44.88846" lon="4.18629">
        <ele>1506</ele>
        <time>2019-10-13T09:20:37Z</time>
      </trkpt>
      <trkpt lat="44.88849" lon="4.18614">
        <ele>1506</ele>
        <time>2019-10-13T09:20:57Z</time>
      </trkpt>
      <trkpt lat="44.88847" lon="4.18608">
        <ele>1505</ele>
        <time>2019-10-13T09:21:57Z</time>
      </trkpt>
      <trkpt lat="44.88844" lon="4.18605">
        <ele>1505</ele>
        <time>2019-10-13T09:22:19Z</time>
      </trkpt>
      <trkpt lat="44.88842" lon="4.18597">
        <ele>1505</ele>
        <time>2019-10-13T09:22:25Z</time>
      </trkpt>
      <trkpt lat="44.88839" lon="4.1859">
        <ele>1505</ele>
        <time>2019-10-13T09:22:29Z</time>
      </trkpt>
      <trkpt lat="44.88834" lon="4.18583">
        <ele>1505</ele>
        <time>2019-10-13T09:22:32Z</time>
      </trkpt>
      <trkpt lat="44.88814" lon="4.18563">
        <ele>1505</ele>
        <time>2019-10-13T09:22:45Z</time>
      </trkpt>
      <trkpt lat="44.88801" lon="4.18545">
        <ele>1505</ele>
        <time>2019-10-13T09:22:54Z</time>
      </trkpt>
      <trkpt lat="44.88794" lon="4.18538">
        <ele>1505</ele>
        <time>2019-10-13T09:22:59Z</time>
      </trkpt>
      <trkpt lat="44.88767" lon="4.18492">
        <ele>1505</ele>
        <time>2019-10-13T09:23:31Z</time>
      </trkpt>
      <trkpt lat="44.8874" lon="4.1846">
        <ele>1505</ele>
        <time>2019-10-13T09:24:01Z</time>
      </trkpt>
      <trkpt lat="44.8872" lon="4.18429">
        <ele>1504</ele>
        <time>2019-10-13T09:24:31Z</time>
      </trkpt>
      <trkpt lat="44.88718" lon="4.18425">
        <ele>1504</ele>
        <time>2019-10-13T09:24:36Z</time>
      </trkpt>
      <trkpt lat="44.88711" lon="4.1841">
        <ele>1504</ele>
        <time>2019-10-13T09:24:48Z</time>
      </trkpt>
      <trkpt lat="44.88713" lon="4.18405">
        <ele>1504</ele>
        <time>2019-10-13T09:24:52Z</time>
      </trkpt>
      <trkpt lat="44.88716" lon="4.18402">
        <ele>1504</ele>
        <time>2019-10-13T09:24:57Z</time>
      </trkpt>
      <trkpt lat="44.88714" lon="4.18401">
        <ele>1504</ele>
        <time>2019-10-13T09:25:24Z</time>
      </trkpt>
      <trkpt lat="44.88708" lon="4.184">
        <ele>1504</ele>
        <time>2019-10-13T09:25:29Z</time>
      </trkpt>
      <trkpt lat="44.88705" lon="4.18388">
        <ele>1504</ele>
        <time>2019-10-13T09:25:36Z</time>
      </trkpt>
      <trkpt lat="44.88704" lon="4.18384">
        <ele>1504</ele>
        <time>2019-10-13T09:25:45Z</time>
      </trkpt>
      <trkpt lat="44.88703" lon="4.18377">
        <ele>1502</ele>
        <time>2019-10-13T09:29:51Z</time>
      </trkpt>
      <trkpt lat="44.88697" lon="4.18345">
        <ele>1503</ele>
        <time>2019-10-13T09:30:10Z</time>
      </trkpt>
      <trkpt lat="44.88696" lon="4.18332">
        <ele>1503</ele>
        <time>2019-10-13T09:30:18Z</time>
      </trkpt>
      <trkpt lat="44.88681" lon="4.18278">
        <ele>1503</ele>
        <time>2019-10-13T09:30:49Z</time>
      </trkpt>
      <trkpt lat="44.88671" lon="4.18249">
        <ele>1503</ele>
        <time>2019-10-13T09:31:13Z</time>
      </trkpt>
      <trkpt lat="44.88668" lon="4.18241">
        <ele>1503</ele>
        <time>2019-10-13T09:31:32Z</time>
      </trkpt>
      <trkpt lat="44.88666" lon="4.18236">
        <ele>1503</ele>
        <time>2019-10-13T09:31:42Z</time>
      </trkpt>
      <trkpt lat="44.8866" lon="4.18221">
        <ele>1504</ele>
        <time>2019-10-13T09:31:55Z</time>
      </trkpt>
      <trkpt lat="44.88646" lon="4.18196">
        <ele>1504</ele>
        <time>2019-10-13T09:32:16Z</time>
      </trkpt>
      <trkpt lat="44.88634" lon="4.1818">
        <ele>1504</ele>
        <time>2019-10-13T09:32:30Z</time>
      </trkpt>
      <trkpt lat="44.8863" lon="4.18175">
        <ele>1504</ele>
        <time>2019-10-13T09:32:34Z</time>
      </trkpt>
      <trkpt lat="44.88617" lon="4.18169">
        <ele>1504</ele>
        <time>2019-10-13T09:32:46Z</time>
      </trkpt>
      <trkpt lat="44.88597" lon="4.18174">
        <ele>1504</ele>
        <time>2019-10-13T09:33:03Z</time>
      </trkpt>
      <trkpt lat="44.88568" lon="4.18185">
        <ele>1503</ele>
        <time>2019-10-13T09:33:30Z</time>
      </trkpt>
      <trkpt lat="44.88561" lon="4.18185">
        <ele>1503</ele>
        <time>2019-10-13T09:33:36Z</time>
      </trkpt>
      <trkpt lat="44.88556" lon="4.18184">
        <ele>1503</ele>
        <time>2019-10-13T09:33:42Z</time>
      </trkpt>
      <trkpt lat="44.88555" lon="4.18182">
        <ele>1502</ele>
        <time>2019-10-13T09:34:04Z</time>
      </trkpt>
      <trkpt lat="44.88556" lon="4.18174">
        <ele>1502</ele>
        <time>2019-10-13T09:39:41Z</time>
      </trkpt>
      <trkpt lat="44.88565" lon="4.18164">
        <ele>1501</ele>
        <time>2019-10-13T09:39:59Z</time>
      </trkpt>
      <trkpt lat="44.8859" lon="4.18138">
        <ele>1501</ele>
        <time>2019-10-13T09:40:32Z</time>
      </trkpt>
      <trkpt lat="44.88594" lon="4.18137">
        <ele>1501</ele>
        <time>2019-10-13T09:40:38Z</time>
      </trkpt>
      <trkpt lat="44.88602" lon="4.18137">
        <ele>1501</ele>
        <time>2019-10-13T09:40:49Z</time>
      </trkpt>
      <trkpt lat="44.88606" lon="4.18135">
        <ele>1501</ele>
        <time>2019-10-13T09:40:54Z</time>
      </trkpt>
      <trkpt lat="44.88618" lon="4.18121">
        <ele>1501</ele>
        <time>2019-10-13T09:41:08Z</time>
      </trkpt>
      <trkpt lat="44.88624" lon="4.18115">
        <ele>1502</ele>
        <time>2019-10-13T09:41:17Z</time>
      </trkpt>
      <trkpt lat="44.88647" lon="4.18111">
        <ele>1502</ele>
        <time>2019-10-13T09:41:44Z</time>
      </trkpt>
      <trkpt lat="44.88653" lon="4.18109">
        <ele>1502</ele>
        <time>2019-10-13T09:41:49Z</time>
      </trkpt>
      <trkpt lat="44.88664" lon="4.18107">
        <ele>1502</ele>
        <time>2019-10-13T09:42:00Z</time>
      </trkpt>
      <trkpt lat="44.88669" lon="4.18108">
        <ele>1503</ele>
        <time>2019-10-13T09:42:09Z</time>
      </trkpt>
      <trkpt lat="44.88678" lon="4.18102">
        <ele>1503</ele>
        <time>2019-10-13T09:42:18Z</time>
      </trkpt>
      <trkpt lat="44.88682" lon="4.18096">
        <ele>1504</ele>
        <time>2019-10-13T09:42:29Z</time>
      </trkpt>
      <trkpt lat="44.88686" lon="4.18089">
        <ele>1504</ele>
        <time>2019-10-13T09:42:35Z</time>
      </trkpt>
      <trkpt lat="44.88694" lon="4.18087">
        <ele>1505</ele>
        <time>2019-10-13T09:42:44Z</time>
      </trkpt>
      <trkpt lat="44.887" lon="4.18081">
        <ele>1506</ele>
        <time>2019-10-13T09:42:53Z</time>
      </trkpt>
      <trkpt lat="44.88707" lon="4.18076">
        <ele>1506</ele>
        <time>2019-10-13T09:43:02Z</time>
      </trkpt>
      <trkpt lat="44.88715" lon="4.18073">
        <ele>1507</ele>
        <time>2019-10-13T09:43:09Z</time>
      </trkpt>
      <trkpt lat="44.88737" lon="4.18086">
        <ele>1509</ele>
        <time>2019-10-13T09:43:36Z</time>
      </trkpt>
      <trkpt lat="44.88742" lon="4.1809">
        <ele>1509</ele>
        <time>2019-10-13T09:43:41Z</time>
      </trkpt>
      <trkpt lat="44.88753" lon="4.18089">
        <ele>1510</ele>
        <time>2019-10-13T09:43:54Z</time>
      </trkpt>
      <trkpt lat="44.88779" lon="4.18093">
        <ele>1512</ele>
        <time>2019-10-13T09:44:24Z</time>
      </trkpt>
      <trkpt lat="44.88804" lon="4.18095">
        <ele>1515</ele>
        <time>2019-10-13T09:44:52Z</time>
      </trkpt>
      <trkpt lat="44.88832" lon="4.18112">
        <ele>1519</ele>
        <time>2019-10-13T09:45:27Z</time>
      </trkpt>
      <trkpt lat="44.88865" lon="4.18121">
        <ele>1522</ele>
        <time>2019-10-13T09:46:00Z</time>
      </trkpt>
      <trkpt lat="44.88902" lon="4.18132">
        <ele>1525</ele>
        <time>2019-10-13T09:46:33Z</time>
      </trkpt>
      <trkpt lat="44.88913" lon="4.18141">
        <ele>1526</ele>
        <time>2019-10-13T09:46:43Z</time>
      </trkpt>
      <trkpt lat="44.88937" lon="4.18176">
        <ele>1529</ele>
        <time>2019-10-13T09:47:10Z</time>
      </trkpt>
      <trkpt lat="44.88948" lon="4.18182">
        <ele>1529</ele>
        <time>2019-10-13T09:47:21Z</time>
      </trkpt>
      <trkpt lat="44.88952" lon="4.18182">
        <ele>1530</ele>
        <time>2019-10-13T09:47:24Z</time>
      </trkpt>
      <trkpt lat="44.88985" lon="4.18204">
        <ele>1532</ele>
        <time>2019-10-13T09:47:56Z</time>
      </trkpt>
      <trkpt lat="44.88994" lon="4.1821">
        <ele>1532</ele>
        <time>2019-10-13T09:48:04Z</time>
      </trkpt>
      <trkpt lat="44.89027" lon="4.18237">
        <ele>1534</ele>
        <time>2019-10-13T09:48:36Z</time>
      </trkpt>
      <trkpt lat="44.8906" lon="4.18265">
        <ele>1536</ele>
        <time>2019-10-13T09:49:07Z</time>
      </trkpt>
      <trkpt lat="44.89088" lon="4.18284">
        <ele>1538</ele>
        <time>2019-10-13T09:49:38Z</time>
      </trkpt>
      <trkpt lat="44.891" lon="4.18291">
        <ele>1539</ele>
        <time>2019-10-13T09:49:52Z</time>
      </trkpt>
      <trkpt lat="44.89108" lon="4.1829">
        <ele>1539</ele>
        <time>2019-10-13T09:50:01Z</time>
      </trkpt>
      <trkpt lat="44.89111" lon="4.18286">
        <ele>1539</ele>
        <time>2019-10-13T09:50:05Z</time>
      </trkpt>
      <trkpt lat="44.89128" lon="4.18289">
        <ele>1540</ele>
        <time>2019-10-13T09:50:24Z</time>
      </trkpt>
      <trkpt lat="44.89151" lon="4.18294">
        <ele>1541</ele>
        <time>2019-10-13T09:50:46Z</time>
      </trkpt>
      <trkpt lat="44.89165" lon="4.18301">
        <ele>1542</ele>
        <time>2019-10-13T09:51:02Z</time>
      </trkpt>
      <trkpt lat="44.8917" lon="4.18302">
        <ele>1543</ele>
        <time>2019-10-13T09:51:06Z</time>
      </trkpt>
      <trkpt lat="44.89198" lon="4.18303">
        <ele>1545</ele>
        <time>2019-10-13T09:51:38Z</time>
      </trkpt>
      <trkpt lat="44.89204" lon="4.18304">
        <ele>1545</ele>
        <time>2019-10-13T09:51:46Z</time>
      </trkpt>
      <trkpt lat="44.8921" lon="4.18304">
        <ele>1545</ele>
        <time>2019-10-13T09:51:54Z</time>
      </trkpt>
      <trkpt lat="44.89235" lon="4.18303">
        <ele>1547</ele>
        <time>2019-10-13T09:52:21Z</time>
      </trkpt>
      <trkpt lat="44.89246" lon="4.18298">
        <ele>1548</ele>
        <time>2019-10-13T09:52:33Z</time>
      </trkpt>
      <trkpt lat="44.89251" lon="4.18295">
        <ele>1549</ele>
        <time>2019-10-13T09:52:39Z</time>
      </trkpt>
      <trkpt lat="44.8926" lon="4.18284">
        <ele>1549</ele>
        <time>2019-10-13T09:52:51Z</time>
      </trkpt>
      <trkpt lat="44.89291" lon="4.18281">
        <ele>1552</ele>
        <time>2019-10-13T09:53:21Z</time>
      </trkpt>
      <trkpt lat="44.89304" lon="4.18283">
        <ele>1553</ele>
        <time>2019-10-13T09:53:35Z</time>
      </trkpt>
      <trkpt lat="44.89307" lon="4.18284">
        <ele>1553</ele>
        <time>2019-10-13T09:53:38Z</time>
      </trkpt>
      <trkpt lat="44.89311" lon="4.18284">
        <ele>1553</ele>
        <time>2019-10-13T09:53:43Z</time>
      </trkpt>
      <trkpt lat="44.8932" lon="4.18282">
        <ele>1554</ele>
        <time>2019-10-13T09:53:54Z</time>
      </trkpt>
      <trkpt lat="44.89325" lon="4.18279">
        <ele>1554</ele>
        <time>2019-10-13T09:54:00Z</time>
      </trkpt>
      <trkpt lat="44.89331" lon="4.18275">
        <ele>1555</ele>
        <time>2019-10-13T09:54:07Z</time>
      </trkpt>
      <trkpt lat="44.89341" lon="4.18285">
        <ele>1555</ele>
        <time>2019-10-13T09:54:22Z</time>
      </trkpt>
      <trkpt lat="44.89363" lon="4.18324">
        <ele>1557</ele>
        <time>2019-10-13T09:54:54Z</time>
      </trkpt>
      <trkpt lat="44.89371" lon="4.18355">
        <ele>1557</ele>
        <time>2019-10-13T09:55:16Z</time>
      </trkpt>
      <trkpt lat="44.89375" lon="4.18362">
        <ele>1558</ele>
        <time>2019-10-13T09:55:23Z</time>
      </trkpt>
      <trkpt lat="44.89387" lon="4.18358">
        <ele>1558</ele>
        <time>2019-10-13T09:55:41Z</time>
      </trkpt>
      <trkpt lat="44.89404" lon="4.18353">
        <ele>1558</ele>
        <time>2019-10-13T09:56:00Z</time>
      </trkpt>
      <trkpt lat="44.89424" lon="4.18359">
        <ele>1557</ele>
        <time>2019-10-13T09:56:21Z</time>
      </trkpt>
      <trkpt lat="44.89438" lon="4.18375">
        <ele>1556</ele>
        <time>2019-10-13T09:56:36Z</time>
      </trkpt>
      <trkpt lat="44.89443" lon="4.18378">
        <ele>1556</ele>
        <time>2019-10-13T09:56:43Z</time>
      </trkpt>
      <trkpt lat="44.89449" lon="4.18377">
        <ele>1555</ele>
        <time>2019-10-13T09:56:49Z</time>
      </trkpt>
      <trkpt lat="44.89456" lon="4.1838">
        <ele>1555</ele>
        <time>2019-10-13T09:57:05Z</time>
      </trkpt>
      <trkpt lat="44.89464" lon="4.1838">
        <ele>1554</ele>
        <time>2019-10-13T09:57:19Z</time>
      </trkpt>
      <trkpt lat="44.89471" lon="4.18381">
        <ele>1553</ele>
        <time>2019-10-13T09:57:26Z</time>
      </trkpt>
      <trkpt lat="44.89507" lon="4.18362">
        <ele>1551</ele>
        <time>2019-10-13T09:57:59Z</time>
      </trkpt>
      <trkpt lat="44.89527" lon="4.18359">
        <ele>1550</ele>
        <time>2019-10-13T09:58:13Z</time>
      </trkpt>
      <trkpt lat="44.89533" lon="4.1836">
        <ele>1550</ele>
        <time>2019-10-13T09:58:17Z</time>
      </trkpt>
      <trkpt lat="44.89549" lon="4.18369">
        <ele>1549</ele>
        <time>2019-10-13T09:58:32Z</time>
      </trkpt>
      <trkpt lat="44.89566" lon="4.18393">
        <ele>1546</ele>
        <time>2019-10-13T09:59:01Z</time>
      </trkpt>
      <trkpt lat="44.89572" lon="4.18394">
        <ele>1546</ele>
        <time>2019-10-13T09:59:12Z</time>
      </trkpt>
      <trkpt lat="44.8958" lon="4.18394">
        <ele>1545</ele>
        <time>2019-10-13T09:59:19Z</time>
      </trkpt>
      <trkpt lat="44.89586" lon="4.1839">
        <ele>1544</ele>
        <time>2019-10-13T09:59:27Z</time>
      </trkpt>
      <trkpt lat="44.89602" lon="4.18385">
        <ele>1542</ele>
        <time>2019-10-13T09:59:47Z</time>
      </trkpt>
      <trkpt lat="44.89609" lon="4.1839">
        <ele>1541</ele>
        <time>2019-10-13T09:59:57Z</time>
      </trkpt>
      <trkpt lat="44.89617" lon="4.18394">
        <ele>1541</ele>
        <time>2019-10-13T10:00:04Z</time>
      </trkpt>
      <trkpt lat="44.89629" lon="4.18404">
        <ele>1538</ele>
        <time>2019-10-13T10:00:31Z</time>
      </trkpt>
      <trkpt lat="44.89637" lon="4.18405">
        <ele>1538</ele>
        <time>2019-10-13T10:00:38Z</time>
      </trkpt>
      <trkpt lat="44.89667" lon="4.18412">
        <ele>1535</ele>
        <time>2019-10-13T10:01:10Z</time>
      </trkpt>
      <trkpt lat="44.89674" lon="4.18415">
        <ele>1534</ele>
        <time>2019-10-13T10:01:17Z</time>
      </trkpt>
      <trkpt lat="44.89687" lon="4.1842">
        <ele>1532</ele>
        <time>2019-10-13T10:01:37Z</time>
      </trkpt>
      <trkpt lat="44.89693" lon="4.1842">
        <ele>1531</ele>
        <time>2019-10-13T10:01:41Z</time>
      </trkpt>
      <trkpt lat="44.89705" lon="4.18416">
        <ele>1531</ele>
        <time>2019-10-13T10:01:49Z</time>
      </trkpt>
      <trkpt lat="44.89714" lon="4.18419">
        <ele>1529</ele>
        <time>2019-10-13T10:02:00Z</time>
      </trkpt>
      <trkpt lat="44.89744" lon="4.18436">
        <ele>1526</ele>
        <time>2019-10-13T10:02:32Z</time>
      </trkpt>
      <trkpt lat="44.89756" lon="4.18441">
        <ele>1526</ele>
        <time>2019-10-13T10:02:39Z</time>
      </trkpt>
      <trkpt lat="44.89768" lon="4.18442">
        <ele>1525</ele>
        <time>2019-10-13T10:02:46Z</time>
      </trkpt>
      <trkpt lat="44.89789" lon="4.18452">
        <ele>1522</ele>
        <time>2019-10-13T10:03:16Z</time>
      </trkpt>
      <trkpt lat="44.89802" lon="4.1846">
        <ele>1521</ele>
        <time>2019-10-13T10:03:29Z</time>
      </trkpt>
      <trkpt lat="44.89815" lon="4.18459">
        <ele>1520</ele>
        <time>2019-10-13T10:03:42Z</time>
      </trkpt>
      <trkpt lat="44.89838" lon="4.18467">
        <ele>1518</ele>
        <time>2019-10-13T10:03:59Z</time>
      </trkpt>
      <trkpt lat="44.89862" lon="4.18484">
        <ele>1516</ele>
        <time>2019-10-13T10:04:20Z</time>
      </trkpt>
      <trkpt lat="44.89868" lon="4.18486">
        <ele>1515</ele>
        <time>2019-10-13T10:04:26Z</time>
      </trkpt>
      <trkpt lat="44.89875" lon="4.1849">
        <ele>1515</ele>
        <time>2019-10-13T10:04:32Z</time>
      </trkpt>
      <trkpt lat="44.89883" lon="4.18498">
        <ele>1514</ele>
        <time>2019-10-13T10:04:38Z</time>
      </trkpt>
      <trkpt lat="44.8989" lon="4.18503">
        <ele>1513</ele>
        <time>2019-10-13T10:04:45Z</time>
      </trkpt>
      <trkpt lat="44.89919" lon="4.18517">
        <ele>1511</ele>
        <time>2019-10-13T10:05:09Z</time>
      </trkpt>
      <trkpt lat="44.89923" lon="4.18522">
        <ele>1510</ele>
        <time>2019-10-13T10:05:14Z</time>
      </trkpt>
    </trkseg>
  </trk>
  <trk>
    <name><![CDATA[28 oct. 2019]]></name>
    <cmt><![CDATA[13:42:08]]></cmt>
    <desc><![CDATA[comment ...]]></desc>
    <trkseg>
      <trkpt lat="45.49374" lon="5.98828">
        <ele>299</ele>
        <time>2019-10-28T12:42:08Z</time>
      </trkpt>
      <trkpt lat="45.49374" lon="5.98828">
        <ele>299</ele>
        <time>2019-10-28T12:42:09Z</time>
      </trkpt>
      <trkpt lat="45.4937" lon="5.98825">
        <ele>299</ele>
        <time>2019-10-28T12:42:21Z</time>
      </trkpt>
      <trkpt lat="45.49369" lon="5.98822">
        <ele>299</ele>
        <time>2019-10-28T12:42:29Z</time>
      </trkpt>
      <trkpt lat="45.49364" lon="5.98817">
        <ele>299</ele>
        <time>2019-10-28T12:42:36Z</time>
      </trkpt>
      <trkpt lat="45.49362" lon="5.98814">
        <ele>299</ele>
        <time>2019-10-28T12:42:40Z</time>
      </trkpt>
      <trkpt lat="45.49352" lon="5.98801">
        <ele>298</ele>
        <time>2019-10-28T12:43:08Z</time>
      </trkpt>
      <trkpt lat="45.49349" lon="5.98795">
        <ele>298</ele>
        <time>2019-10-28T12:43:11Z</time>
      </trkpt>
      <trkpt lat="45.49349" lon="5.98791">
        <ele>298</ele>
        <time>2019-10-28T12:43:13Z</time>
      </trkpt>
      <trkpt lat="45.49348" lon="5.98785">
        <ele>298</ele>
        <time>2019-10-28T12:43:18Z</time>
      </trkpt>
      <trkpt lat="45.49345" lon="5.98782">
        <ele>298</ele>
        <time>2019-10-28T12:43:21Z</time>
      </trkpt>
      <trkpt lat="45.4934" lon="5.98771">
        <ele>298</ele>
        <time>2019-10-28T12:43:30Z</time>
      </trkpt>
      <trkpt lat="45.49336" lon="5.98766">
        <ele>298</ele>
        <time>2019-10-28T12:43:35Z</time>
      </trkpt>
      <trkpt lat="45.49334" lon="5.98761">
        <ele>298</ele>
        <time>2019-10-28T12:43:40Z</time>
      </trkpt>
      <trkpt lat="45.49328" lon="5.98754">
        <ele>298</ele>
        <time>2019-10-28T12:43:47Z</time>
      </trkpt>
      <trkpt lat="45.49327" lon="5.98749">
        <ele>298</ele>
        <time>2019-10-28T12:43:50Z</time>
      </trkpt>
      <trkpt lat="45.49325" lon="5.98746">
        <ele>298</ele>
        <time>2019-10-28T12:43:53Z</time>
      </trkpt>
      <trkpt lat="45.49322" lon="5.98741">
        <ele>298</ele>
        <time>2019-10-28T12:43:58Z</time>
      </trkpt>
      <trkpt lat="45.49295" lon="5.98708">
        <ele>298</ele>
        <time>2019-10-28T12:44:29Z</time>
      </trkpt>
      <trkpt lat="45.49269" lon="5.98671">
        <ele>299</ele>
        <time>2019-10-28T12:45:01Z</time>
      </trkpt>
      <trkpt lat="45.49244" lon="5.98639">
        <ele>299</ele>
        <time>2019-10-28T12:45:31Z</time>
      </trkpt>
      <trkpt lat="45.49242" lon="5.98636">
        <ele>298</ele>
        <time>2019-10-28T12:45:33Z</time>
      </trkpt>
      <trkpt lat="45.49237" lon="5.98631">
        <ele>298</ele>
        <time>2019-10-28T12:45:38Z</time>
      </trkpt>
      <trkpt lat="45.49234" lon="5.98629">
        <ele>298</ele>
        <time>2019-10-28T12:45:41Z</time>
      </trkpt>
      <trkpt lat="45.49231" lon="5.98628">
        <ele>298</ele>
        <time>2019-10-28T12:45:44Z</time>
      </trkpt>
      <trkpt lat="45.49227" lon="5.98627">
        <ele>298</ele>
        <time>2019-10-28T12:45:47Z</time>
      </trkpt>
      <trkpt lat="45.49218" lon="5.98619">
        <ele>298</ele>
        <time>2019-10-28T12:45:55Z</time>
      </trkpt>
      <trkpt lat="45.49204" lon="5.98597">
        <ele>298</ele>
        <time>2019-10-28T12:46:19Z</time>
      </trkpt>
      <trkpt lat="45.49195" lon="5.98588">
        <ele>298</ele>
        <time>2019-10-28T12:46:28Z</time>
      </trkpt>
      <trkpt lat="45.49171" lon="5.98549">
        <ele>299</ele>
        <time>2019-10-28T12:47:00Z</time>
      </trkpt>
      <trkpt lat="45.49163" lon="5.98536">
        <ele>299</ele>
        <time>2019-10-28T12:47:12Z</time>
      </trkpt>
      <trkpt lat="45.49148" lon="5.9852">
        <ele>299</ele>
        <time>2019-10-28T12:47:27Z</time>
      </trkpt>
      <trkpt lat="45.49138" lon="5.98501">
        <ele>300</ele>
        <time>2019-10-28T12:47:41Z</time>
      </trkpt>
      <trkpt lat="45.49136" lon="5.98491">
        <ele>300</ele>
        <time>2019-10-28T12:47:47Z</time>
      </trkpt>
      <trkpt lat="45.49137" lon="5.98471">
        <ele>301</ele>
        <time>2019-10-28T12:47:58Z</time>
      </trkpt>
      <trkpt lat="45.49143" lon="5.98418">
        <ele>302</ele>
        <time>2019-10-28T12:48:30Z</time>
      </trkpt>
      <trkpt lat="45.49143" lon="5.98413">
        <ele>302</ele>
        <time>2019-10-28T12:48:33Z</time>
      </trkpt>
      <trkpt lat="45.49147" lon="5.98407">
        <ele>302</ele>
        <time>2019-10-28T12:48:35Z</time>
      </trkpt>
      <trkpt lat="45.49146" lon="5.98392">
        <ele>302</ele>
        <time>2019-10-28T12:48:44Z</time>
      </trkpt>
      <trkpt lat="45.49147" lon="5.98383">
        <ele>302</ele>
        <time>2019-10-28T12:48:50Z</time>
      </trkpt>
      <trkpt lat="45.49156" lon="5.98363">
        <ele>302</ele>
        <time>2019-10-28T12:49:05Z</time>
      </trkpt>
      <trkpt lat="45.49166" lon="5.98358">
        <ele>303</ele>
        <time>2019-10-28T12:49:13Z</time>
      </trkpt>
      <trkpt lat="45.49177" lon="5.98355">
        <ele>303</ele>
        <time>2019-10-28T12:49:23Z</time>
      </trkpt>
      <trkpt lat="45.49189" lon="5.98355">
        <ele>305</ele>
        <time>2019-10-28T12:50:13Z</time>
      </trkpt>
      <trkpt lat="45.49219" lon="5.9836">
        <ele>305</ele>
        <time>2019-10-28T12:50:43Z</time>
      </trkpt>
      <trkpt lat="45.49246" lon="5.98361">
        <ele>306</ele>
        <time>2019-10-28T12:51:07Z</time>
      </trkpt>
      <trkpt lat="45.49248" lon="5.98358">
        <ele>306</ele>
        <time>2019-10-28T12:51:11Z</time>
      </trkpt>
      <trkpt lat="45.49251" lon="5.98336">
        <ele>307</ele>
        <time>2019-10-28T12:51:27Z</time>
      </trkpt>
      <trkpt lat="45.49251" lon="5.98331">
        <ele>307</ele>
        <time>2019-10-28T12:51:31Z</time>
      </trkpt>
      <trkpt lat="45.49252" lon="5.98327">
        <ele>308</ele>
        <time>2019-10-28T12:51:39Z</time>
      </trkpt>
      <trkpt lat="45.49252" lon="5.98323">
        <ele>308</ele>
        <time>2019-10-28T12:51:42Z</time>
      </trkpt>
      <trkpt lat="45.49256" lon="5.9832">
        <ele>308</ele>
        <time>2019-10-28T12:51:47Z</time>
      </trkpt>
      <trkpt lat="45.4926" lon="5.98318">
        <ele>308</ele>
        <time>2019-10-28T12:51:51Z</time>
      </trkpt>
      <trkpt lat="45.49282" lon="5.983">
        <ele>310</ele>
        <time>2019-10-28T12:52:22Z</time>
      </trkpt>
      <trkpt lat="45.49288" lon="5.98296">
        <ele>311</ele>
        <time>2019-10-28T12:52:42Z</time>
      </trkpt>
      <trkpt lat="45.49288" lon="5.98295">
        <ele>315</ele>
        <time>2019-10-28T12:53:35Z</time>
      </trkpt>
      <trkpt lat="45.4929" lon="5.98292">
        <ele>315</ele>
        <time>2019-10-28T12:53:40Z</time>
      </trkpt>
      <trkpt lat="45.49297" lon="5.9829">
        <ele>316</ele>
        <time>2019-10-28T12:53:54Z</time>
      </trkpt>
      <trkpt lat="45.49301" lon="5.98289">
        <ele>317</ele>
        <time>2019-10-28T12:54:01Z</time>
      </trkpt>
      <trkpt lat="45.49305" lon="5.98289">
        <ele>318</ele>
        <time>2019-10-28T12:54:16Z</time>
      </trkpt>
      <trkpt lat="45.49302" lon="5.98288">
        <ele>319</ele>
        <time>2019-10-28T12:54:40Z</time>
      </trkpt>
      <trkpt lat="45.49299" lon="5.98287">
        <ele>320</ele>
        <time>2019-10-28T12:54:52Z</time>
      </trkpt>
      <trkpt lat="45.49302" lon="5.98283">
        <ele>320</ele>
        <time>2019-10-28T12:55:02Z</time>
      </trkpt>
      <trkpt lat="45.49301" lon="5.98271">
        <ele>321</ele>
        <time>2019-10-28T12:55:11Z</time>
      </trkpt>
      <trkpt lat="45.49299" lon="5.98267">
        <ele>321</ele>
        <time>2019-10-28T12:55:14Z</time>
      </trkpt>
      <trkpt lat="45.49297" lon="5.98265">
        <ele>321</ele>
        <time>2019-10-28T12:55:17Z</time>
      </trkpt>
      <trkpt lat="45.49295" lon="5.98262">
        <ele>321</ele>
        <time>2019-10-28T12:55:21Z</time>
      </trkpt>
      <trkpt lat="45.49292" lon="5.9826">
        <ele>321</ele>
        <time>2019-10-28T12:55:24Z</time>
      </trkpt>
      <trkpt lat="45.49289" lon="5.98257">
        <ele>322</ele>
        <time>2019-10-28T12:55:29Z</time>
      </trkpt>
      <trkpt lat="45.49287" lon="5.98251">
        <ele>322</ele>
        <time>2019-10-28T12:55:35Z</time>
      </trkpt>
      <trkpt lat="45.49291" lon="5.98249">
        <ele>322</ele>
        <time>2019-10-28T12:55:46Z</time>
      </trkpt>
      <trkpt lat="45.49294" lon="5.98247">
        <ele>323</ele>
        <time>2019-10-28T12:55:52Z</time>
      </trkpt>
      <trkpt lat="45.49298" lon="5.98248">
        <ele>323</ele>
        <time>2019-10-28T12:55:56Z</time>
      </trkpt>
      <trkpt lat="45.4931" lon="5.98252">
        <ele>324</ele>
        <time>2019-10-28T12:56:10Z</time>
      </trkpt>
      <trkpt lat="45.49315" lon="5.98254">
        <ele>324</ele>
        <time>2019-10-28T12:56:18Z</time>
      </trkpt>
      <trkpt lat="45.49323" lon="5.98258">
        <ele>325</ele>
        <time>2019-10-28T12:56:25Z</time>
      </trkpt>
      <trkpt lat="45.49327" lon="5.98257">
        <ele>325</ele>
        <time>2019-10-28T12:56:28Z</time>
      </trkpt>
      <trkpt lat="45.49331" lon="5.98258">
        <ele>325</ele>
        <time>2019-10-28T12:56:32Z</time>
      </trkpt>
      <trkpt lat="45.49346" lon="5.98255">
        <ele>327</ele>
        <time>2019-10-28T12:56:54Z</time>
      </trkpt>
      <trkpt lat="45.49349" lon="5.98258">
        <ele>329</ele>
        <time>2019-10-28T12:57:22Z</time>
      </trkpt>
      <trkpt lat="45.49353" lon="5.98254">
        <ele>332</ele>
        <time>2019-10-28T12:58:17Z</time>
      </trkpt>
      <trkpt lat="45.49357" lon="5.9825">
        <ele>334</ele>
        <time>2019-10-28T12:59:03Z</time>
      </trkpt>
      <trkpt lat="45.49367" lon="5.98249">
        <ele>335</ele>
        <time>2019-10-28T12:59:21Z</time>
      </trkpt>
      <trkpt lat="45.4937" lon="5.98251">
        <ele>335</ele>
        <time>2019-10-28T12:59:36Z</time>
      </trkpt>
      <trkpt lat="45.49376" lon="5.98252">
        <ele>335</ele>
        <time>2019-10-28T12:59:44Z</time>
      </trkpt>
      <trkpt lat="45.4938" lon="5.98249">
        <ele>335</ele>
        <time>2019-10-28T13:00:08Z</time>
      </trkpt>
      <trkpt lat="45.49383" lon="5.9825">
        <ele>335</ele>
        <time>2019-10-28T13:00:11Z</time>
      </trkpt>
      <trkpt lat="45.49389" lon="5.98247">
        <ele>336</ele>
        <time>2019-10-28T13:00:45Z</time>
      </trkpt>
      <trkpt lat="45.49391" lon="5.98245">
        <ele>336</ele>
        <time>2019-10-28T13:00:49Z</time>
      </trkpt>
      <trkpt lat="45.49394" lon="5.98244">
        <ele>336</ele>
        <time>2019-10-28T13:00:52Z</time>
      </trkpt>
      <trkpt lat="45.49402" lon="5.98237">
        <ele>336</ele>
        <time>2019-10-28T13:01:01Z</time>
      </trkpt>
      <trkpt lat="45.49405" lon="5.98234">
        <ele>336</ele>
        <time>2019-10-28T13:01:06Z</time>
      </trkpt>
      <trkpt lat="45.49406" lon="5.98231">
        <ele>336</ele>
        <time>2019-10-28T13:01:10Z</time>
      </trkpt>
      <trkpt lat="45.49409" lon="5.98227">
        <ele>336</ele>
        <time>2019-10-28T13:01:14Z</time>
      </trkpt>
      <trkpt lat="45.49413" lon="5.98222">
        <ele>336</ele>
        <time>2019-10-28T13:01:21Z</time>
      </trkpt>
      <trkpt lat="45.49416" lon="5.9822">
        <ele>337</ele>
        <time>2019-10-28T13:01:26Z</time>
      </trkpt>
      <trkpt lat="45.49414" lon="5.9822">
        <ele>338</ele>
        <time>2019-10-28T13:02:25Z</time>
      </trkpt>
      <trkpt lat="45.49411" lon="5.98222">
        <ele>338</ele>
        <time>2019-10-28T13:02:28Z</time>
      </trkpt>
      <trkpt lat="45.49409" lon="5.98225">
        <ele>338</ele>
        <time>2019-10-28T13:02:32Z</time>
      </trkpt>
      <trkpt lat="45.49405" lon="5.98235">
        <ele>338</ele>
        <time>2019-10-28T13:02:40Z</time>
      </trkpt>
      <trkpt lat="45.49402" lon="5.98238">
        <ele>338</ele>
        <time>2019-10-28T13:02:45Z</time>
      </trkpt>
      <trkpt lat="45.49397" lon="5.98241">
        <ele>338</ele>
        <time>2019-10-28T13:02:49Z</time>
      </trkpt>
      <trkpt lat="45.49395" lon="5.98243">
        <ele>338</ele>
        <time>2019-10-28T13:02:59Z</time>
      </trkpt>
      <trkpt lat="45.49391" lon="5.98244">
        <ele>338</ele>
        <time>2019-10-28T13:03:03Z</time>
      </trkpt>
      <trkpt lat="45.49379" lon="5.98248">
        <ele>338</ele>
        <time>2019-10-28T13:03:15Z</time>
      </trkpt>
      <trkpt lat="45.49374" lon="5.9825">
        <ele>338</ele>
        <time>2019-10-28T13:03:21Z</time>
      </trkpt>
      <trkpt lat="45.49366" lon="5.98248">
        <ele>339</ele>
        <time>2019-10-28T13:03:28Z</time>
      </trkpt>
      <trkpt lat="45.49354" lon="5.9825">
        <ele>339</ele>
        <time>2019-10-28T13:03:39Z</time>
      </trkpt>
      <trkpt lat="45.49353" lon="5.98255">
        <ele>339</ele>
        <time>2019-10-28T13:03:44Z</time>
      </trkpt>
      <trkpt lat="45.49371" lon="5.9826">
        <ele>339</ele>
        <time>2019-10-28T13:04:04Z</time>
      </trkpt>
      <trkpt lat="45.49382" lon="5.98256">
        <ele>339</ele>
        <time>2019-10-28T13:04:12Z</time>
      </trkpt>
      <trkpt lat="45.49383" lon="5.9826">
        <ele>339</ele>
        <time>2019-10-28T13:04:18Z</time>
      </trkpt>
      <trkpt lat="45.49386" lon="5.98255">
        <ele>339</ele>
        <time>2019-10-28T13:04:40Z</time>
      </trkpt>
      <trkpt lat="45.49389" lon="5.98253">
        <ele>339</ele>
        <time>2019-10-28T13:04:44Z</time>
      </trkpt>
      <trkpt lat="45.49393" lon="5.98252">
        <ele>339</ele>
        <time>2019-10-28T13:04:48Z</time>
      </trkpt>
      <trkpt lat="45.49397" lon="5.98249">
        <ele>339</ele>
        <time>2019-10-28T13:04:52Z</time>
      </trkpt>
      <trkpt lat="45.49401" lon="5.98249">
        <ele>339</ele>
        <time>2019-10-28T13:04:57Z</time>
      </trkpt>
      <trkpt lat="45.49403" lon="5.98252">
        <ele>339</ele>
        <time>2019-10-28T13:05:00Z</time>
      </trkpt>
      <trkpt lat="45.49405" lon="5.98257">
        <ele>339</ele>
        <time>2019-10-28T13:05:05Z</time>
      </trkpt>
      <trkpt lat="45.49408" lon="5.98258">
        <ele>339</ele>
        <time>2019-10-28T13:05:09Z</time>
      </trkpt>
      <trkpt lat="45.49409" lon="5.98261">
        <ele>339</ele>
        <time>2019-10-28T13:05:20Z</time>
      </trkpt>
      <trkpt lat="45.49426" lon="5.98265">
        <ele>338</ele>
        <time>2019-10-28T13:05:37Z</time>
      </trkpt>
      <trkpt lat="45.49429" lon="5.98266">
        <ele>338</ele>
        <time>2019-10-28T13:05:40Z</time>
      </trkpt>
      <trkpt lat="45.49439" lon="5.98268">
        <ele>338</ele>
        <time>2019-10-28T13:05:51Z</time>
      </trkpt>
      <trkpt lat="45.49449" lon="5.9827">
        <ele>338</ele>
        <time>2019-10-28T13:06:07Z</time>
      </trkpt>
      <trkpt lat="45.49459" lon="5.98275">
        <ele>338</ele>
        <time>2019-10-28T13:06:18Z</time>
      </trkpt>
      <trkpt lat="45.49465" lon="5.98277">
        <ele>338</ele>
        <time>2019-10-28T13:06:24Z</time>
      </trkpt>
      <trkpt lat="45.49476" lon="5.98281">
        <ele>338</ele>
        <time>2019-10-28T13:06:36Z</time>
      </trkpt>
      <trkpt lat="45.49481" lon="5.98278">
        <ele>337</ele>
        <time>2019-10-28T13:06:43Z</time>
      </trkpt>
      <trkpt lat="45.49493" lon="5.9827">
        <ele>337</ele>
        <time>2019-10-28T13:07:00Z</time>
      </trkpt>
      <trkpt lat="45.49498" lon="5.98267">
        <ele>337</ele>
        <time>2019-10-28T13:07:04Z</time>
      </trkpt>
      <trkpt lat="45.49504" lon="5.98264">
        <ele>337</ele>
        <time>2019-10-28T13:07:10Z</time>
      </trkpt>
      <trkpt lat="45.4951" lon="5.98262">
        <ele>337</ele>
        <time>2019-10-28T13:07:23Z</time>
      </trkpt>
      <trkpt lat="45.49534" lon="5.9825">
        <ele>337</ele>
        <time>2019-10-28T13:07:44Z</time>
      </trkpt>
      <trkpt lat="45.49534" lon="5.98245">
        <ele>337</ele>
        <time>2019-10-28T13:07:48Z</time>
      </trkpt>
      <trkpt lat="45.49537" lon="5.98238">
        <ele>338</ele>
        <time>2019-10-28T13:07:59Z</time>
      </trkpt>
      <trkpt lat="45.49539" lon="5.98218">
        <ele>340</ele>
        <time>2019-10-28T13:08:37Z</time>
      </trkpt>
      <trkpt lat="45.49542" lon="5.98209">
        <ele>341</ele>
        <time>2019-10-28T13:08:50Z</time>
      </trkpt>
      <trkpt lat="45.49542" lon="5.98201">
        <ele>341</ele>
        <time>2019-10-28T13:08:59Z</time>
      </trkpt>
      <trkpt lat="45.49546" lon="5.98194">
        <ele>342</ele>
        <time>2019-10-28T13:09:06Z</time>
      </trkpt>
      <trkpt lat="45.49542" lon="5.98189">
        <ele>344</ele>
        <time>2019-10-28T13:09:33Z</time>
      </trkpt>
      <trkpt lat="45.49542" lon="5.98181">
        <ele>345</ele>
        <time>2019-10-28T13:09:44Z</time>
      </trkpt>
      <trkpt lat="45.49546" lon="5.98175">
        <ele>346</ele>
        <time>2019-10-28T13:09:53Z</time>
      </trkpt>
      <trkpt lat="45.49548" lon="5.98167">
        <ele>346</ele>
        <time>2019-10-28T13:10:00Z</time>
      </trkpt>
      <trkpt lat="45.49543" lon="5.98165">
        <ele>348</ele>
        <time>2019-10-28T13:10:16Z</time>
      </trkpt>
      <trkpt lat="45.49542" lon="5.98161">
        <ele>350</ele>
        <time>2019-10-28T13:10:34Z</time>
      </trkpt>
      <trkpt lat="45.49545" lon="5.98151">
        <ele>353</ele>
        <time>2019-10-28T13:10:56Z</time>
      </trkpt>
      <trkpt lat="45.4954" lon="5.98146">
        <ele>357</ele>
        <time>2019-10-28T13:11:27Z</time>
      </trkpt>
      <trkpt lat="45.49544" lon="5.98141">
        <ele>359</ele>
        <time>2019-10-28T13:11:44Z</time>
      </trkpt>
      <trkpt lat="45.49547" lon="5.98134">
        <ele>361</ele>
        <time>2019-10-28T13:11:53Z</time>
      </trkpt>
      <trkpt lat="45.49549" lon="5.9813">
        <ele>363</ele>
        <time>2019-10-28T13:12:07Z</time>
      </trkpt>
      <trkpt lat="45.49544" lon="5.98128">
        <ele>364</ele>
        <time>2019-10-28T13:12:16Z</time>
      </trkpt>
      <trkpt lat="45.49542" lon="5.98123">
        <ele>367</ele>
        <time>2019-10-28T13:12:34Z</time>
      </trkpt>
      <trkpt lat="45.49544" lon="5.98119">
        <ele>367</ele>
        <time>2019-10-28T13:12:40Z</time>
      </trkpt>
      <trkpt lat="45.49543" lon="5.98113">
        <ele>368</ele>
        <time>2019-10-28T13:12:48Z</time>
      </trkpt>
      <trkpt lat="45.49542" lon="5.98106">
        <ele>369</ele>
        <time>2019-10-28T13:12:56Z</time>
      </trkpt>
      <trkpt lat="45.49536" lon="5.98109">
        <ele>373</ele>
        <time>2019-10-28T13:13:22Z</time>
      </trkpt>
      <trkpt lat="45.49533" lon="5.98113">
        <ele>374</ele>
        <time>2019-10-28T13:13:29Z</time>
      </trkpt>
      <trkpt lat="45.49532" lon="5.98109">
        <ele>377</ele>
        <time>2019-10-28T13:13:56Z</time>
      </trkpt>
      <trkpt lat="45.49533" lon="5.98105">
        <ele>378</ele>
        <time>2019-10-28T13:14:03Z</time>
      </trkpt>
      <trkpt lat="45.49535" lon="5.98103">
        <ele>379</ele>
        <time>2019-10-28T13:14:07Z</time>
      </trkpt>
      <trkpt lat="45.49536" lon="5.98097">
        <ele>382</ele>
        <time>2019-10-28T13:14:42Z</time>
      </trkpt>
      <trkpt lat="45.49537" lon="5.98093">
        <ele>383</ele>
        <time>2019-10-28T13:14:46Z</time>
      </trkpt>
      <trkpt lat="45.49535" lon="5.98094">
        <ele>385</ele>
        <time>2019-10-28T13:15:18Z</time>
      </trkpt>
      <trkpt lat="45.49531" lon="5.98095">
        <ele>385</ele>
        <time>2019-10-28T13:15:22Z</time>
      </trkpt>
      <trkpt lat="45.49531" lon="5.98098">
        <ele>387</ele>
        <time>2019-10-28T13:15:42Z</time>
      </trkpt>
      <trkpt lat="45.49539" lon="5.98092">
        <ele>387</ele>
        <time>2019-10-28T13:15:52Z</time>
      </trkpt>
      <trkpt lat="45.49541" lon="5.9809">
        <ele>387</ele>
        <time>2019-10-28T13:15:55Z</time>
      </trkpt>
      <trkpt lat="45.49542" lon="5.98085">
        <ele>388</ele>
        <time>2019-10-28T13:15:59Z</time>
      </trkpt>
      <trkpt lat="45.49543" lon="5.98081">
        <ele>388</ele>
        <time>2019-10-28T13:16:03Z</time>
      </trkpt>
      <trkpt lat="45.49541" lon="5.98081">
        <ele>389</ele>
        <time>2019-10-28T13:16:28Z</time>
      </trkpt>
      <trkpt lat="45.49541" lon="5.98087">
        <ele>391</ele>
        <time>2019-10-28T13:17:31Z</time>
      </trkpt>
      <trkpt lat="45.49537" lon="5.98109">
        <ele>391</ele>
        <time>2019-10-28T13:17:46Z</time>
      </trkpt>
      <trkpt lat="45.49537" lon="5.98109">
        <ele>392</ele>
        <time>2019-10-28T13:18:07Z</time>
      </trkpt>
      <trkpt lat="45.49548" lon="5.98103">
        <ele>392</ele>
        <time>2019-10-28T13:18:22Z</time>
      </trkpt>
      <trkpt lat="45.49551" lon="5.98101">
        <ele>391</ele>
        <time>2019-10-28T13:18:47Z</time>
      </trkpt>
      <trkpt lat="45.49551" lon="5.98096">
        <ele>391</ele>
        <time>2019-10-28T13:19:16Z</time>
      </trkpt>
      <trkpt lat="45.49553" lon="5.98093">
        <ele>391</ele>
        <time>2019-10-28T13:19:24Z</time>
      </trkpt>
      <trkpt lat="45.49551" lon="5.98085">
        <ele>391</ele>
        <time>2019-10-28T13:19:33Z</time>
      </trkpt>
      <trkpt lat="45.49549" lon="5.98072">
        <ele>391</ele>
        <time>2019-10-28T13:19:46Z</time>
      </trkpt>
      <trkpt lat="45.49549" lon="5.98068">
        <ele>392</ele>
        <time>2019-10-28T13:19:50Z</time>
      </trkpt>
      <trkpt lat="45.49548" lon="5.98064">
        <ele>392</ele>
        <time>2019-10-28T13:19:56Z</time>
      </trkpt>
      <trkpt lat="45.49544" lon="5.98067">
        <ele>392</ele>
        <time>2019-10-28T13:20:05Z</time>
      </trkpt>
      <trkpt lat="45.49539" lon="5.98076">
        <ele>392</ele>
        <time>2019-10-28T13:20:13Z</time>
      </trkpt>
      <trkpt lat="45.49536" lon="5.98078">
        <ele>392</ele>
        <time>2019-10-28T13:20:16Z</time>
      </trkpt>
      <trkpt lat="45.49531" lon="5.98083">
        <ele>392</ele>
        <time>2019-10-28T13:20:22Z</time>
      </trkpt>
      <trkpt lat="45.49531" lon="5.9808">
        <ele>392</ele>
        <time>2019-10-28T13:20:45Z</time>
      </trkpt>
      <trkpt lat="45.49537" lon="5.98077">
        <ele>393</ele>
        <time>2019-10-28T13:20:52Z</time>
      </trkpt>
      <trkpt lat="45.49539" lon="5.98073">
        <ele>393</ele>
        <time>2019-10-28T13:20:56Z</time>
      </trkpt>
      <trkpt lat="45.49541" lon="5.98069">
        <ele>393</ele>
        <time>2019-10-28T13:20:59Z</time>
      </trkpt>
      <trkpt lat="45.49545" lon="5.98063">
        <ele>393</ele>
        <time>2019-10-28T13:21:05Z</time>
      </trkpt>
      <trkpt lat="45.49557" lon="5.98053">
        <ele>393</ele>
        <time>2019-10-28T13:21:17Z</time>
      </trkpt>
      <trkpt lat="45.49587" lon="5.98036">
        <ele>394</ele>
        <time>2019-10-28T13:21:47Z</time>
      </trkpt>
      <trkpt lat="45.4959" lon="5.98035">
        <ele>394</ele>
        <time>2019-10-28T13:21:50Z</time>
      </trkpt>
      <trkpt lat="45.49591" lon="5.98036">
        <ele>394</ele>
        <time>2019-10-28T13:22:10Z</time>
      </trkpt>
      <trkpt lat="45.49588" lon="5.98038">
        <ele>394</ele>
        <time>2019-10-28T13:22:14Z</time>
      </trkpt>
      <trkpt lat="45.49589" lon="5.98047">
        <ele>394</ele>
        <time>2019-10-28T13:22:35Z</time>
      </trkpt>
      <trkpt lat="45.49592" lon="5.98062">
        <ele>394</ele>
        <time>2019-10-28T13:22:50Z</time>
      </trkpt>
      <trkpt lat="45.49595" lon="5.98072">
        <ele>394</ele>
        <time>2019-10-28T13:23:05Z</time>
      </trkpt>
      <trkpt lat="45.49597" lon="5.98084">
        <ele>393</ele>
        <time>2019-10-28T13:23:16Z</time>
      </trkpt>
      <trkpt lat="45.49601" lon="5.98087">
        <ele>393</ele>
        <time>2019-10-28T13:23:20Z</time>
      </trkpt>
      <trkpt lat="45.49603" lon="5.981">
        <ele>391</ele>
        <time>2019-10-28T13:23:55Z</time>
      </trkpt>
      <trkpt lat="45.49604" lon="5.98106">
        <ele>390</ele>
        <time>2019-10-28T13:24:00Z</time>
      </trkpt>
      <trkpt lat="45.49609" lon="5.98111">
        <ele>390</ele>
        <time>2019-10-28T13:24:07Z</time>
      </trkpt>
      <trkpt lat="45.49614" lon="5.98107">
        <ele>389</ele>
        <time>2019-10-28T13:24:13Z</time>
      </trkpt>
      <trkpt lat="45.49614" lon="5.98098">
        <ele>389</ele>
        <time>2019-10-28T13:24:21Z</time>
      </trkpt>
      <trkpt lat="45.4962" lon="5.98093">
        <ele>388</ele>
        <time>2019-10-28T13:24:32Z</time>
      </trkpt>
      <trkpt lat="45.49623" lon="5.98086">
        <ele>388</ele>
        <time>2019-10-28T13:24:39Z</time>
      </trkpt>
      <trkpt lat="45.49624" lon="5.98078">
        <ele>388</ele>
        <time>2019-10-28T13:24:46Z</time>
      </trkpt>
      <trkpt lat="45.49622" lon="5.9807">
        <ele>387</ele>
        <time>2019-10-28T13:25:01Z</time>
      </trkpt>
      <trkpt lat="45.49621" lon="5.98062">
        <ele>387</ele>
        <time>2019-10-28T13:25:10Z</time>
      </trkpt>
      <trkpt lat="45.49619" lon="5.98054">
        <ele>387</ele>
        <time>2019-10-28T13:25:17Z</time>
      </trkpt>
      <trkpt lat="45.49619" lon="5.98021">
        <ele>387</ele>
        <time>2019-10-28T13:25:43Z</time>
      </trkpt>
      <trkpt lat="45.49618" lon="5.9801">
        <ele>387</ele>
        <time>2019-10-28T13:25:54Z</time>
      </trkpt>
      <trkpt lat="45.49615" lon="5.98003">
        <ele>387</ele>
        <time>2019-10-28T13:26:02Z</time>
      </trkpt>
      <trkpt lat="45.49615" lon="5.97995">
        <ele>388</ele>
        <time>2019-10-28T13:26:18Z</time>
      </trkpt>
      <trkpt lat="45.49616" lon="5.9799">
        <ele>388</ele>
        <time>2019-10-28T13:26:33Z</time>
      </trkpt>
      <trkpt lat="45.49611" lon="5.97996">
        <ele>389</ele>
        <time>2019-10-28T13:26:53Z</time>
      </trkpt>
      <trkpt lat="45.49592" lon="5.9799">
        <ele>389</ele>
        <time>2019-10-28T13:27:12Z</time>
      </trkpt>
      <trkpt lat="45.49589" lon="5.97988">
        <ele>389</ele>
        <time>2019-10-28T13:27:15Z</time>
      </trkpt>
      <trkpt lat="45.49586" lon="5.97985">
        <ele>389</ele>
        <time>2019-10-28T13:27:19Z</time>
      </trkpt>
      <trkpt lat="45.49585" lon="5.97983">
        <ele>390</ele>
        <time>2019-10-28T13:27:21Z</time>
      </trkpt>
      <trkpt lat="45.49583" lon="5.97981">
        <ele>390</ele>
        <time>2019-10-28T13:27:23Z</time>
      </trkpt>
      <trkpt lat="45.49574" lon="5.9797">
        <ele>390</ele>
        <time>2019-10-28T13:27:35Z</time>
      </trkpt>
      <trkpt lat="45.4957" lon="5.97964">
        <ele>390</ele>
        <time>2019-10-28T13:27:41Z</time>
      </trkpt>
      <trkpt lat="45.49561" lon="5.97957">
        <ele>390</ele>
        <time>2019-10-28T13:27:50Z</time>
      </trkpt>
      <trkpt lat="45.49534" lon="5.9795">
        <ele>391</ele>
        <time>2019-10-28T13:28:20Z</time>
      </trkpt>
      <trkpt lat="45.4952" lon="5.97945">
        <ele>391</ele>
        <time>2019-10-28T13:28:35Z</time>
      </trkpt>
      <trkpt lat="45.49517" lon="5.97945">
        <ele>391</ele>
        <time>2019-10-28T13:28:40Z</time>
      </trkpt>
      <trkpt lat="45.49514" lon="5.97938">
        <ele>391</ele>
        <time>2019-10-28T13:29:07Z</time>
      </trkpt>
      <trkpt lat="45.49506" lon="5.97931">
        <ele>391</ele>
        <time>2019-10-28T13:29:21Z</time>
      </trkpt>
      <trkpt lat="45.49504" lon="5.97929">
        <ele>391</ele>
        <time>2019-10-28T13:29:24Z</time>
      </trkpt>
      <trkpt lat="45.495" lon="5.97924">
        <ele>391</ele>
        <time>2019-10-28T13:29:30Z</time>
      </trkpt>
      <trkpt lat="45.49495" lon="5.97916">
        <ele>390</ele>
        <time>2019-10-28T13:29:39Z</time>
      </trkpt>
      <trkpt lat="45.49493" lon="5.97913">
        <ele>390</ele>
        <time>2019-10-28T13:29:42Z</time>
      </trkpt>
      <trkpt lat="45.49491" lon="5.97912">
        <ele>390</ele>
        <time>2019-10-28T13:29:44Z</time>
      </trkpt>
      <trkpt lat="45.49487" lon="5.97909">
        <ele>390</ele>
        <time>2019-10-28T13:29:49Z</time>
      </trkpt>
      <trkpt lat="45.49481" lon="5.97907">
        <ele>389</ele>
        <time>2019-10-28T13:29:55Z</time>
      </trkpt>
      <trkpt lat="45.49471" lon="5.97899">
        <ele>388</ele>
        <time>2019-10-28T13:30:16Z</time>
      </trkpt>
      <trkpt lat="45.49466" lon="5.97892">
        <ele>388</ele>
        <time>2019-10-28T13:30:23Z</time>
      </trkpt>
      <trkpt lat="45.49464" lon="5.97891">
        <ele>388</ele>
        <time>2019-10-28T13:30:29Z</time>
      </trkpt>
      <trkpt lat="45.49463" lon="5.97888">
        <ele>387</ele>
        <time>2019-10-28T13:30:47Z</time>
      </trkpt>
      <trkpt lat="45.49462" lon="5.97886">
        <ele>387</ele>
        <time>2019-10-28T13:30:49Z</time>
      </trkpt>
      <trkpt lat="45.4946" lon="5.97884">
        <ele>386</ele>
        <time>2019-10-28T13:30:51Z</time>
      </trkpt>
      <trkpt lat="45.49458" lon="5.97882">
        <ele>386</ele>
        <time>2019-10-28T13:30:54Z</time>
      </trkpt>
      <trkpt lat="45.49459" lon="5.97877">
        <ele>386</ele>
        <time>2019-10-28T13:31:11Z</time>
      </trkpt>
      <trkpt lat="45.49462" lon="5.97868">
        <ele>385</ele>
        <time>2019-10-28T13:31:18Z</time>
      </trkpt>
      <trkpt lat="45.49463" lon="5.97853">
        <ele>385</ele>
        <time>2019-10-28T13:31:29Z</time>
      </trkpt>
      <trkpt lat="45.49464" lon="5.97848">
        <ele>385</ele>
        <time>2019-10-28T13:31:33Z</time>
      </trkpt>
      <trkpt lat="45.49463" lon="5.97835">
        <ele>384</ele>
        <time>2019-10-28T13:31:44Z</time>
      </trkpt>
      <trkpt lat="45.49468" lon="5.97792">
        <ele>384</ele>
        <time>2019-10-28T13:32:16Z</time>
      </trkpt>
      <trkpt lat="45.49469" lon="5.97786">
        <ele>384</ele>
        <time>2019-10-28T13:32:20Z</time>
      </trkpt>
      <trkpt lat="45.49469" lon="5.97777">
        <ele>384</ele>
        <time>2019-10-28T13:32:27Z</time>
      </trkpt>
      <trkpt lat="45.4947" lon="5.97769">
        <ele>384</ele>
        <time>2019-10-28T13:32:34Z</time>
      </trkpt>
      <trkpt lat="45.49472" lon="5.97755">
        <ele>384</ele>
        <time>2019-10-28T13:32:51Z</time>
      </trkpt>
      <trkpt lat="45.49471" lon="5.97746">
        <ele>385</ele>
        <time>2019-10-28T13:33:00Z</time>
      </trkpt>
      <trkpt lat="45.49463" lon="5.97715">
        <ele>385</ele>
        <time>2019-10-28T13:33:31Z</time>
      </trkpt>
      <trkpt lat="45.4946" lon="5.97702">
        <ele>386</ele>
        <time>2019-10-28T13:33:39Z</time>
      </trkpt>
      <trkpt lat="45.49446" lon="5.97668">
        <ele>386</ele>
        <time>2019-10-28T13:34:02Z</time>
      </trkpt>
      <trkpt lat="45.49441" lon="5.97655">
        <ele>386</ele>
        <time>2019-10-28T13:34:11Z</time>
      </trkpt>
      <trkpt lat="45.49434" lon="5.97648">
        <ele>387</ele>
        <time>2019-10-28T13:34:19Z</time>
      </trkpt>
      <trkpt lat="45.49432" lon="5.97643">
        <ele>387</ele>
        <time>2019-10-28T13:34:23Z</time>
      </trkpt>
      <trkpt lat="45.49427" lon="5.9759">
        <ele>387</ele>
        <time>2019-10-28T13:34:53Z</time>
      </trkpt>
      <trkpt lat="45.49428" lon="5.97585">
        <ele>387</ele>
        <time>2019-10-28T13:34:56Z</time>
      </trkpt>
      <trkpt lat="45.49425" lon="5.97575">
        <ele>388</ele>
        <time>2019-10-28T13:35:04Z</time>
      </trkpt>
      <trkpt lat="45.49423" lon="5.9757">
        <ele>388</ele>
        <time>2019-10-28T13:35:13Z</time>
      </trkpt>
      <trkpt lat="45.49419" lon="5.97549">
        <ele>389</ele>
        <time>2019-10-28T13:35:47Z</time>
      </trkpt>
      <trkpt lat="45.49416" lon="5.97539">
        <ele>389</ele>
        <time>2019-10-28T13:35:54Z</time>
      </trkpt>
      <trkpt lat="45.49417" lon="5.9753">
        <ele>389</ele>
        <time>2019-10-28T13:36:00Z</time>
      </trkpt>
      <trkpt lat="45.49416" lon="5.97525">
        <ele>389</ele>
        <time>2019-10-28T13:36:03Z</time>
      </trkpt>
      <trkpt lat="45.49416" lon="5.9752">
        <ele>389</ele>
        <time>2019-10-28T13:36:06Z</time>
      </trkpt>
      <trkpt lat="45.49417" lon="5.97515">
        <ele>389</ele>
        <time>2019-10-28T13:36:09Z</time>
      </trkpt>
      <trkpt lat="45.4942" lon="5.9751">
        <ele>389</ele>
        <time>2019-10-28T13:36:13Z</time>
      </trkpt>
      <trkpt lat="45.49432" lon="5.97496">
        <ele>389</ele>
        <time>2019-10-28T13:36:26Z</time>
      </trkpt>
      <trkpt lat="45.49439" lon="5.9749">
        <ele>389</ele>
        <time>2019-10-28T13:36:34Z</time>
      </trkpt>
      <trkpt lat="45.49449" lon="5.97478">
        <ele>390</ele>
        <time>2019-10-28T13:36:46Z</time>
      </trkpt>
      <trkpt lat="45.49453" lon="5.97474">
        <ele>390</ele>
        <time>2019-10-28T13:36:50Z</time>
      </trkpt>
      <trkpt lat="45.49453" lon="5.97469">
        <ele>390</ele>
        <time>2019-10-28T13:37:04Z</time>
      </trkpt>
      <trkpt lat="45.49451" lon="5.97456">
        <ele>390</ele>
        <time>2019-10-28T13:37:14Z</time>
      </trkpt>
      <trkpt lat="45.49449" lon="5.97451">
        <ele>391</ele>
        <time>2019-10-28T13:37:18Z</time>
      </trkpt>
      <trkpt lat="45.4945" lon="5.97445">
        <ele>391</ele>
        <time>2019-10-28T13:37:21Z</time>
      </trkpt>
      <trkpt lat="45.49448" lon="5.97435">
        <ele>391</ele>
        <time>2019-10-28T13:37:28Z</time>
      </trkpt>
      <trkpt lat="45.49447" lon="5.97429">
        <ele>391</ele>
        <time>2019-10-28T13:37:32Z</time>
      </trkpt>
      <trkpt lat="45.49447" lon="5.97423">
        <ele>391</ele>
        <time>2019-10-28T13:37:36Z</time>
      </trkpt>
      <trkpt lat="45.49441" lon="5.97415">
        <ele>391</ele>
        <time>2019-10-28T13:37:42Z</time>
      </trkpt>
      <trkpt lat="45.49424" lon="5.9738">
        <ele>391</ele>
        <time>2019-10-28T13:38:08Z</time>
      </trkpt>
      <trkpt lat="45.49424" lon="5.97377">
        <ele>391</ele>
        <time>2019-10-28T13:38:10Z</time>
      </trkpt>
      <trkpt lat="45.49423" lon="5.97373">
        <ele>391</ele>
        <time>2019-10-28T13:38:14Z</time>
      </trkpt>
      <trkpt lat="45.49422" lon="5.97369">
        <ele>392</ele>
        <time>2019-10-28T13:38:19Z</time>
      </trkpt>
      <trkpt lat="45.4942" lon="5.97361">
        <ele>392</ele>
        <time>2019-10-28T13:38:39Z</time>
      </trkpt>
      <trkpt lat="45.49419" lon="5.97331">
        <ele>392</ele>
        <time>2019-10-28T13:38:57Z</time>
      </trkpt>
      <trkpt lat="45.49422" lon="5.97299">
        <ele>392</ele>
        <time>2019-10-28T13:39:15Z</time>
      </trkpt>
      <trkpt lat="45.49421" lon="5.97294">
        <ele>392</ele>
        <time>2019-10-28T13:39:18Z</time>
      </trkpt>
      <trkpt lat="45.49419" lon="5.97284">
        <ele>392</ele>
        <time>2019-10-28T13:39:24Z</time>
      </trkpt>
      <trkpt lat="45.49407" lon="5.97274">
        <ele>392</ele>
        <time>2019-10-28T13:39:36Z</time>
      </trkpt>
      <trkpt lat="45.49404" lon="5.97272">
        <ele>392</ele>
        <time>2019-10-28T13:39:39Z</time>
      </trkpt>
      <trkpt lat="45.49391" lon="5.97266">
        <ele>392</ele>
        <time>2019-10-28T13:39:52Z</time>
      </trkpt>
      <trkpt lat="45.49381" lon="5.97258">
        <ele>392</ele>
        <time>2019-10-28T13:40:03Z</time>
      </trkpt>
      <trkpt lat="45.49364" lon="5.9725">
        <ele>392</ele>
        <time>2019-10-28T13:40:30Z</time>
      </trkpt>
      <trkpt lat="45.49331" lon="5.9725">
        <ele>392</ele>
        <time>2019-10-28T13:40:57Z</time>
      </trkpt>
      <trkpt lat="45.49324" lon="5.97249">
        <ele>392</ele>
        <time>2019-10-28T13:41:03Z</time>
      </trkpt>
      <trkpt lat="45.49321" lon="5.97249">
        <ele>392</ele>
        <time>2019-10-28T13:41:08Z</time>
      </trkpt>
      <trkpt lat="45.49318" lon="5.97252">
        <ele>392</ele>
        <time>2019-10-28T13:41:12Z</time>
      </trkpt>
      <trkpt lat="45.49317" lon="5.97274">
        <ele>392</ele>
        <time>2019-10-28T13:41:27Z</time>
      </trkpt>
      <trkpt lat="45.49317" lon="5.97271">
        <ele>392</ele>
        <time>2019-10-28T13:41:33Z</time>
      </trkpt>
      <trkpt lat="45.49316" lon="5.97248">
        <ele>392</ele>
        <time>2019-10-28T13:41:46Z</time>
      </trkpt>
      <trkpt lat="45.49317" lon="5.9722">
        <ele>392</ele>
        <time>2019-10-28T13:42:05Z</time>
      </trkpt>
      <trkpt lat="45.49316" lon="5.97213">
        <ele>392</ele>
        <time>2019-10-28T13:42:17Z</time>
      </trkpt>
      <trkpt lat="45.49316" lon="5.97188">
        <ele>392</ele>
        <time>2019-10-28T13:42:32Z</time>
      </trkpt>
      <trkpt lat="45.49315" lon="5.97178">
        <ele>393</ele>
        <time>2019-10-28T13:42:38Z</time>
      </trkpt>
      <trkpt lat="45.49315" lon="5.97134">
        <ele>393</ele>
        <time>2019-10-28T13:43:05Z</time>
      </trkpt>
      <trkpt lat="45.4931" lon="5.97115">
        <ele>393</ele>
        <time>2019-10-28T13:43:17Z</time>
      </trkpt>
      <trkpt lat="45.49306" lon="5.97111">
        <ele>394</ele>
        <time>2019-10-28T13:43:20Z</time>
      </trkpt>
      <trkpt lat="45.49308" lon="5.97106">
        <ele>394</ele>
        <time>2019-10-28T13:43:31Z</time>
      </trkpt>
      <trkpt lat="45.49303" lon="5.971">
        <ele>395</ele>
        <time>2019-10-28T13:44:00Z</time>
      </trkpt>
      <trkpt lat="45.49294" lon="5.9708">
        <ele>395</ele>
        <time>2019-10-28T13:44:15Z</time>
      </trkpt>
      <trkpt lat="45.4929" lon="5.97058">
        <ele>396</ele>
        <time>2019-10-28T13:44:27Z</time>
      </trkpt>
      <trkpt lat="45.49289" lon="5.97043">
        <ele>396</ele>
        <time>2019-10-28T13:44:36Z</time>
      </trkpt>
      <trkpt lat="45.49289" lon="5.9704">
        <ele>396</ele>
        <time>2019-10-28T13:44:38Z</time>
      </trkpt>
      <trkpt lat="45.49291" lon="5.97027">
        <ele>396</ele>
        <time>2019-10-28T13:44:46Z</time>
      </trkpt>
      <trkpt lat="45.49291" lon="5.97024">
        <ele>396</ele>
        <time>2019-10-28T13:44:48Z</time>
      </trkpt>
      <trkpt lat="45.49291" lon="5.9702">
        <ele>396</ele>
        <time>2019-10-28T13:44:51Z</time>
      </trkpt>
      <trkpt lat="45.49292" lon="5.97015">
        <ele>396</ele>
        <time>2019-10-28T13:44:54Z</time>
      </trkpt>
      <trkpt lat="45.49291" lon="5.97011">
        <ele>396</ele>
        <time>2019-10-28T13:44:57Z</time>
      </trkpt>
      <trkpt lat="45.49294" lon="5.96983">
        <ele>397</ele>
        <time>2019-10-28T13:45:28Z</time>
      </trkpt>
      <trkpt lat="45.49294" lon="5.96977">
        <ele>397</ele>
        <time>2019-10-28T13:45:31Z</time>
      </trkpt>
      <trkpt lat="45.49294" lon="5.9697">
        <ele>398</ele>
        <time>2019-10-28T13:45:34Z</time>
      </trkpt>
      <trkpt lat="45.49297" lon="5.96953">
        <ele>398</ele>
        <time>2019-10-28T13:45:44Z</time>
      </trkpt>
      <trkpt lat="45.49301" lon="5.96937">
        <ele>398</ele>
        <time>2019-10-28T13:45:56Z</time>
      </trkpt>
      <trkpt lat="45.49304" lon="5.96921">
        <ele>398</ele>
        <time>2019-10-28T13:46:05Z</time>
      </trkpt>
      <trkpt lat="45.49303" lon="5.96913">
        <ele>398</ele>
        <time>2019-10-28T13:46:11Z</time>
      </trkpt>
      <trkpt lat="45.49302" lon="5.96905">
        <ele>399</ele>
        <time>2019-10-28T13:46:16Z</time>
      </trkpt>
      <trkpt lat="45.49299" lon="5.96901">
        <ele>399</ele>
        <time>2019-10-28T13:46:20Z</time>
      </trkpt>
      <trkpt lat="45.49294" lon="5.96892">
        <ele>399</ele>
        <time>2019-10-28T13:46:27Z</time>
      </trkpt>
      <trkpt lat="45.49284" lon="5.96881">
        <ele>399</ele>
        <time>2019-10-28T13:46:38Z</time>
      </trkpt>
      <trkpt lat="45.49281" lon="5.96877">
        <ele>399</ele>
        <time>2019-10-28T13:46:42Z</time>
      </trkpt>
      <trkpt lat="45.49278" lon="5.96873">
        <ele>399</ele>
        <time>2019-10-28T13:46:46Z</time>
      </trkpt>
      <trkpt lat="45.49272" lon="5.96861">
        <ele>399</ele>
        <time>2019-10-28T13:46:55Z</time>
      </trkpt>
      <trkpt lat="45.49265" lon="5.96828">
        <ele>400</ele>
        <time>2019-10-28T13:47:16Z</time>
      </trkpt>
      <trkpt lat="45.49263" lon="5.96825">
        <ele>400</ele>
        <time>2019-10-28T13:47:19Z</time>
      </trkpt>
      <trkpt lat="45.4926" lon="5.96823">
        <ele>400</ele>
        <time>2019-10-28T13:47:22Z</time>
      </trkpt>
      <trkpt lat="45.49258" lon="5.96824">
        <ele>400</ele>
        <time>2019-10-28T13:47:25Z</time>
      </trkpt>
      <trkpt lat="45.49238" lon="5.96839">
        <ele>401</ele>
        <time>2019-10-28T13:47:47Z</time>
      </trkpt>
      <trkpt lat="45.49207" lon="5.96858">
        <ele>402</ele>
        <time>2019-10-28T13:48:17Z</time>
      </trkpt>
      <trkpt lat="45.49204" lon="5.9686">
        <ele>402</ele>
        <time>2019-10-28T13:48:21Z</time>
      </trkpt>
      <trkpt lat="45.49169" lon="5.9688">
        <ele>403</ele>
        <time>2019-10-28T13:48:53Z</time>
      </trkpt>
      <trkpt lat="45.4915" lon="5.96889">
        <ele>403</ele>
        <time>2019-10-28T13:49:09Z</time>
      </trkpt>
      <trkpt lat="45.49146" lon="5.96891">
        <ele>403</ele>
        <time>2019-10-28T13:49:12Z</time>
      </trkpt>
      <trkpt lat="45.49121" lon="5.96896">
        <ele>404</ele>
        <time>2019-10-28T13:49:34Z</time>
      </trkpt>
      <trkpt lat="45.49112" lon="5.96906">
        <ele>404</ele>
        <time>2019-10-28T13:49:43Z</time>
      </trkpt>
      <trkpt lat="45.49093" lon="5.96938">
        <ele>404</ele>
        <time>2019-10-28T13:50:07Z</time>
      </trkpt>
      <trkpt lat="45.4909" lon="5.96941">
        <ele>404</ele>
        <time>2019-10-28T13:50:10Z</time>
      </trkpt>
      <trkpt lat="45.49085" lon="5.96942">
        <ele>404</ele>
        <time>2019-10-28T13:50:18Z</time>
      </trkpt>
      <trkpt lat="45.49083" lon="5.96942">
        <ele>404</ele>
        <time>2019-10-28T13:50:22Z</time>
      </trkpt>
      <trkpt lat="45.49072" lon="5.9695">
        <ele>405</ele>
        <time>2019-10-28T13:50:33Z</time>
      </trkpt>
      <trkpt lat="45.4906" lon="5.9697">
        <ele>405</ele>
        <time>2019-10-28T13:50:50Z</time>
      </trkpt>
      <trkpt lat="45.49058" lon="5.96981">
        <ele>405</ele>
        <time>2019-10-28T13:50:57Z</time>
      </trkpt>
      <trkpt lat="45.49058" lon="5.96987">
        <ele>405</ele>
        <time>2019-10-28T13:51:02Z</time>
      </trkpt>
      <trkpt lat="45.49059" lon="5.96991">
        <ele>405</ele>
        <time>2019-10-28T13:51:21Z</time>
      </trkpt>
      <trkpt lat="45.49074" lon="5.96999">
        <ele>405</ele>
        <time>2019-10-28T13:51:51Z</time>
      </trkpt>
      <trkpt lat="45.49084" lon="5.97011">
        <ele>405</ele>
        <time>2019-10-28T13:52:04Z</time>
      </trkpt>
      <trkpt lat="45.49065" lon="5.96993">
        <ele>405</ele>
        <time>2019-10-28T13:52:33Z</time>
      </trkpt>
      <trkpt lat="45.49062" lon="5.9699">
        <ele>405</ele>
        <time>2019-10-28T13:52:37Z</time>
      </trkpt>
      <trkpt lat="45.49045" lon="5.97001">
        <ele>405</ele>
        <time>2019-10-28T13:52:56Z</time>
      </trkpt>
      <trkpt lat="45.49037" lon="5.97007">
        <ele>405</ele>
        <time>2019-10-28T13:53:41Z</time>
      </trkpt>
      <trkpt lat="45.49034" lon="5.97008">
        <ele>406</ele>
        <time>2019-10-28T13:54:02Z</time>
      </trkpt>
      <trkpt lat="45.4903" lon="5.97007">
        <ele>406</ele>
        <time>2019-10-28T13:54:06Z</time>
      </trkpt>
      <trkpt lat="45.49024" lon="5.97007">
        <ele>406</ele>
        <time>2019-10-28T13:54:14Z</time>
      </trkpt>
      <trkpt lat="45.49017" lon="5.97002">
        <ele>406</ele>
        <time>2019-10-28T13:54:22Z</time>
      </trkpt>
      <trkpt lat="45.48995" lon="5.96988">
        <ele>407</ele>
        <time>2019-10-28T13:54:47Z</time>
      </trkpt>
      <trkpt lat="45.48987" lon="5.96984">
        <ele>407</ele>
        <time>2019-10-28T13:54:57Z</time>
      </trkpt>
      <trkpt lat="45.48985" lon="5.9698">
        <ele>408</ele>
        <time>2019-10-28T13:55:01Z</time>
      </trkpt>
      <trkpt lat="45.48985" lon="5.96975">
        <ele>408</ele>
        <time>2019-10-28T13:55:05Z</time>
      </trkpt>
      <trkpt lat="45.48982" lon="5.96961">
        <ele>408</ele>
        <time>2019-10-28T13:55:17Z</time>
      </trkpt>
      <trkpt lat="45.48978" lon="5.96958">
        <ele>409</ele>
        <time>2019-10-28T13:55:22Z</time>
      </trkpt>
      <trkpt lat="45.48963" lon="5.96959">
        <ele>410</ele>
        <time>2019-10-28T13:55:36Z</time>
      </trkpt>
      <trkpt lat="45.48948" lon="5.96967">
        <ele>411</ele>
        <time>2019-10-28T13:55:54Z</time>
      </trkpt>
      <trkpt lat="45.48936" lon="5.96969">
        <ele>412</ele>
        <time>2019-10-28T13:56:04Z</time>
      </trkpt>
      <trkpt lat="45.48933" lon="5.96971">
        <ele>412</ele>
        <time>2019-10-28T13:56:07Z</time>
      </trkpt>
      <trkpt lat="45.4893" lon="5.96971">
        <ele>412</ele>
        <time>2019-10-28T13:56:10Z</time>
      </trkpt>
      <trkpt lat="45.48927" lon="5.96973">
        <ele>413</ele>
        <time>2019-10-28T13:56:13Z</time>
      </trkpt>
      <trkpt lat="45.48924" lon="5.96974">
        <ele>413</ele>
        <time>2019-10-28T13:56:16Z</time>
      </trkpt>
      <trkpt lat="45.48903" lon="5.96982">
        <ele>414</ele>
        <time>2019-10-28T13:56:35Z</time>
      </trkpt>
      <trkpt lat="45.48895" lon="5.96985">
        <ele>415</ele>
        <time>2019-10-28T13:56:44Z</time>
      </trkpt>
      <trkpt lat="45.48882" lon="5.96989">
        <ele>416</ele>
        <time>2019-10-28T13:56:56Z</time>
      </trkpt>
      <trkpt lat="45.48867" lon="5.97">
        <ele>417</ele>
        <time>2019-10-28T13:57:14Z</time>
      </trkpt>
      <trkpt lat="45.48864" lon="5.97">
        <ele>417</ele>
        <time>2019-10-28T13:57:18Z</time>
      </trkpt>
      <trkpt lat="45.48861" lon="5.97">
        <ele>418</ele>
        <time>2019-10-28T13:57:21Z</time>
      </trkpt>
      <trkpt lat="45.4885" lon="5.96998">
        <ele>418</ele>
        <time>2019-10-28T13:57:32Z</time>
      </trkpt>
      <trkpt lat="45.48846" lon="5.96997">
        <ele>419</ele>
        <time>2019-10-28T13:57:35Z</time>
      </trkpt>
      <trkpt lat="45.48839" lon="5.9699">
        <ele>420</ele>
        <time>2019-10-28T13:57:54Z</time>
      </trkpt>
      <trkpt lat="45.48813" lon="5.96981">
        <ele>423</ele>
        <time>2019-10-28T13:58:25Z</time>
      </trkpt>
      <trkpt lat="45.488" lon="5.96985">
        <ele>423</ele>
        <time>2019-10-28T13:58:35Z</time>
      </trkpt>
      <trkpt lat="45.48785" lon="5.96992">
        <ele>424</ele>
        <time>2019-10-28T13:58:47Z</time>
      </trkpt>
      <trkpt lat="45.48776" lon="5.96999">
        <ele>425</ele>
        <time>2019-10-28T13:58:55Z</time>
      </trkpt>
      <trkpt lat="45.48773" lon="5.97001">
        <ele>425</ele>
        <time>2019-10-28T13:58:58Z</time>
      </trkpt>
      <trkpt lat="45.48769" lon="5.97002">
        <ele>425</ele>
        <time>2019-10-28T13:59:01Z</time>
      </trkpt>
      <trkpt lat="45.48763" lon="5.97005">
        <ele>425</ele>
        <time>2019-10-28T13:59:06Z</time>
      </trkpt>
      <trkpt lat="45.48744" lon="5.9701">
        <ele>426</ele>
        <time>2019-10-28T13:59:23Z</time>
      </trkpt>
      <trkpt lat="45.48736" lon="5.97009">
        <ele>427</ele>
        <time>2019-10-28T13:59:29Z</time>
      </trkpt>
      <trkpt lat="45.48733" lon="5.97006">
        <ele>427</ele>
        <time>2019-10-28T13:59:33Z</time>
      </trkpt>
      <trkpt lat="45.48721" lon="5.96989">
        <ele>427</ele>
        <time>2019-10-28T13:59:45Z</time>
      </trkpt>
      <trkpt lat="45.48716" lon="5.96978">
        <ele>428</ele>
        <time>2019-10-28T13:59:52Z</time>
      </trkpt>
      <trkpt lat="45.48708" lon="5.96953">
        <ele>428</ele>
        <time>2019-10-28T14:00:09Z</time>
      </trkpt>
      <trkpt lat="45.48706" lon="5.96948">
        <ele>428</ele>
        <time>2019-10-28T14:00:13Z</time>
      </trkpt>
      <trkpt lat="45.48675" lon="5.96922">
        <ele>430</ele>
        <time>2019-10-28T14:00:45Z</time>
      </trkpt>
      <trkpt lat="45.48669" lon="5.96916">
        <ele>430</ele>
        <time>2019-10-28T14:00:51Z</time>
      </trkpt>
      <trkpt lat="45.48658" lon="5.96909">
        <ele>430</ele>
        <time>2019-10-28T14:01:02Z</time>
      </trkpt>
      <trkpt lat="45.48652" lon="5.96907">
        <ele>431</ele>
        <time>2019-10-28T14:01:08Z</time>
      </trkpt>
      <trkpt lat="45.48635" lon="5.96895">
        <ele>431</ele>
        <time>2019-10-28T14:01:24Z</time>
      </trkpt>
      <trkpt lat="45.48632" lon="5.96893">
        <ele>431</ele>
        <time>2019-10-28T14:01:28Z</time>
      </trkpt>
      <trkpt lat="45.48628" lon="5.96897">
        <ele>432</ele>
        <time>2019-10-28T14:01:33Z</time>
      </trkpt>
      <trkpt lat="45.48612" lon="5.9692">
        <ele>433</ele>
        <time>2019-10-28T14:01:51Z</time>
      </trkpt>
      <trkpt lat="45.48598" lon="5.96929">
        <ele>433</ele>
        <time>2019-10-28T14:02:04Z</time>
      </trkpt>
      <trkpt lat="45.48573" lon="5.96935">
        <ele>435</ele>
        <time>2019-10-28T14:02:29Z</time>
      </trkpt>
      <trkpt lat="45.48566" lon="5.96932">
        <ele>435</ele>
        <time>2019-10-28T14:02:37Z</time>
      </trkpt>
      <trkpt lat="45.48557" lon="5.96937">
        <ele>436</ele>
        <time>2019-10-28T14:02:45Z</time>
      </trkpt>
      <trkpt lat="45.48538" lon="5.96939">
        <ele>437</ele>
        <time>2019-10-28T14:03:12Z</time>
      </trkpt>
      <trkpt lat="45.48532" lon="5.96938">
        <ele>438</ele>
        <time>2019-10-28T14:03:45Z</time>
      </trkpt>
      <trkpt lat="45.48529" lon="5.96937">
        <ele>438</ele>
        <time>2019-10-28T14:03:49Z</time>
      </trkpt>
      <trkpt lat="45.48527" lon="5.96936">
        <ele>439</ele>
        <time>2019-10-28T14:03:52Z</time>
      </trkpt>
      <trkpt lat="45.48524" lon="5.96936">
        <ele>439</ele>
        <time>2019-10-28T14:03:56Z</time>
      </trkpt>
      <trkpt lat="45.48512" lon="5.96925">
        <ele>440</ele>
        <time>2019-10-28T14:04:18Z</time>
      </trkpt>
      <trkpt lat="45.48505" lon="5.96916">
        <ele>440</ele>
        <time>2019-10-28T14:04:28Z</time>
      </trkpt>
      <trkpt lat="45.48504" lon="5.96911">
        <ele>440</ele>
        <time>2019-10-28T14:04:30Z</time>
      </trkpt>
      <trkpt lat="45.48501" lon="5.96909">
        <ele>441</ele>
        <time>2019-10-28T14:04:35Z</time>
      </trkpt>
      <trkpt lat="45.48494" lon="5.96904">
        <ele>441</ele>
        <time>2019-10-28T14:04:44Z</time>
      </trkpt>
      <trkpt lat="45.48483" lon="5.96894">
        <ele>442</ele>
        <time>2019-10-28T14:04:56Z</time>
      </trkpt>
      <trkpt lat="45.48481" lon="5.96892">
        <ele>442</ele>
        <time>2019-10-28T14:04:59Z</time>
      </trkpt>
      <trkpt lat="45.48476" lon="5.96887">
        <ele>442</ele>
        <time>2019-10-28T14:05:05Z</time>
      </trkpt>
      <trkpt lat="45.48463" lon="5.96877">
        <ele>443</ele>
        <time>2019-10-28T14:05:17Z</time>
      </trkpt>
      <trkpt lat="45.48438" lon="5.96867">
        <ele>445</ele>
        <time>2019-10-28T14:05:41Z</time>
      </trkpt>
      <trkpt lat="45.48428" lon="5.96859">
        <ele>445</ele>
        <time>2019-10-28T14:05:51Z</time>
      </trkpt>
      <trkpt lat="45.48426" lon="5.96855">
        <ele>446</ele>
        <time>2019-10-28T14:05:54Z</time>
      </trkpt>
      <trkpt lat="45.48406" lon="5.96834">
        <ele>447</ele>
        <time>2019-10-28T14:06:17Z</time>
      </trkpt>
      <trkpt lat="45.48403" lon="5.96832">
        <ele>448</ele>
        <time>2019-10-28T14:06:21Z</time>
      </trkpt>
      <trkpt lat="45.484" lon="5.96829">
        <ele>448</ele>
        <time>2019-10-28T14:06:26Z</time>
      </trkpt>
      <trkpt lat="45.48397" lon="5.96826">
        <ele>448</ele>
        <time>2019-10-28T14:06:29Z</time>
      </trkpt>
      <trkpt lat="45.48395" lon="5.96823">
        <ele>449</ele>
        <time>2019-10-28T14:06:41Z</time>
      </trkpt>
      <trkpt lat="45.48391" lon="5.96817">
        <ele>450</ele>
        <time>2019-10-28T14:06:49Z</time>
      </trkpt>
      <trkpt lat="45.48372" lon="5.96801">
        <ele>452</ele>
        <time>2019-10-28T14:07:13Z</time>
      </trkpt>
      <trkpt lat="45.48368" lon="5.96797">
        <ele>452</ele>
        <time>2019-10-28T14:07:17Z</time>
      </trkpt>
      <trkpt lat="45.48365" lon="5.96793">
        <ele>453</ele>
        <time>2019-10-28T14:07:25Z</time>
      </trkpt>
      <trkpt lat="45.48355" lon="5.96791">
        <ele>455</ele>
        <time>2019-10-28T14:07:52Z</time>
      </trkpt>
      <trkpt lat="45.48351" lon="5.96791">
        <ele>456</ele>
        <time>2019-10-28T14:07:59Z</time>
      </trkpt>
      <trkpt lat="45.48348" lon="5.96794">
        <ele>464</ele>
        <time>2019-10-28T14:11:00Z</time>
      </trkpt>
      <trkpt lat="45.48334" lon="5.96804">
        <ele>465</ele>
        <time>2019-10-28T14:11:15Z</time>
      </trkpt>
      <trkpt lat="45.48319" lon="5.96809">
        <ele>465</ele>
        <time>2019-10-28T14:11:27Z</time>
      </trkpt>
      <trkpt lat="45.48308" lon="5.96807">
        <ele>465</ele>
        <time>2019-10-28T14:11:44Z</time>
      </trkpt>
      <trkpt lat="45.48303" lon="5.96809">
        <ele>465</ele>
        <time>2019-10-28T14:11:52Z</time>
      </trkpt>
      <trkpt lat="45.48298" lon="5.96814">
        <ele>465</ele>
        <time>2019-10-28T14:12:02Z</time>
      </trkpt>
      <trkpt lat="45.48294" lon="5.96838">
        <ele>466</ele>
        <time>2019-10-28T14:12:22Z</time>
      </trkpt>
      <trkpt lat="45.48294" lon="5.96846">
        <ele>467</ele>
        <time>2019-10-28T14:12:30Z</time>
      </trkpt>
      <trkpt lat="45.48295" lon="5.96855">
        <ele>467</ele>
        <time>2019-10-28T14:12:38Z</time>
      </trkpt>
      <trkpt lat="45.48293" lon="5.96875">
        <ele>468</ele>
        <time>2019-10-28T14:12:52Z</time>
      </trkpt>
      <trkpt lat="45.48293" lon="5.96879">
        <ele>469</ele>
        <time>2019-10-28T14:12:58Z</time>
      </trkpt>
      <trkpt lat="45.48291" lon="5.9688">
        <ele>469</ele>
        <time>2019-10-28T14:13:03Z</time>
      </trkpt>
      <trkpt lat="45.48287" lon="5.9688">
        <ele>470</ele>
        <time>2019-10-28T14:13:14Z</time>
      </trkpt>
      <trkpt lat="45.48274" lon="5.96878">
        <ele>472</ele>
        <time>2019-10-28T14:13:30Z</time>
      </trkpt>
      <trkpt lat="45.48269" lon="5.96879">
        <ele>472</ele>
        <time>2019-10-28T14:13:35Z</time>
      </trkpt>
      <trkpt lat="45.48268" lon="5.96879">
        <ele>475</ele>
        <time>2019-10-28T14:14:14Z</time>
      </trkpt>
      <trkpt lat="45.48271" lon="5.96882">
        <ele>478</ele>
        <time>2019-10-28T14:14:58Z</time>
      </trkpt>
      <trkpt lat="45.48269" lon="5.96884">
        <ele>482</ele>
        <time>2019-10-28T14:16:21Z</time>
      </trkpt>
      <trkpt lat="45.48269" lon="5.96878">
        <ele>483</ele>
        <time>2019-10-28T14:17:01Z</time>
      </trkpt>
      <trkpt lat="45.48266" lon="5.96877">
        <ele>484</ele>
        <time>2019-10-28T14:17:31Z</time>
      </trkpt>
      <trkpt lat="45.48263" lon="5.96878">
        <ele>484</ele>
        <time>2019-10-28T14:17:36Z</time>
      </trkpt>
      <trkpt lat="45.48253" lon="5.96881">
        <ele>484</ele>
        <time>2019-10-28T14:17:46Z</time>
      </trkpt>
      <trkpt lat="45.4825" lon="5.96884">
        <ele>484</ele>
        <time>2019-10-28T14:17:50Z</time>
      </trkpt>
      <trkpt lat="45.48246" lon="5.96886">
        <ele>484</ele>
        <time>2019-10-28T14:17:55Z</time>
      </trkpt>
      <trkpt lat="45.48239" lon="5.96893">
        <ele>484</ele>
        <time>2019-10-28T14:18:04Z</time>
      </trkpt>
      <trkpt lat="45.48235" lon="5.96902">
        <ele>484</ele>
        <time>2019-10-28T14:18:11Z</time>
      </trkpt>
      <trkpt lat="45.48228" lon="5.96917">
        <ele>484</ele>
        <time>2019-10-28T14:18:22Z</time>
      </trkpt>
      <trkpt lat="45.48225" lon="5.96922">
        <ele>484</ele>
        <time>2019-10-28T14:18:26Z</time>
      </trkpt>
      <trkpt lat="45.48201" lon="5.9694">
        <ele>485</ele>
        <time>2019-10-28T14:18:54Z</time>
      </trkpt>
      <trkpt lat="45.48193" lon="5.96942">
        <ele>486</ele>
        <time>2019-10-28T14:19:03Z</time>
      </trkpt>
      <trkpt lat="45.48189" lon="5.96941">
        <ele>486</ele>
        <time>2019-10-28T14:19:09Z</time>
      </trkpt>
      <trkpt lat="45.48186" lon="5.9694">
        <ele>486</ele>
        <time>2019-10-28T14:19:13Z</time>
      </trkpt>
      <trkpt lat="45.48181" lon="5.96944">
        <ele>488</ele>
        <time>2019-10-28T14:20:30Z</time>
      </trkpt>
      <trkpt lat="45.48172" lon="5.96946">
        <ele>488</ele>
        <time>2019-10-28T14:20:39Z</time>
      </trkpt>
      <trkpt lat="45.48169" lon="5.96949">
        <ele>488</ele>
        <time>2019-10-28T14:20:42Z</time>
      </trkpt>
      <trkpt lat="45.48165" lon="5.96955">
        <ele>488</ele>
        <time>2019-10-28T14:20:54Z</time>
      </trkpt>
      <trkpt lat="45.48162" lon="5.96953">
        <ele>488</ele>
        <time>2019-10-28T14:21:25Z</time>
      </trkpt>
      <trkpt lat="45.4816" lon="5.96951">
        <ele>488</ele>
        <time>2019-10-28T14:21:28Z</time>
      </trkpt>
      <trkpt lat="45.48157" lon="5.96949">
        <ele>488</ele>
        <time>2019-10-28T14:21:31Z</time>
      </trkpt>
      <trkpt lat="45.48157" lon="5.96955">
        <ele>487</ele>
        <time>2019-10-28T14:21:37Z</time>
      </trkpt>
      <trkpt lat="45.4816" lon="5.96958">
        <ele>487</ele>
        <time>2019-10-28T14:21:40Z</time>
      </trkpt>
      <trkpt lat="45.48176" lon="5.96973">
        <ele>487</ele>
        <time>2019-10-28T14:22:10Z</time>
      </trkpt>
      <trkpt lat="45.48177" lon="5.96975">
        <ele>487</ele>
        <time>2019-10-28T14:22:13Z</time>
      </trkpt>
      <trkpt lat="45.48183" lon="5.96979">
        <ele>487</ele>
        <time>2019-10-28T14:22:19Z</time>
      </trkpt>
      <trkpt lat="45.48196" lon="5.96985">
        <ele>487</ele>
        <time>2019-10-28T14:22:34Z</time>
      </trkpt>
      <trkpt lat="45.48202" lon="5.9699">
        <ele>487</ele>
        <time>2019-10-28T14:22:40Z</time>
      </trkpt>
      <trkpt lat="45.4821" lon="5.97001">
        <ele>487</ele>
        <time>2019-10-28T14:22:59Z</time>
      </trkpt>
      <trkpt lat="45.48212" lon="5.97005">
        <ele>487</ele>
        <time>2019-10-28T14:23:02Z</time>
      </trkpt>
      <trkpt lat="45.48212" lon="5.97016">
        <ele>487</ele>
        <time>2019-10-28T14:23:09Z</time>
      </trkpt>
      <trkpt lat="45.48212" lon="5.9702">
        <ele>486</ele>
        <time>2019-10-28T14:23:16Z</time>
      </trkpt>
      <trkpt lat="45.48215" lon="5.97052">
        <ele>486</ele>
        <time>2019-10-28T14:23:50Z</time>
      </trkpt>
      <trkpt lat="45.48216" lon="5.97056">
        <ele>485</ele>
        <time>2019-10-28T14:24:20Z</time>
      </trkpt>
      <trkpt lat="45.48218" lon="5.97066">
        <ele>485</ele>
        <time>2019-10-28T14:24:29Z</time>
      </trkpt>
      <trkpt lat="45.48219" lon="5.97072">
        <ele>485</ele>
        <time>2019-10-28T14:24:34Z</time>
      </trkpt>
      <trkpt lat="45.48219" lon="5.97076">
        <ele>484</ele>
        <time>2019-10-28T14:24:38Z</time>
      </trkpt>
      <trkpt lat="45.48237" lon="5.97108">
        <ele>483</ele>
        <time>2019-10-28T14:25:10Z</time>
      </trkpt>
      <trkpt lat="45.48238" lon="5.97113">
        <ele>483</ele>
        <time>2019-10-28T14:25:15Z</time>
      </trkpt>
      <trkpt lat="45.48239" lon="5.97119">
        <ele>482</ele>
        <time>2019-10-28T14:25:19Z</time>
      </trkpt>
      <trkpt lat="45.4824" lon="5.97125">
        <ele>482</ele>
        <time>2019-10-28T14:25:24Z</time>
      </trkpt>
      <trkpt lat="45.48243" lon="5.97134">
        <ele>481</ele>
        <time>2019-10-28T14:25:33Z</time>
      </trkpt>
      <trkpt lat="45.48251" lon="5.97152">
        <ele>480</ele>
        <time>2019-10-28T14:25:51Z</time>
      </trkpt>
      <trkpt lat="45.48255" lon="5.97155">
        <ele>479</ele>
        <time>2019-10-28T14:25:56Z</time>
      </trkpt>
      <trkpt lat="45.48262" lon="5.97171">
        <ele>478</ele>
        <time>2019-10-28T14:26:12Z</time>
      </trkpt>
      <trkpt lat="45.48264" lon="5.97176">
        <ele>478</ele>
        <time>2019-10-28T14:26:17Z</time>
      </trkpt>
      <trkpt lat="45.48264" lon="5.97178">
        <ele>476</ele>
        <time>2019-10-28T14:26:29Z</time>
      </trkpt>
      <trkpt lat="45.48264" lon="5.97184">
        <ele>471</ele>
        <time>2019-10-28T14:27:38Z</time>
      </trkpt>
      <trkpt lat="45.48267" lon="5.97187">
        <ele>471</ele>
        <time>2019-10-28T14:27:48Z</time>
      </trkpt>
      <trkpt lat="45.48271" lon="5.97189">
        <ele>470</ele>
        <time>2019-10-28T14:27:53Z</time>
      </trkpt>
      <trkpt lat="45.48278" lon="5.97195">
        <ele>469</ele>
        <time>2019-10-28T14:28:12Z</time>
      </trkpt>
      <trkpt lat="45.4828" lon="5.97199">
        <ele>469</ele>
        <time>2019-10-28T14:28:18Z</time>
      </trkpt>
      <trkpt lat="45.48287" lon="5.97206">
        <ele>467</ele>
        <time>2019-10-28T14:28:37Z</time>
      </trkpt>
      <trkpt lat="45.48291" lon="5.97206">
        <ele>467</ele>
        <time>2019-10-28T14:28:39Z</time>
      </trkpt>
      <trkpt lat="45.48298" lon="5.97216">
        <ele>464</ele>
        <time>2019-10-28T14:29:20Z</time>
      </trkpt>
      <trkpt lat="45.48294" lon="5.97218">
        <ele>460</ele>
        <time>2019-10-28T14:30:19Z</time>
      </trkpt>
      <trkpt lat="45.48304" lon="5.97238">
        <ele>459</ele>
        <time>2019-10-28T14:30:46Z</time>
      </trkpt>
      <trkpt lat="45.48309" lon="5.97243">
        <ele>458</ele>
        <time>2019-10-28T14:30:51Z</time>
      </trkpt>
      <trkpt lat="45.48311" lon="5.97248">
        <ele>454</ele>
        <time>2019-10-28T14:32:02Z</time>
      </trkpt>
      <trkpt lat="45.48313" lon="5.97253">
        <ele>454</ele>
        <time>2019-10-28T14:32:09Z</time>
      </trkpt>
      <trkpt lat="45.48321" lon="5.97277">
        <ele>452</ele>
        <time>2019-10-28T14:32:28Z</time>
      </trkpt>
      <trkpt lat="45.48321" lon="5.97283">
        <ele>452</ele>
        <time>2019-10-28T14:32:34Z</time>
      </trkpt>
      <trkpt lat="45.48324" lon="5.97295">
        <ele>451</ele>
        <time>2019-10-28T14:32:43Z</time>
      </trkpt>
      <trkpt lat="45.48325" lon="5.97301">
        <ele>451</ele>
        <time>2019-10-28T14:32:47Z</time>
      </trkpt>
      <trkpt lat="45.48335" lon="5.97346">
        <ele>448</ele>
        <time>2019-10-28T14:33:18Z</time>
      </trkpt>
      <trkpt lat="45.48338" lon="5.9736">
        <ele>447</ele>
        <time>2019-10-28T14:33:27Z</time>
      </trkpt>
      <trkpt lat="45.48341" lon="5.97364">
        <ele>447</ele>
        <time>2019-10-28T14:33:30Z</time>
      </trkpt>
      <trkpt lat="45.48358" lon="5.97376">
        <ele>445</ele>
        <time>2019-10-28T14:33:45Z</time>
      </trkpt>
      <trkpt lat="45.4839" lon="5.97387">
        <ele>443</ele>
        <time>2019-10-28T14:34:10Z</time>
      </trkpt>
      <trkpt lat="45.48407" lon="5.974">
        <ele>441</ele>
        <time>2019-10-28T14:34:28Z</time>
      </trkpt>
      <trkpt lat="45.48429" lon="5.97431">
        <ele>439</ele>
        <time>2019-10-28T14:34:58Z</time>
      </trkpt>
      <trkpt lat="45.4843" lon="5.97433">
        <ele>438</ele>
        <time>2019-10-28T14:35:01Z</time>
      </trkpt>
      <trkpt lat="45.48429" lon="5.97434">
        <ele>436</ele>
        <time>2019-10-28T14:35:34Z</time>
      </trkpt>
      <trkpt lat="45.48436" lon="5.97458">
        <ele>434</ele>
        <time>2019-10-28T14:35:58Z</time>
      </trkpt>
      <trkpt lat="45.48447" lon="5.97483">
        <ele>432</ele>
        <time>2019-10-28T14:36:19Z</time>
      </trkpt>
      <trkpt lat="45.48448" lon="5.97486">
        <ele>431</ele>
        <time>2019-10-28T14:36:28Z</time>
      </trkpt>
      <trkpt lat="45.48467" lon="5.97527">
        <ele>427</ele>
        <time>2019-10-28T14:36:59Z</time>
      </trkpt>
      <trkpt lat="45.48472" lon="5.97541">
        <ele>426</ele>
        <time>2019-10-28T14:37:08Z</time>
      </trkpt>
      <trkpt lat="45.48473" lon="5.97546">
        <ele>425</ele>
        <time>2019-10-28T14:37:11Z</time>
      </trkpt>
      <trkpt lat="45.48485" lon="5.9758">
        <ele>422</ele>
        <time>2019-10-28T14:37:32Z</time>
      </trkpt>
      <trkpt lat="45.48496" lon="5.976">
        <ele>420</ele>
        <time>2019-10-28T14:37:48Z</time>
      </trkpt>
      <trkpt lat="45.48502" lon="5.97605">
        <ele>419</ele>
        <time>2019-10-28T14:37:54Z</time>
      </trkpt>
      <trkpt lat="45.48506" lon="5.97606">
        <ele>419</ele>
        <time>2019-10-28T14:37:57Z</time>
      </trkpt>
      <trkpt lat="45.48514" lon="5.97617">
        <ele>418</ele>
        <time>2019-10-28T14:38:07Z</time>
      </trkpt>
      <trkpt lat="45.48537" lon="5.97666">
        <ele>414</ele>
        <time>2019-10-28T14:38:40Z</time>
      </trkpt>
      <trkpt lat="45.48537" lon="5.97696">
        <ele>412</ele>
        <time>2019-10-28T14:39:02Z</time>
      </trkpt>
      <trkpt lat="45.4854" lon="5.977">
        <ele>411</ele>
        <time>2019-10-28T14:39:17Z</time>
      </trkpt>
      <trkpt lat="45.48557" lon="5.97718">
        <ele>409</ele>
        <time>2019-10-28T14:39:41Z</time>
      </trkpt>
      <trkpt lat="45.4857" lon="5.97747">
        <ele>407</ele>
        <time>2019-10-28T14:40:07Z</time>
      </trkpt>
      <trkpt lat="45.48575" lon="5.97754">
        <ele>407</ele>
        <time>2019-10-28T14:40:13Z</time>
      </trkpt>
      <trkpt lat="45.48578" lon="5.97758">
        <ele>407</ele>
        <time>2019-10-28T14:40:17Z</time>
      </trkpt>
      <trkpt lat="45.48589" lon="5.97752">
        <ele>406</ele>
        <time>2019-10-28T14:40:28Z</time>
      </trkpt>
      <trkpt lat="45.48604" lon="5.9774">
        <ele>405</ele>
        <time>2019-10-28T14:40:44Z</time>
      </trkpt>
      <trkpt lat="45.48606" lon="5.97736">
        <ele>403</ele>
        <time>2019-10-28T14:41:06Z</time>
      </trkpt>
      <trkpt lat="45.48611" lon="5.97735">
        <ele>403</ele>
        <time>2019-10-28T14:41:11Z</time>
      </trkpt>
      <trkpt lat="45.48617" lon="5.97734">
        <ele>403</ele>
        <time>2019-10-28T14:41:17Z</time>
      </trkpt>
      <trkpt lat="45.4863" lon="5.97739">
        <ele>402</ele>
        <time>2019-10-28T14:41:31Z</time>
      </trkpt>
      <trkpt lat="45.48637" lon="5.97744">
        <ele>401</ele>
        <time>2019-10-28T14:41:37Z</time>
      </trkpt>
      <trkpt lat="45.48642" lon="5.97748">
        <ele>401</ele>
        <time>2019-10-28T14:41:42Z</time>
      </trkpt>
      <trkpt lat="45.48647" lon="5.97752">
        <ele>400</ele>
        <time>2019-10-28T14:41:47Z</time>
      </trkpt>
      <trkpt lat="45.48653" lon="5.97754">
        <ele>400</ele>
        <time>2019-10-28T14:41:52Z</time>
      </trkpt>
      <trkpt lat="45.48668" lon="5.97751">
        <ele>399</ele>
        <time>2019-10-28T14:42:04Z</time>
      </trkpt>
      <trkpt lat="45.48684" lon="5.97741">
        <ele>398</ele>
        <time>2019-10-28T14:42:20Z</time>
      </trkpt>
      <trkpt lat="45.48719" lon="5.97738">
        <ele>395</ele>
        <time>2019-10-28T14:42:50Z</time>
      </trkpt>
      <trkpt lat="45.48753" lon="5.97746">
        <ele>392</ele>
        <time>2019-10-28T14:43:21Z</time>
      </trkpt>
      <trkpt lat="45.48783" lon="5.97751">
        <ele>390</ele>
        <time>2019-10-28T14:43:48Z</time>
      </trkpt>
      <trkpt lat="45.48794" lon="5.97748">
        <ele>388</ele>
        <time>2019-10-28T14:44:00Z</time>
      </trkpt>
      <trkpt lat="45.48803" lon="5.97744">
        <ele>387</ele>
        <time>2019-10-28T14:44:09Z</time>
      </trkpt>
      <trkpt lat="45.48805" lon="5.97741">
        <ele>387</ele>
        <time>2019-10-28T14:44:12Z</time>
      </trkpt>
      <trkpt lat="45.48808" lon="5.97739">
        <ele>387</ele>
        <time>2019-10-28T14:44:15Z</time>
      </trkpt>
      <trkpt lat="45.48812" lon="5.97737">
        <ele>386</ele>
        <time>2019-10-28T14:44:20Z</time>
      </trkpt>
      <trkpt lat="45.48816" lon="5.97737">
        <ele>385</ele>
        <time>2019-10-28T14:44:39Z</time>
      </trkpt>
      <trkpt lat="45.48818" lon="5.97736">
        <ele>382</ele>
        <time>2019-10-28T14:45:04Z</time>
      </trkpt>
      <trkpt lat="45.48821" lon="5.97738">
        <ele>382</ele>
        <time>2019-10-28T14:45:07Z</time>
      </trkpt>
      <trkpt lat="45.48827" lon="5.97739">
        <ele>381</ele>
        <time>2019-10-28T14:45:13Z</time>
      </trkpt>
      <trkpt lat="45.48831" lon="5.97739">
        <ele>381</ele>
        <time>2019-10-28T14:45:17Z</time>
      </trkpt>
      <trkpt lat="45.48835" lon="5.97737">
        <ele>381</ele>
        <time>2019-10-28T14:45:23Z</time>
      </trkpt>
      <trkpt lat="45.4884" lon="5.97738">
        <ele>381</ele>
        <time>2019-10-28T14:45:29Z</time>
      </trkpt>
      <trkpt lat="45.48844" lon="5.97739">
        <ele>380</ele>
        <time>2019-10-28T14:45:33Z</time>
      </trkpt>
      <trkpt lat="45.48848" lon="5.9774">
        <ele>380</ele>
        <time>2019-10-28T14:45:45Z</time>
      </trkpt>
      <trkpt lat="45.48852" lon="5.9774">
        <ele>380</ele>
        <time>2019-10-28T14:45:48Z</time>
      </trkpt>
      <trkpt lat="45.48861" lon="5.97738">
        <ele>379</ele>
        <time>2019-10-28T14:46:02Z</time>
      </trkpt>
      <trkpt lat="45.48865" lon="5.97738">
        <ele>379</ele>
        <time>2019-10-28T14:46:16Z</time>
      </trkpt>
      <trkpt lat="45.48881" lon="5.97729">
        <ele>378</ele>
        <time>2019-10-28T14:46:29Z</time>
      </trkpt>
      <trkpt lat="45.48892" lon="5.97726">
        <ele>378</ele>
        <time>2019-10-28T14:46:40Z</time>
      </trkpt>
      <trkpt lat="45.48913" lon="5.97733">
        <ele>377</ele>
        <time>2019-10-28T14:47:10Z</time>
      </trkpt>
      <trkpt lat="45.48918" lon="5.97731">
        <ele>377</ele>
        <time>2019-10-28T14:47:14Z</time>
      </trkpt>
      <trkpt lat="45.48928" lon="5.97722">
        <ele>377</ele>
        <time>2019-10-28T14:47:23Z</time>
      </trkpt>
      <trkpt lat="45.48943" lon="5.97703">
        <ele>377</ele>
        <time>2019-10-28T14:47:40Z</time>
      </trkpt>
      <trkpt lat="45.48958" lon="5.97695">
        <ele>377</ele>
        <time>2019-10-28T14:47:57Z</time>
      </trkpt>
      <trkpt lat="45.4896" lon="5.9769">
        <ele>377</ele>
        <time>2019-10-28T14:48:12Z</time>
      </trkpt>
      <trkpt lat="45.48971" lon="5.97685">
        <ele>377</ele>
        <time>2019-10-28T14:48:24Z</time>
      </trkpt>
      <trkpt lat="45.48982" lon="5.97682">
        <ele>377</ele>
        <time>2019-10-28T14:48:32Z</time>
      </trkpt>
      <trkpt lat="45.4899" lon="5.97682">
        <ele>377</ele>
        <time>2019-10-28T14:48:40Z</time>
      </trkpt>
      <trkpt lat="45.49006" lon="5.97686">
        <ele>377</ele>
        <time>2019-10-28T14:48:53Z</time>
      </trkpt>
      <trkpt lat="45.49014" lon="5.97683">
        <ele>377</ele>
        <time>2019-10-28T14:49:00Z</time>
      </trkpt>
      <trkpt lat="45.49022" lon="5.97681">
        <ele>377</ele>
        <time>2019-10-28T14:49:09Z</time>
      </trkpt>
      <trkpt lat="45.49026" lon="5.97682">
        <ele>377</ele>
        <time>2019-10-28T14:49:13Z</time>
      </trkpt>
      <trkpt lat="45.49035" lon="5.97685">
        <ele>377</ele>
        <time>2019-10-28T14:49:21Z</time>
      </trkpt>
      <trkpt lat="45.49042" lon="5.97687">
        <ele>377</ele>
        <time>2019-10-28T14:49:27Z</time>
      </trkpt>
      <trkpt lat="45.49066" lon="5.9772">
        <ele>376</ele>
        <time>2019-10-28T14:49:57Z</time>
      </trkpt>
      <trkpt lat="45.49068" lon="5.97725">
        <ele>376</ele>
        <time>2019-10-28T14:50:06Z</time>
      </trkpt>
      <trkpt lat="45.49091" lon="5.9774">
        <ele>376</ele>
        <time>2019-10-28T14:50:26Z</time>
      </trkpt>
      <trkpt lat="45.49098" lon="5.97745">
        <ele>376</ele>
        <time>2019-10-28T14:50:33Z</time>
      </trkpt>
      <trkpt lat="45.491" lon="5.97749">
        <ele>376</ele>
        <time>2019-10-28T14:50:37Z</time>
      </trkpt>
      <trkpt lat="45.49085" lon="5.97775">
        <ele>376</ele>
        <time>2019-10-28T14:50:57Z</time>
      </trkpt>
      <trkpt lat="45.49082" lon="5.97781">
        <ele>376</ele>
        <time>2019-10-28T14:51:01Z</time>
      </trkpt>
      <trkpt lat="45.49078" lon="5.97791">
        <ele>376</ele>
        <time>2019-10-28T14:51:07Z</time>
      </trkpt>
      <trkpt lat="45.49063" lon="5.97812">
        <ele>376</ele>
        <time>2019-10-28T14:51:24Z</time>
      </trkpt>
      <trkpt lat="45.49055" lon="5.97831">
        <ele>375</ele>
        <time>2019-10-28T14:51:38Z</time>
      </trkpt>
      <trkpt lat="45.49051" lon="5.97849">
        <ele>375</ele>
        <time>2019-10-28T14:51:49Z</time>
      </trkpt>
      <trkpt lat="45.49051" lon="5.97873">
        <ele>375</ele>
        <time>2019-10-28T14:52:04Z</time>
      </trkpt>
      <trkpt lat="45.49054" lon="5.9789">
        <ele>375</ele>
        <time>2019-10-28T14:52:15Z</time>
      </trkpt>
      <trkpt lat="45.49058" lon="5.979">
        <ele>375</ele>
        <time>2019-10-28T14:52:22Z</time>
      </trkpt>
      <trkpt lat="45.4906" lon="5.97905">
        <ele>375</ele>
        <time>2019-10-28T14:52:26Z</time>
      </trkpt>
      <trkpt lat="45.49066" lon="5.97927">
        <ele>374</ele>
        <time>2019-10-28T14:52:40Z</time>
      </trkpt>
      <trkpt lat="45.49077" lon="5.97948">
        <ele>374</ele>
        <time>2019-10-28T14:52:54Z</time>
      </trkpt>
      <trkpt lat="45.49083" lon="5.97964">
        <ele>373</ele>
        <time>2019-10-28T14:53:06Z</time>
      </trkpt>
      <trkpt lat="45.4911" lon="5.98003">
        <ele>371</ele>
        <time>2019-10-28T14:53:36Z</time>
      </trkpt>
      <trkpt lat="45.49116" lon="5.98013">
        <ele>371</ele>
        <time>2019-10-28T14:53:42Z</time>
      </trkpt>
      <trkpt lat="45.49119" lon="5.98024">
        <ele>370</ele>
        <time>2019-10-28T14:53:52Z</time>
      </trkpt>
      <trkpt lat="45.49118" lon="5.98036">
        <ele>370</ele>
        <time>2019-10-28T14:53:59Z</time>
      </trkpt>
      <trkpt lat="45.49114" lon="5.98062">
        <ele>369</ele>
        <time>2019-10-28T14:54:14Z</time>
      </trkpt>
      <trkpt lat="45.49112" lon="5.98066">
        <ele>369</ele>
        <time>2019-10-28T14:54:16Z</time>
      </trkpt>
      <trkpt lat="45.4911" lon="5.98088">
        <ele>368</ele>
        <time>2019-10-28T14:54:31Z</time>
      </trkpt>
      <trkpt lat="45.49108" lon="5.98099">
        <ele>367</ele>
        <time>2019-10-28T14:54:40Z</time>
      </trkpt>
      <trkpt lat="45.49106" lon="5.98105">
        <ele>367</ele>
        <time>2019-10-28T14:54:44Z</time>
      </trkpt>
      <trkpt lat="45.49108" lon="5.9811">
        <ele>366</ele>
        <time>2019-10-28T14:54:47Z</time>
      </trkpt>
      <trkpt lat="45.49109" lon="5.98115">
        <ele>366</ele>
        <time>2019-10-28T14:54:52Z</time>
      </trkpt>
      <trkpt lat="45.4911" lon="5.98119">
        <ele>365</ele>
        <time>2019-10-28T14:54:59Z</time>
      </trkpt>
      <trkpt lat="45.4911" lon="5.98124">
        <ele>365</ele>
        <time>2019-10-28T14:55:03Z</time>
      </trkpt>
      <trkpt lat="45.49105" lon="5.98155">
        <ele>362</ele>
        <time>2019-10-28T14:55:29Z</time>
      </trkpt>
      <trkpt lat="45.49106" lon="5.9816">
        <ele>362</ele>
        <time>2019-10-28T14:55:33Z</time>
      </trkpt>
      <trkpt lat="45.49109" lon="5.98162">
        <ele>362</ele>
        <time>2019-10-28T14:55:37Z</time>
      </trkpt>
      <trkpt lat="45.49112" lon="5.98161">
        <ele>361</ele>
        <time>2019-10-28T14:55:41Z</time>
      </trkpt>
      <trkpt lat="45.49127" lon="5.98159">
        <ele>359</ele>
        <time>2019-10-28T14:55:58Z</time>
      </trkpt>
      <trkpt lat="45.4913" lon="5.98162">
        <ele>359</ele>
        <time>2019-10-28T14:56:02Z</time>
      </trkpt>
      <trkpt lat="45.49134" lon="5.98179">
        <ele>357</ele>
        <time>2019-10-28T14:56:17Z</time>
      </trkpt>
      <trkpt lat="45.49134" lon="5.98198">
        <ele>356</ele>
        <time>2019-10-28T14:56:32Z</time>
      </trkpt>
      <trkpt lat="45.49137" lon="5.982">
        <ele>355</ele>
        <time>2019-10-28T14:56:38Z</time>
      </trkpt>
      <trkpt lat="45.49137" lon="5.98202">
        <ele>353</ele>
        <time>2019-10-28T14:56:55Z</time>
      </trkpt>
      <trkpt lat="45.49135" lon="5.98202">
        <ele>352</ele>
        <time>2019-10-28T14:56:57Z</time>
      </trkpt>
      <trkpt lat="45.49133" lon="5.98202">
        <ele>352</ele>
        <time>2019-10-28T14:57:01Z</time>
      </trkpt>
      <trkpt lat="45.49124" lon="5.98233">
        <ele>349</ele>
        <time>2019-10-28T14:57:30Z</time>
      </trkpt>
      <trkpt lat="45.49122" lon="5.98237">
        <ele>348</ele>
        <time>2019-10-28T14:57:35Z</time>
      </trkpt>
      <trkpt lat="45.49126" lon="5.98241">
        <ele>347</ele>
        <time>2019-10-28T14:57:45Z</time>
      </trkpt>
      <trkpt lat="45.49142" lon="5.98243">
        <ele>345</ele>
        <time>2019-10-28T14:57:58Z</time>
      </trkpt>
      <trkpt lat="45.49145" lon="5.98244">
        <ele>344</ele>
        <time>2019-10-28T14:58:02Z</time>
      </trkpt>
      <trkpt lat="45.49157" lon="5.98251">
        <ele>343</ele>
        <time>2019-10-28T14:58:16Z</time>
      </trkpt>
      <trkpt lat="45.4916" lon="5.98252">
        <ele>342</ele>
        <time>2019-10-28T14:58:20Z</time>
      </trkpt>
      <trkpt lat="45.49164" lon="5.98253">
        <ele>342</ele>
        <time>2019-10-28T14:58:23Z</time>
      </trkpt>
      <trkpt lat="45.4917" lon="5.98258">
        <ele>341</ele>
        <time>2019-10-28T14:58:30Z</time>
      </trkpt>
      <trkpt lat="45.49173" lon="5.98264">
        <ele>341</ele>
        <time>2019-10-28T14:58:34Z</time>
      </trkpt>
      <trkpt lat="45.49175" lon="5.98272">
        <ele>340</ele>
        <time>2019-10-28T14:58:41Z</time>
      </trkpt>
      <trkpt lat="45.49174" lon="5.98279">
        <ele>339</ele>
        <time>2019-10-28T14:58:44Z</time>
      </trkpt>
      <trkpt lat="45.49176" lon="5.98284">
        <ele>339</ele>
        <time>2019-10-28T14:58:48Z</time>
      </trkpt>
      <trkpt lat="45.49179" lon="5.98292">
        <ele>338</ele>
        <time>2019-10-28T14:58:53Z</time>
      </trkpt>
      <trkpt lat="45.49175" lon="5.98336">
        <ele>334</ele>
        <time>2019-10-28T14:59:25Z</time>
      </trkpt>
      <trkpt lat="45.49173" lon="5.98348">
        <ele>333</ele>
        <time>2019-10-28T14:59:33Z</time>
      </trkpt>
      <trkpt lat="45.49172" lon="5.98353">
        <ele>333</ele>
        <time>2019-10-28T14:59:37Z</time>
      </trkpt>
      <trkpt lat="45.4917" lon="5.98359">
        <ele>332</ele>
        <time>2019-10-28T14:59:47Z</time>
      </trkpt>
      <trkpt lat="45.49165" lon="5.98361">
        <ele>331</ele>
        <time>2019-10-28T14:59:51Z</time>
      </trkpt>
      <trkpt lat="45.49158" lon="5.98363">
        <ele>331</ele>
        <time>2019-10-28T14:59:57Z</time>
      </trkpt>
      <trkpt lat="45.49152" lon="5.98367">
        <ele>330</ele>
        <time>2019-10-28T15:00:04Z</time>
      </trkpt>
      <trkpt lat="45.49145" lon="5.9838">
        <ele>329</ele>
        <time>2019-10-28T15:00:14Z</time>
      </trkpt>
      <trkpt lat="45.49142" lon="5.98389">
        <ele>328</ele>
        <time>2019-10-28T15:00:20Z</time>
      </trkpt>
      <trkpt lat="45.49136" lon="5.98441">
        <ele>325</ele>
        <time>2019-10-28T15:00:50Z</time>
      </trkpt>
      <trkpt lat="45.49132" lon="5.98463">
        <ele>324</ele>
        <time>2019-10-28T15:01:03Z</time>
      </trkpt>
      <trkpt lat="45.49135" lon="5.98477">
        <ele>323</ele>
        <time>2019-10-28T15:01:15Z</time>
      </trkpt>
      <trkpt lat="45.49135" lon="5.9849">
        <ele>323</ele>
        <time>2019-10-28T15:01:23Z</time>
      </trkpt>
      <trkpt lat="45.49134" lon="5.98495">
        <ele>322</ele>
        <time>2019-10-28T15:01:33Z</time>
      </trkpt>
      <trkpt lat="45.49144" lon="5.98515">
        <ele>321</ele>
        <time>2019-10-28T15:01:53Z</time>
      </trkpt>
      <trkpt lat="45.49148" lon="5.98521">
        <ele>320</ele>
        <time>2019-10-28T15:01:59Z</time>
      </trkpt>
      <trkpt lat="45.4915" lon="5.98526">
        <ele>320</ele>
        <time>2019-10-28T15:02:06Z</time>
      </trkpt>
      <trkpt lat="45.49158" lon="5.98546">
        <ele>318</ele>
        <time>2019-10-28T15:02:42Z</time>
      </trkpt>
      <trkpt lat="45.49168" lon="5.98569">
        <ele>317</ele>
        <time>2019-10-28T15:03:15Z</time>
      </trkpt>
      <trkpt lat="45.4917" lon="5.98573">
        <ele>316</ele>
        <time>2019-10-28T15:03:18Z</time>
      </trkpt>
      <trkpt lat="45.49177" lon="5.9858">
        <ele>316</ele>
        <time>2019-10-28T15:03:26Z</time>
      </trkpt>
      <trkpt lat="45.4918" lon="5.98586">
        <ele>316</ele>
        <time>2019-10-28T15:03:30Z</time>
      </trkpt>
      <trkpt lat="45.49197" lon="5.98609">
        <ele>315</ele>
        <time>2019-10-28T15:03:51Z</time>
      </trkpt>
      <trkpt lat="45.49209" lon="5.98613">
        <ele>315</ele>
        <time>2019-10-28T15:04:00Z</time>
      </trkpt>
      <trkpt lat="45.49213" lon="5.98616">
        <ele>315</ele>
        <time>2019-10-28T15:04:04Z</time>
      </trkpt>
      <trkpt lat="45.49225" lon="5.9863">
        <ele>315</ele>
        <time>2019-10-28T15:04:20Z</time>
      </trkpt>
      <trkpt lat="45.49231" lon="5.98631">
        <ele>314</ele>
        <time>2019-10-28T15:04:28Z</time>
      </trkpt>
      <trkpt lat="45.4924" lon="5.9864">
        <ele>314</ele>
        <time>2019-10-28T15:04:39Z</time>
      </trkpt>
      <trkpt lat="45.49252" lon="5.98653">
        <ele>313</ele>
        <time>2019-10-28T15:04:51Z</time>
      </trkpt>
      <trkpt lat="45.49272" lon="5.98679">
        <ele>313</ele>
        <time>2019-10-28T15:05:12Z</time>
      </trkpt>
      <trkpt lat="45.49298" lon="5.98708">
        <ele>312</ele>
        <time>2019-10-28T15:05:44Z</time>
      </trkpt>
      <trkpt lat="45.49307" lon="5.98721">
        <ele>312</ele>
        <time>2019-10-28T15:05:56Z</time>
      </trkpt>
      <trkpt lat="45.49312" lon="5.98732">
        <ele>311</ele>
        <time>2019-10-28T15:06:05Z</time>
      </trkpt>
      <trkpt lat="45.49334" lon="5.98753">
        <ele>311</ele>
        <time>2019-10-28T15:06:28Z</time>
      </trkpt>
      <trkpt lat="45.49347" lon="5.98787">
        <ele>310</ele>
        <time>2019-10-28T15:06:51Z</time>
      </trkpt>
      <trkpt lat="45.4937" lon="5.98821">
        <ele>309</ele>
        <time>2019-10-28T15:07:20Z</time>
      </trkpt>
      <trkpt lat="45.4937" lon="5.98828">
        <ele>308</ele>
        <time>2019-10-28T15:09:04Z</time>
      </trkpt>
      <trkpt lat="45.4937" lon="5.98828">
        <ele>308</ele>
        <time>2019-10-28T15:09:05Z</time>
      </trkpt>
      <trkpt lat="45.49371" lon="5.98832">
        <ele>308</ele>
        <time>2019-10-28T15:09:22Z</time>
      </trkpt>
      <trkpt lat="45.49368" lon="5.98825">
        <ele>307</ele>
        <time>2019-10-28T15:11:49Z</time>
      </trkpt>
      <trkpt lat="45.49308" lon="5.98739">
        <ele>307</ele>
        <time>2019-10-28T15:12:19Z</time>
      </trkpt>
      <trkpt lat="45.49238" lon="5.98641">
        <ele>307</ele>
        <time>2019-10-28T15:12:37Z</time>
      </trkpt>
      <trkpt lat="45.49233" lon="5.98635">
        <ele>307</ele>
        <time>2019-10-28T15:12:39Z</time>
      </trkpt>
      <trkpt lat="45.49229" lon="5.98633">
        <ele>307</ele>
        <time>2019-10-28T15:12:41Z</time>
      </trkpt>
      <trkpt lat="45.49226" lon="5.98636">
        <ele>307</ele>
        <time>2019-10-28T15:12:46Z</time>
      </trkpt>
      <trkpt lat="45.49224" lon="5.98643">
        <ele>307</ele>
        <time>2019-10-28T15:12:48Z</time>
      </trkpt>
      <trkpt lat="45.49401" lon="5.98898">
        <ele>307</ele>
        <time>2019-10-28T15:13:18Z</time>
      </trkpt>
      <trkpt lat="45.495" lon="5.99048">
        <ele>307</ele>
        <time>2019-10-28T15:13:33Z</time>
      </trkpt>
    </trkseg>
  </trk>
</gpx>